Provisional Data: Nanticoke Creek near Maine, NY


Please select a monitoring station.
Please select start date.
Please select start date.

Toggle Unit: C/F Toggle Unit: C/F
Sample Time Temperature (C) Temperature (F) Specific Conductivity (mS/cm) pH   Turbidity (NTU+) DO (mg/L)
4/13/2022 12:00:00 AM 11.06 51.908 0.098 6.95 33.72 10.21
4/13/2022 12:15:00 AM 10.93 51.674 0.098 6.91 25.28 10.26
4/13/2022 12:30:00 AM 10.81 51.458 0.098 6.94 68.65 10.28
4/13/2022 12:45:00 AM 10.69 51.242 0.098 6.92 29.13 10.31
4/13/2022 1:00:00 AM 10.56 51.008 0.098 6.96 38.28 10.33
4/13/2022 1:15:00 AM 10.44 50.792 0.098 6.9 27.44 10.34
4/13/2022 1:30:00 AM 10.31 50.558 0.098 6.96 27.6 10.4
4/13/2022 1:45:00 AM 10.19 50.342 0.098 6.96 29.15 10.42
4/13/2022 2:00:00 AM 10.06 50.108 0.098 6.96 34.69 10.44
4/13/2022 2:15:00 AM 9.95 49.91 0.098 6.95 25.66 10.46
4/13/2022 2:30:00 AM 9.81 49.658 0.098 6.95 31.04 10.52
4/13/2022 2:45:00 AM 9.7 49.46 0.098 6.93 30.61 10.55
4/13/2022 3:00:00 AM 9.59 49.262 0.098 6.93 43.36 10.58
4/13/2022 3:15:00 AM 9.49 49.082 0.098 6.89 27.87 10.59
4/13/2022 3:30:00 AM 9.39 48.902 0.098 6.89 44.12 10.6
4/13/2022 3:45:00 AM 9.3 48.74 0.098 6.94 45.95 10.65
4/13/2022 4:00:00 AM 9.21 48.578 0.098 6.94 26.61 10.66
4/13/2022 4:15:00 AM 9.12 48.416 0.098 6.92 87.95 10.68
4/13/2022 4:30:00 AM 9.04 48.272 0.098 6.92 24.27 10.72
4/13/2022 4:45:00 AM 8.96 48.128 0.098 6.86 30.79 10.72
4/13/2022 5:00:00 AM 8.88 47.984 0.098 6.92 27.12 10.75
4/13/2022 5:15:00 AM 8.81 47.858 0.098 6.85 40.74 10.76
4/13/2022 5:30:00 AM 8.75 47.75 0.098 6.92 40.15 10.79
4/13/2022 5:45:00 AM 8.68 47.624 0.098 6.86 40.27 10.83
4/13/2022 6:00:00 AM 8.62 47.516 0.098 6.87 34.18 10.85
4/13/2022 6:15:00 AM 8.57 47.426 0.098 6.86 42.34 10.86
4/13/2022 6:30:00 AM 8.51 47.318 0.098 6.89 42.75 10.89
4/13/2022 6:45:00 AM 8.47 47.246 0.098 6.88 32.85 10.9
4/13/2022 7:00:00 AM 8.43 47.174 0.098 6.87 39.81 10.89
4/13/2022 7:15:00 AM 8.39 47.102 0.098 6.85 56.23 10.92
4/13/2022 7:30:00 AM 8.36 47.048 0.098 6.89 30.86 10.93
4/13/2022 7:45:00 AM 8.33 46.994 0.098 6.89 55.6 10.94
4/13/2022 8:00:00 AM 8.3 46.94 0.098 6.89 21.96 10.95
4/13/2022 8:15:00 AM 8.29 46.922 0.098 6.86 40.31 10.93
4/13/2022 8:30:00 AM 8.28 46.904 0.098 6.9 31.52 10.95
4/13/2022 8:45:00 AM 8.28 46.904 0.099 6.91 26.83 10.98
4/13/2022 9:00:00 AM 8.29 46.922 0.099 6.91 31.95 11.04
4/13/2022 9:15:00 AM 8.32 46.976 0.099 6.91 32.84 11.02
4/13/2022 9:30:00 AM 8.36 47.048 0.099 6.95 35.19 11.09
4/13/2022 9:45:00 AM 8.4 47.12 0.099 6.94 35.29 11.11
4/13/2022 10:00:00 AM 8.45 47.21 0.099 6.92 30 11.1
4/13/2022 10:15:00 AM 8.51 47.318 0.099 6.96 22.44 11.11
4/13/2022 10:30:00 AM 8.59 47.462 0.099 6.96 32.39 11.12
4/13/2022 10:45:00 AM 8.67 47.606 0.099 6.96 23.23 11.12
4/13/2022 11:00:00 AM 8.78 47.804 0.099 6.96 23.33 11.11
4/13/2022 11:15:00 AM 8.93 48.074 0.099 6.97 27.66 11.06
4/13/2022 11:30:00 AM 9.06 48.308 0.099 6.95 23.36 11.07
4/13/2022 11:45:00 AM 9.19 48.542 0.099 6.98 27.91 11.08
4/13/2022 12:00:00 PM 9.32 48.776 0.099 6.99 29.02 11.09
4/13/2022 12:15:00 PM 9.44 48.992 0.1 6.99 24.66 11.01
4/13/2022 12:30:00 PM 9.61 49.298 0.1 6.99 20.6 11.02
4/13/2022 12:45:00 PM 9.77 49.586 0.1 7 22.64 10.99
4/13/2022 1:00:00 PM 9.95 49.91 0.1 7.01 22.33 10.97
4/13/2022 1:15:00 PM 10.17 50.306 0.1 7.02 25.22 10.97
4/13/2022 1:30:00 PM 10.43 50.774 0.1 7.03 26.85 10.97
4/13/2022 1:45:00 PM 10.69 51.242 0.1 7.01 22.8 10.98
4/13/2022 2:00:00 PM 10.97 51.746 0.1 7 23.99 10.98
4/13/2022 2:15:00 PM 11.11 51.998 0.1 7.02 25.53 10.88
4/13/2022 2:30:00 PM 11.32 52.376 0.1 6.99 22.78 10.84
4/13/2022 2:45:00 PM 11.47 52.646 0.1 7.05 27.85 10.83
4/13/2022 3:00:00 PM 11.6 52.88 0.1 7.05 19.07 10.82
4/13/2022 3:15:00 PM 11.71 53.078 0.101 7.01 21.07 10.69
4/13/2022 3:30:00 PM 11.83 53.294 0.101 7 23.33 10.64
4/13/2022 3:45:00 PM 11.92 53.456 0.101 7.03 20.31 10.53
4/13/2022 4:00:00 PM 12.01 53.618 0.101 7.03 23.22 10.43
4/13/2022 4:15:00 PM 12.15 53.87 0.101 7.03 24.49 10.49
4/13/2022 4:30:00 PM 12.3 54.14 0.101 6.99 55.76 10.46
4/13/2022 4:45:00 PM 12.41 54.338 0.101 7 41.13 10.39
4/13/2022 5:00:00 PM 12.49 54.482 0.101 6.99 56.09 10.32
4/13/2022 5:15:00 PM 12.57 54.626 0.101 6.99 20.61 10.26
4/13/2022 5:30:00 PM 12.64 54.752 0.102 7 21.14 10.23
4/13/2022 5:45:00 PM 12.7 54.86 0.102 6.97 39.76 10.15
4/13/2022 6:00:00 PM 12.74 54.932 0.102 6.99 36.72 10.18
4/13/2022 6:15:00 PM 12.77 54.986 0.102 6.96 23.8 10.11
4/13/2022 6:30:00 PM 12.79 55.022 0.102 6.99 23.46 10.03
4/13/2022 6:45:00 PM 12.8 55.04 0.102 6.97 31.38 9.96
4/13/2022 7:00:00 PM 12.81 55.058 0.102 6.96 31.4 9.89
4/13/2022 7:15:00 PM 12.81 55.058 0.103 6.97 24.51 9.82
4/13/2022 7:30:00 PM 12.82 55.076 0.103 6.96 24.08 9.64
4/13/2022 7:45:00 PM 12.82 55.076 0.103 6.95 24.34 9.61
4/13/2022 8:00:00 PM 12.82 55.076 0.103 6.9 39.25 9.48
4/13/2022 8:15:00 PM 12.82 55.076 0.103 6.91 27.96 9.39
4/13/2022 8:30:00 PM 12.82 55.076 0.103 6.87 36.96 9.27
4/13/2022 8:45:00 PM 12.81 55.058 0.103 6.84 31.04 9.14
4/13/2022 9:00:00 PM 12.8 55.04 0.103 6.86 27.25 9.04
4/13/2022 9:15:00 PM 12.79 55.022 0.104 6.81 32.74 8.9
4/13/2022 9:30:00 PM 12.77 54.986 0.104 6.82 28.54 8.78
4/13/2022 9:45:00 PM 12.76 54.968 0.104 6.78 54.89 8.7
4/13/2022 10:00:00 PM 12.74 54.932 0.104 6.77 58.31 8.57
4/13/2022 10:15:00 PM 12.72 54.896 0.104 6.76 62.09 8.5
4/13/2022 10:30:00 PM 12.7 54.86 0.104 6.78 41.67 8.38
4/13/2022 10:45:00 PM 12.67 54.806 0.105 6.73 68.95 8.21
4/13/2022 11:00:00 PM 12.64 54.752 0.105 6.73 64.96 8.15
4/13/2022 11:15:00 PM 12.6 54.68 0.105 6.71 56.34 8
4/13/2022 11:30:00 PM 12.57 54.626 0.105 6.69 50.09 7.91
4/13/2022 11:45:00 PM 12.53 54.554 0.105 6.69 67.36 7.77
4/14/2022 12:00:00 AM 12.5 54.5 0.105 6.68 48.52 7.64
4/14/2022 12:15:00 AM 12.46 54.428 0.106 6.67 67.36 7.52
4/14/2022 12:30:00 AM 12.43 54.374 0.106 6.66 54.01 7.41
4/14/2022 12:45:00 AM 12.38 54.284 0.106 6.65 57.33 7.27
4/14/2022 1:00:00 AM 12.34 54.212 0.106 6.64 29.3 7.16
4/14/2022 1:15:00 AM 12.3 54.14 0.106 6.62 27.58 7.05
4/14/2022 1:30:00 AM 12.25 54.05 0.106 6.63 49.48 6.96
4/14/2022 1:45:00 AM 12.2 53.96 0.107 6.6 38.32 6.82
4/14/2022 2:00:00 AM 12.15 53.87 0.107 6.61 47.83 6.71
4/14/2022 2:15:00 AM 12.09 53.762 0.107 6.61 47.65 6.73
4/14/2022 2:30:00 AM 12.03 53.654 0.107 6.63 33.67 6.67
4/14/2022 2:45:00 AM 11.98 53.564 0.107 6.6 54.2 6.56
4/14/2022 3:00:00 AM 11.92 53.456 0.107 6.62 43.12 6.39
4/14/2022 3:15:00 AM 11.86 53.348 0.107 6.59 61.08 6.3
4/14/2022 3:30:00 AM 11.81 53.258 0.108 6.62 31.59 6.37
4/14/2022 3:45:00 AM 11.75 53.15 0.108 6.59 51.26 6.31
4/14/2022 4:00:00 AM 11.69 53.042 0.108 6.59 95.32 6.28
4/14/2022 4:15:00 AM 11.62 52.916 0.108 6.61 42.05 6.29
4/14/2022 4:30:00 AM 11.56 52.808 0.108 6.58 59.88 6.18
4/14/2022 4:45:00 AM 11.5 52.7 0.108 6.59 38.37 6.07
4/14/2022 5:00:00 AM 11.44 52.592 0.108 6.57 55.34 6.06
4/14/2022 5:15:00 AM 11.38 52.484 0.108 6.58 32.43 5.91
4/14/2022 5:30:00 AM 11.31 52.358 0.108 6.58 31.27 5.85
4/14/2022 5:45:00 AM 11.25 52.25 0.108 6.55 40.61 5.78
4/14/2022 6:00:00 AM 11.19 52.142 0.108 6.55 40.83 5.71
4/14/2022 6:15:00 AM 11.13 52.034 0.108 6.57 28.35 5.66
4/14/2022 6:30:00 AM 11.07 51.926 0.108 6.54 41.43 5.62
4/14/2022 6:45:00 AM 11.01 51.818 0.109 6.56 26.57 5.53
4/14/2022 7:00:00 AM 10.96 51.728 0.109 6.55 29.14 5.48
4/14/2022 7:15:00 AM 10.89 51.602 0.109 6.53 50.52 5.41
4/14/2022 7:30:00 AM 10.84 51.512 0.109 6.52 37.83 5.35
4/14/2022 7:45:00 AM 10.78 51.404 0.109 6.54 24.25 5.27
4/14/2022 8:00:00 AM 10.73 51.314 0.109 6.52 25.91 5.22
4/14/2022 8:15:00 AM 10.69 51.242 0.109 6.54 23.71 5.21
4/14/2022 8:30:00 AM 10.65 51.17 0.109 6.53 24.44 5.14
4/14/2022 8:45:00 AM 10.62 51.116 0.109 6.53 23.64 5.11
4/14/2022 9:00:00 AM 10.59 51.062 0.109 6.53 23.64 5.1
4/14/2022 9:15:00 AM 10.58 51.044 0.109 6.53 21.61 5.1
4/14/2022 9:30:00 AM 10.58 51.044 0.109 6.56 22.82 5.66
4/14/2022 9:45:00 AM 10.61 51.098 0.109 6.67 20.11 7.8
4/14/2022 10:00:00 AM 10.66 51.188 0.108 6.71 19.16 8.31
4/14/2022 10:15:00 AM 10.72 51.296 0.108 6.77 19.12 8.75
4/14/2022 10:30:00 AM 10.81 51.458 0.107 6.79 20.06 9.12
4/14/2022 10:45:00 AM 10.94 51.692 0.107 6.81 30.28 9.47
4/14/2022 11:00:00 AM 11.04 51.872 0.106 6.84 19.93 9.6
4/14/2022 11:15:00 AM 11.17 52.106 0.106 6.84 26.53 9.78
4/14/2022 11:30:00 AM 11.29 52.322 0.106 6.87 17.79 9.77
4/14/2022 11:45:00 AM 11.43 52.574 0.106 6.87 19.35 9.78
4/14/2022 12:00:00 PM 11.54 52.772 0.105 6.85 19.25 9.69
4/14/2022 12:15:00 PM 11.62 52.916 0.105 6.87 17.81 9.74
4/14/2022 12:30:00 PM 11.72 53.096 0.105 6.88 23.48 9.84
4/14/2022 12:45:00 PM 11.81 53.258 0.105 6.86 29.83 9.73
4/14/2022 1:00:00 PM 11.9 53.42 0.105 6.91 17.27 9.71
4/14/2022 1:15:00 PM 11.99 53.582 0.105 6.93 18.81 9.83
4/14/2022 1:30:00 PM 12.1 53.78 0.105 6.94 17.86 9.93
4/14/2022 1:45:00 PM 12.2 53.96 0.105 6.92 58.48 9.88
4/14/2022 2:00:00 PM 12.29 54.122 0.105 6.92 26.45 9.9
4/14/2022 2:15:00 PM 12.37 54.266 0.105 6.93 30.93 9.84
4/14/2022 2:30:00 PM 12.44 54.392 0.105 6.93 42.46 9.72
4/14/2022 2:45:00 PM 12.49 54.482 0.105 6.93 43.43 9.75
4/14/2022 3:00:00 PM 12.52 54.536 0.105 6.95 26.36 9.72
4/14/2022 3:15:00 PM 12.54 54.572 0.105 6.91 37.77 9.46
4/14/2022 3:30:00 PM 12.55 54.59 0.105 6.9 36.98 9.39
4/14/2022 3:45:00 PM 12.55 54.59 0.105 6.88 62.71 9.36
4/14/2022 4:00:00 PM 12.55 54.59 0.105 6.86 80.06 9.22
4/14/2022 4:15:00 PM 12.54 54.572 0.105 6.83 106.04 9.13
4/14/2022 4:30:00 PM 12.54 54.572 0.105 6.85 56.53 9.1
4/14/2022 4:45:00 PM 12.54 54.572 0.105 6.81 81.94 9
4/14/2022 5:00:00 PM 12.53 54.554 0.105 6.83 72.39 9.14
4/14/2022 5:15:00 PM 12.53 54.554 0.105 6.86 73.44 9.32
4/14/2022 5:30:00 PM 12.53 54.554 0.105 6.85 67.71 9.3
4/14/2022 5:45:00 PM 12.53 54.554 0.105 6.86 81.84 9.22
4/14/2022 6:00:00 PM 12.53 54.554 0.105 6.84 71.26 9.18
4/14/2022 6:15:00 PM 12.52 54.536 0.105 6.83 43.35 9.11
4/14/2022 6:30:00 PM 12.51 54.518 0.105 6.84 33.29 9.02
4/14/2022 6:45:00 PM 12.5 54.5 0.105 6.8 33.44 8.79
4/14/2022 7:00:00 PM 12.48 54.464 0.105 6.76 77.6 8.43
4/14/2022 7:15:00 PM 12.46 54.428 0.106 6.67 67.36 7.47
4/14/2022 7:30:00 PM 12.44 54.392 0.106 6.62 23.54 6.91
4/14/2022 7:45:00 PM 12.36 54.248 0.106 6.91 20.66 9.5
4/14/2022 8:00:00 PM 12.23 54.014 0.105 7.05 18.55 10.18
4/14/2022 8:15:00 PM 12.15 53.87 0.104 7.07 21.88 10.22
4/14/2022 8:30:00 PM 12.07 53.726 0.104 7.07 39.52 10.23
4/14/2022 8:45:00 PM 11.98 53.564 0.104 7.09 22.92 10.24
4/14/2022 9:00:00 PM 11.91 53.438 0.104 7.07 24.1 10.22
4/14/2022 9:15:00 PM 11.82 53.276 0.104 7.06 39.98 10.18
4/14/2022 9:30:00 PM 11.74 53.132 0.104 7.06 18.1 10.17
4/14/2022 9:45:00 PM 11.65 52.97 0.104 7.05 42.57 10.17
4/14/2022 10:00:00 PM 11.55 52.79 0.104 7.05 38.74 10.18
4/14/2022 10:15:00 PM 11.46 52.628 0.104 7.04 34.4 10.17
4/14/2022 10:30:00 PM 11.37 52.466 0.104 7.04 35.92 10.19
4/14/2022 10:45:00 PM 11.27 52.286 0.104 7.04 32.72 10.18
4/14/2022 11:00:00 PM 11.17 52.106 0.105 7.02 23.3 10.17
4/14/2022 11:15:00 PM 11.1 51.98 0.105 7.02 18.19 10.16
4/14/2022 11:30:00 PM 11.02 51.836 0.105 7.03 21.63 10.18
4/14/2022 11:45:00 PM 10.95 51.71 0.105 7 31.92 10.15
4/15/2022 12:00:00 AM 10.9 51.62 0.105 7 27.93 10.12
4/15/2022 12:15:00 AM 10.84 51.512 0.105 6.98 50.35 10.08
4/15/2022 12:30:00 AM 10.79 51.422 0.105 6.96 22.09 10.04
4/15/2022 12:45:00 AM 10.74 51.332 0.106 6.97 20.25 9.97
4/15/2022 1:00:00 AM 10.68 51.224 0.106 6.94 39.39 9.88
4/15/2022 1:15:00 AM 10.63 51.134 0.106 6.92 26.98 9.79
4/15/2022 1:30:00 AM 10.57 51.026 0.106 6.91 56.27 9.72
4/15/2022 1:45:00 AM 10.51 50.918 0.106 6.9 25.68 9.66
4/15/2022 2:00:00 AM 10.44 50.792 0.106 6.9 28.96 9.59
4/15/2022 2:15:00 AM 10.36 50.648 0.106 6.89 23.38 9.5
4/15/2022 2:30:00 AM 10.3 50.54 0.106 6.88 25.9 9.46
4/15/2022 2:45:00 AM 10.22 50.396 0.106 6.85 26.46 9.37
4/15/2022 3:00:00 AM 10.14 50.252 0.106 6.82 20.91 9.28
4/15/2022 3:15:00 AM 10.05 50.09 0.107 6.81 47.33 9.22
4/15/2022 3:30:00 AM 9.97 49.946 0.107 6.79 24.79 9.14
4/15/2022 3:45:00 AM 9.89 49.802 0.107 6.79 26.05 9.09
4/15/2022 4:00:00 AM 9.8 49.64 0.107 6.78 27.88 9.03
4/15/2022 4:15:00 AM 9.71 49.478 0.107 6.77 27.74 8.93
4/15/2022 4:30:00 AM 9.63 49.334 0.107 6.75 28.38 8.87
4/15/2022 4:45:00 AM 9.54 49.172 0.107 6.74 28.18 8.77
4/15/2022 5:00:00 AM 9.46 49.028 0.107 6.73 25.39 8.73
4/15/2022 5:15:00 AM 9.37 48.866 0.107 6.72 24.99 8.66
4/15/2022 5:30:00 AM 9.29 48.722 0.107 6.69 25.33 8.57
4/15/2022 5:45:00 AM 9.2 48.56 0.107 6.7 26.27 8.52
4/15/2022 6:00:00 AM 9.11 48.398 0.107 6.67 23.22 8.46
4/15/2022 6:15:00 AM 9.03 48.254 0.107 6.68 25 8.39
4/15/2022 6:30:00 AM 8.94 48.092 0.108 6.67 22.63 8.32
4/15/2022 6:45:00 AM 8.86 47.948 0.108 6.67 25.15 8.27
4/15/2022 7:00:00 AM 8.78 47.804 0.108 6.66 22.05 8.19
4/15/2022 7:15:00 AM 8.71 47.678 0.108 6.66 28.94 8.16
4/15/2022 7:30:00 AM 8.63 47.534 0.108 6.65 22.4 8.12
4/15/2022 7:45:00 AM 8.56 47.408 0.108 6.64 24.65 8.06
4/15/2022 8:00:00 AM 8.5 47.3 0.108 6.64 27.38 8.02
4/15/2022 8:15:00 AM 8.44 47.192 0.108 6.64 26.19 7.94
4/15/2022 8:30:00 AM 8.38 47.084 0.108 6.64 27.84 7.9
4/15/2022 8:45:00 AM 8.33 46.994 0.108 6.62 30.66 7.82
4/15/2022 9:00:00 AM 8.29 46.922 0.108 6.63 26.31 7.77
4/15/2022 9:15:00 AM 8.26 46.868 0.108 6.63 44.66 7.72
4/15/2022 9:30:00 AM 8.23 46.814 0.108 6.63 32.71 7.6
4/15/2022 9:45:00 AM 8.21 46.778 0.108 6.64 37.64 7.79
4/15/2022 10:00:00 AM 8.21 46.778 0.108 6.68 29.92 8.46
4/15/2022 10:15:00 AM 8.24 46.832 0.108 6.78 31.29 9.49
4/15/2022 10:30:00 AM 8.3 46.94 0.107 6.83 28.15 9.99
4/15/2022 10:45:00 AM 8.38 47.084 0.107 6.88 26.34 10.42
4/15/2022 11:00:00 AM 8.47 47.246 0.106 6.9 25.67 10.56
4/15/2022 11:15:00 AM 8.59 47.462 0.106 6.94 20.18 10.64
4/15/2022 11:30:00 AM 8.72 47.696 0.106 6.96 26.75 10.87
4/15/2022 11:45:00 AM 8.87 47.966 0.105 6.98 21.72 10.97
4/15/2022 12:00:00 PM 9.02 48.236 0.105 6.99 19.05 11
4/15/2022 12:15:00 PM 9.22 48.596 0.105 7.02 22.12 11.21
4/15/2022 12:30:00 PM 9.39 48.902 0.105 7.01 33.86 11.07
4/15/2022 12:45:00 PM 9.61 49.298 0.105 7.02 20.71 11.09
4/15/2022 1:00:00 PM 9.84 49.712 0.105 7.02 21.58 11.15
4/15/2022 1:15:00 PM 10.07 50.126 0.105 7.03 20.9 11.16
4/15/2022 1:30:00 PM 10.31 50.558 0.105 7.03 18.55 11.13
4/15/2022 1:45:00 PM 10.44 50.792 0.105 7.04 23.75 10.92
4/15/2022 2:00:00 PM 10.58 51.044 0.105 7.03 25.95 10.92
4/15/2022 2:15:00 PM 10.69 51.242 0.105 7.04 20.14 10.93
4/15/2022 2:30:00 PM 10.78 51.404 0.105 7.04 24.91 10.76
4/15/2022 2:45:00 PM 10.94 51.692 0.105 7.05 19.99 10.8
4/15/2022 3:00:00 PM 11.16 52.088 0.105 7.07 20.51 10.93
4/15/2022 3:15:00 PM 11.31 52.358 0.105 7.07 21.87 10.78
4/15/2022 3:30:00 PM 11.52 52.736 0.105 7.05 47.35 10.76
4/15/2022 3:45:00 PM 11.68 53.024 0.105 7.04 42.51 10.78
4/15/2022 4:00:00 PM 11.87 53.366 0.105 7.06 28.14 10.71
4/15/2022 4:15:00 PM 11.99 53.582 0.106 7.06 49.47 10.66
4/15/2022 4:30:00 PM 12.05 53.69 0.106 7.07 26.58 10.64
4/15/2022 4:45:00 PM 12.1 53.78 0.106 7.04 41.21 10.48
4/15/2022 5:00:00 PM 12.15 53.87 0.106 7.05 60.01 10.53
4/15/2022 5:15:00 PM 12.16 53.888 0.106 7.03 23.48 10.39
4/15/2022 5:30:00 PM 12.16 53.888 0.106 7.03 26.92 10.29
4/15/2022 5:45:00 PM 12.17 53.906 0.106 7 62.87 10.14
4/15/2022 6:00:00 PM 12.16 53.888 0.108 6.89 196.99 9.61
4/15/2022 6:15:00 PM 12.16 53.888 0.109 6.83 297.69 9.19
4/15/2022 6:30:00 PM 12.16 53.888 0.109 6.82 538 9.3
4/15/2022 6:45:00 PM 12.17 53.906 0.108 6.84 173.72 9.6
4/15/2022 7:00:00 PM 12.17 53.906 0.108 6.87 80.2 9.7
4/15/2022 7:15:00 PM 12.16 53.888 0.107 6.85 662.73 9.67
4/15/2022 7:30:00 PM 12.16 53.888 0.107 6.85 111.6 9.62
4/15/2022 7:45:00 PM 12.14 53.852 0.107 6.86 55.24 9.61
4/15/2022 8:00:00 PM 12.12 53.816 0.107 6.84 51.67 9.54
4/15/2022 8:15:00 PM 12.1 53.78 0.107 6.82 110.78 9.45
4/15/2022 8:30:00 PM 12.08 53.744 0.107 6.84 80.7 9.38
4/15/2022 8:45:00 PM 12.05 53.69 0.108 6.81 82.4 9.23
4/15/2022 9:00:00 PM 12.02 53.636 0.108 6.79 201.89 9.15
4/15/2022 9:15:00 PM 11.99 53.582 0.108 6.79 75.69 9.1
4/15/2022 9:30:00 PM 11.95 53.51 0.108 6.78 121.21 9.02
4/15/2022 9:45:00 PM 11.91 53.438 0.108 6.77 130.59 8.91
4/15/2022 10:00:00 PM 11.87 53.366 0.108 6.76 68.37 8.8
4/15/2022 10:15:00 PM 11.83 53.294 0.108 6.75 85.48 8.75
4/15/2022 10:30:00 PM 11.78 53.204 0.108 6.74 114.3 8.66
4/15/2022 10:45:00 PM 11.74 53.132 0.108 6.73 563.5 8.57
4/15/2022 11:00:00 PM 11.7 53.06 0.108 6.72 107.93 8.55
4/15/2022 11:15:00 PM 11.66 52.988 0.109 6.72 111.01 8.52
4/15/2022 11:30:00 PM 11.6 52.88 0.109 6.72 71.9 8.4
4/15/2022 11:45:00 PM 11.56 52.808 0.109 6.7 98.56 8.31
4/16/2022 12:00:00 AM 11.51 52.718 0.109 6.69 538.82 8.21
4/16/2022 12:15:00 AM 11.47 52.646 0.109 6.68 141.12 8.11
4/16/2022 12:30:00 AM 11.42 52.556 0.109 6.68 73.25 8.09
4/16/2022 12:45:00 AM 11.37 52.466 0.109 6.66 453.5 8.06
4/16/2022 1:00:00 AM 11.32 52.376 0.109 6.65 157.18 8
4/16/2022 1:15:00 AM 11.28 52.304 0.109 6.66 70.65 8.14
4/16/2022 1:30:00 AM 11.22 52.196 0.109 6.66 149.84 8.15
4/16/2022 1:45:00 AM 11.18 52.124 0.109 6.67 103.56 8.22
4/16/2022 2:00:00 AM 11.13 52.034 0.11 6.66 95.93 8.18
4/16/2022 2:15:00 AM 11.08 51.944 0.11 6.67 93.46 8.19
4/16/2022 2:30:00 AM 11.04 51.872 0.11 6.66 78.87 8.11
4/16/2022 2:45:00 AM 10.99 51.782 0.11 6.65 220.74 8.05
4/16/2022 3:00:00 AM 10.95 51.71 0.11 6.65 93.57 8.1
4/16/2022 3:15:00 AM 10.9 51.62 0.11 6.66 53.36 8.02
4/16/2022 3:30:00 AM 10.85 51.53 0.11 6.65 115.08 8.03
4/16/2022 3:45:00 AM 10.8 51.44 0.11 6.64 79.67 7.97
4/16/2022 4:00:00 AM 10.75 51.35 0.11 6.64 61.89 7.92
4/16/2022 4:15:00 AM 10.7 51.26 0.11 6.64 86.11 7.92
4/16/2022 4:30:00 AM 10.64 51.152 0.11 6.63 93.81 7.76
4/16/2022 4:45:00 AM 10.6 51.08 0.11 6.64 93.49 7.81
4/16/2022 5:00:00 AM 10.54 50.972 0.111 6.63 55.82 7.72
4/16/2022 5:15:00 AM 10.5 50.9 0.111 6.62 92.97 7.66
4/16/2022 5:30:00 AM 10.44 50.792 0.111 6.62 69.15 7.6
4/16/2022 5:45:00 AM 10.39 50.702 0.111 6.61 78.09 7.59
4/16/2022 6:00:00 AM 10.34 50.612 0.111 6.61 71.06 7.58
4/16/2022 6:15:00 AM 10.29 50.522 0.111 6.61 95.22 7.53
4/16/2022 6:30:00 AM 10.24 50.432 0.111 6.61 85.06 7.55
4/16/2022 6:45:00 AM 10.19 50.342 0.111 6.61 79.14 7.52
4/16/2022 7:00:00 AM 10.14 50.252 0.111 6.6 74.38 7.5
4/16/2022 7:15:00 AM 10.09 50.162 0.111 6.6 56.97 7.47
4/16/2022 7:30:00 AM 10.04 50.072 0.111 6.61 55.53 7.44
4/16/2022 7:45:00 AM 10.01 50.018 0.111 6.6 60.83 7.42
4/16/2022 8:00:00 AM 9.96 49.928 0.111 6.61 66.87 7.42
4/16/2022 8:15:00 AM 9.92 49.856 0.111 6.59 61.44 7.4
4/16/2022 8:30:00 AM 9.88 49.784 0.111 6.59 93.21 7.36
4/16/2022 8:45:00 AM 9.84 49.712 0.111 6.61 64.83 7.38
4/16/2022 9:00:00 AM 9.81 49.658 0.111 6.59 62.59 7.32
4/16/2022 9:15:00 AM 9.78 49.604 0.112 6.59 77.84 7.38
4/16/2022 9:30:00 AM 9.75 49.55 0.112 6.59 71.23 7.42
4/16/2022 9:45:00 AM 9.73 49.514 0.112 6.59 77.87 7.45
4/16/2022 10:00:00 AM 9.71 49.478 0.112 6.59 71.6 7.54
4/16/2022 10:15:00 AM 9.69 49.442 0.112 6.6 57.61 7.79
4/16/2022 10:30:00 AM 9.67 49.406 0.112 6.63 75.51 8.22
4/16/2022 10:45:00 AM 9.66 49.388 0.111 6.66 73.29 8.69
4/16/2022 11:00:00 AM 9.66 49.388 0.111 6.72 71.21 9.06
4/16/2022 11:15:00 AM 9.68 49.424 0.111 6.74 68.6 9.52
4/16/2022 11:30:00 AM 9.69 49.442 0.111 6.76 54.64 9.69
4/16/2022 11:45:00 AM 9.7 49.46 0.111 6.8 47.99 9.88
4/16/2022 12:00:00 PM 9.72 49.496 0.11 6.79 48.06 9.93
4/16/2022 12:15:00 PM 9.72 49.496 0.11 6.78 61.47 9.88
4/16/2022 12:30:00 PM 9.72 49.496 0.11 6.79 53.76 9.93
4/16/2022 12:45:00 PM 9.72 49.496 0.11 6.81 61.77 10.07
4/16/2022 1:00:00 PM 9.72 49.496 0.11 6.79 53.73 9.96
4/16/2022 1:15:00 PM 9.71 49.478 0.11 6.8 47.49 9.97
4/16/2022 1:30:00 PM 9.7 49.46 0.11 6.79 59.95 9.86
4/16/2022 1:45:00 PM 9.69 49.442 0.11 6.79 39.62 9.76
4/16/2022 2:00:00 PM 9.68 49.424 0.11 6.78 48.13 9.71
4/16/2022 2:15:00 PM 9.67 49.406 0.11 6.77 63.4 9.56
4/16/2022 2:30:00 PM 9.66 49.388 0.11 6.76 58.04 9.6
4/16/2022 2:45:00 PM 9.64 49.352 0.11 6.75 54.36 9.58
4/16/2022 3:00:00 PM 9.63 49.334 0.11 6.76 97.58 9.55
4/16/2022 3:15:00 PM 9.61 49.298 0.11 6.75 92.12 9.53
4/16/2022 3:30:00 PM 9.58 49.244 0.11 6.76 36.74 9.51
4/16/2022 3:45:00 PM 9.56 49.208 0.11 6.75 110.77 9.45
4/16/2022 4:00:00 PM 9.54 49.172 0.11 6.75 70.09 9.49
4/16/2022 4:15:00 PM 9.51 49.118 0.11 6.75 78.79 9.47
4/16/2022 4:30:00 PM 9.49 49.082 0.11 6.75 72.71 9.53
4/16/2022 4:45:00 PM 9.46 49.028 0.11 6.76 60.08 9.47
4/16/2022 5:00:00 PM 9.42 48.956 0.11 6.76 58.78 9.44
4/16/2022 5:15:00 PM 9.19 48.542 0.11 6.95 48.88 10.85
4/16/2022 5:30:00 PM 9.15 48.47 0.109 7.01 50.98 11.19
4/16/2022 5:45:00 PM 9.11 48.398 0.108 7.02 65.72 11.21
4/16/2022 6:00:00 PM 9.08 48.344 0.108 6.99 51.08 11.22
4/16/2022 6:15:00 PM 9.05 48.29 0.107 6.96 72.21 11.19
4/16/2022 6:30:00 PM 9.01 48.218 0.107 6.93 53.6 11.15
4/16/2022 6:45:00 PM 8.99 48.182 0.107 6.95 60.26 11.11
4/16/2022 7:00:00 PM 8.97 48.146 0.106 6.93 68.4 11.11
4/16/2022 7:15:00 PM 8.95 48.11 0.106 6.95 58.52 11.12
4/16/2022 7:30:00 PM 8.93 48.074 0.106 6.95 59 11.11
4/16/2022 7:45:00 PM 8.9 48.02 0.105 6.98 62.2 11.13
4/16/2022 8:00:00 PM 8.85 47.93 0.105 6.98 38.62 11.12
4/16/2022 8:15:00 PM 8.81 47.858 0.105 6.98 59.95 11.12
4/16/2022 8:30:00 PM 8.77 47.786 0.105 6.97 70.36 11.1
4/16/2022 8:45:00 PM 8.74 47.732 0.105 6.98 60.56 11.1
4/16/2022 9:00:00 PM 8.71 47.678 0.105 6.98 58.74 11.08
4/16/2022 9:15:00 PM 8.67 47.606 0.104 6.96 50.81 11.07
4/16/2022 9:30:00 PM 8.63 47.534 0.103 6.96 75.44 11.06
4/16/2022 9:45:00 PM 8.59 47.462 0.102 6.94 40.12 11.02
4/16/2022 10:00:00 PM 8.55 47.39 0.101 6.92 54.37 11.04
4/16/2022 10:15:00 PM 8.51 47.318 0.101 6.91 51.04 11.04
4/16/2022 10:30:00 PM 8.47 47.246 0.1 6.9 37.92 11.03
4/16/2022 10:45:00 PM 8.42 47.156 0.1 6.89 36.47 11.03
4/16/2022 11:00:00 PM 8.38 47.084 0.1 6.89 42.2 11.02
4/16/2022 11:15:00 PM 8.33 46.994 0.1 6.89 33.53 11.02
4/16/2022 11:30:00 PM 8.28 46.904 0.1 6.88 40.43 11.03
4/16/2022 11:45:00 PM 8.25 46.85 0.1 6.89 39.69 11.03
4/17/2022 12:00:00 AM 8.21 46.778 0.1 6.89 40.63 11.04
4/17/2022 12:15:00 AM 8.17 46.706 0.1 6.88 30.22 11.05
4/17/2022 12:30:00 AM 8.13 46.634 0.1 6.88 31.57 11.04
4/17/2022 12:45:00 AM 8.07 46.526 0.1 6.88 30.64 11.07
4/17/2022 1:00:00 AM 8.02 46.436 0.1 6.87 31.34 11.08
4/17/2022 1:15:00 AM 7.96 46.328 0.1 6.87 33.55 11.08
4/17/2022 1:30:00 AM 7.9 46.22 0.101 6.87 25.81 11.07
4/17/2022 1:45:00 AM 7.85 46.13 0.101 6.87 28.45 11.08
4/17/2022 2:00:00 AM 7.79 46.022 0.101 6.86 26.93 11.09
4/17/2022 2:15:00 AM 7.74 45.932 0.101 6.87 27.97 11.1
4/17/2022 2:30:00 AM 7.69 45.842 0.101 6.87 26.59 11.11
4/17/2022 2:45:00 AM 7.64 45.752 0.101 6.87 25.15 11.13
4/17/2022 3:00:00 AM 7.58 45.644 0.1 6.87 25.04 11.15
4/17/2022 3:15:00 AM 7.53 45.554 0.1 6.86 24.19 11.17
4/17/2022 3:30:00 AM 7.47 45.446 0.1 6.86 23.78 11.18
4/17/2022 3:45:00 AM 7.41 45.338 0.1 6.86 31.24 11.19
4/17/2022 4:00:00 AM 7.35 45.23 0.1 6.87 20.28 11.2
4/17/2022 4:15:00 AM 7.3 45.14 0.099 6.86 20.11 11.21
4/17/2022 4:30:00 AM 7.24 45.032 0.099 6.86 19.68 11.22
4/17/2022 4:45:00 AM 7.18 44.924 0.099 6.86 18.97 11.23
4/17/2022 5:00:00 AM 7.13 44.834 0.099 6.86 19.09 11.24
4/17/2022 5:15:00 AM 7.09 44.762 0.099 6.87 18.95 11.26
4/17/2022 5:30:00 AM 7.04 44.672 0.099 6.86 18.35 11.29
4/17/2022 5:45:00 AM 6.99 44.582 0.099 6.86 18.27 11.32
4/17/2022 6:00:00 AM 6.94 44.492 0.098 6.87 17.27 11.34
4/17/2022 6:15:00 AM 6.9 44.42 0.098 6.87 17.29 11.34
4/17/2022 6:30:00 AM 6.86 44.348 0.098 6.86 18.04 11.37
4/17/2022 6:45:00 AM 6.82 44.276 0.098 6.87 17.32 11.37
4/17/2022 7:00:00 AM 6.78 44.204 0.098 6.87 17.11 11.4
4/17/2022 7:15:00 AM 6.74 44.132 0.098 6.87 16.88 11.43
4/17/2022 7:30:00 AM 6.71 44.078 0.098 6.87 15.37 11.44
4/17/2022 7:45:00 AM 6.68 44.024 0.098 6.88 15.91 11.49
4/17/2022 8:00:00 AM 6.68 44.024 0.098 6.89 15.89 11.53
4/17/2022 8:15:00 AM 6.66 43.988 0.098 6.89 16.01 11.57
4/17/2022 8:30:00 AM 6.66 43.988 0.098 6.91 15.62 11.62
4/17/2022 8:45:00 AM 6.65 43.97 0.098 6.92 15.8 11.66
4/17/2022 9:00:00 AM 6.64 43.952 0.098 6.92 15.27 11.7
4/17/2022 9:15:00 AM 6.64 43.952 0.098 6.93 16.31 11.75
4/17/2022 9:30:00 AM 6.68 44.024 0.098 6.95 15.13 11.8
4/17/2022 9:45:00 AM 6.68 44.024 0.098 6.97 16.42 11.86
4/17/2022 10:00:00 AM 6.69 44.042 0.098 6.98 17.68 11.9
4/17/2022 10:15:00 AM 6.76 44.168 0.098 7 15.38 11.94
4/17/2022 10:30:00 AM 6.86 44.348 0.098 7.01 15.08 12
4/17/2022 10:45:00 AM 6.94 44.492 0.098 7.01 15.87 12.04
4/17/2022 11:00:00 AM 7 44.6 0.097 7.03 14.48 12.07
4/17/2022 11:15:00 AM 7.1 44.78 0.097 7.05 17.36 12.09
4/17/2022 11:30:00 AM 7.29 45.122 0.097 7.07 16.53 12.1
4/17/2022 11:45:00 AM 7.39 45.302 0.097 7.07 16.81 12.11
4/17/2022 12:00:00 PM 7.44 45.392 0.097 7.08 17.85 12.12
4/17/2022 12:15:00 PM 7.55 45.59 0.097 7.09 19.75 12.13
4/17/2022 12:30:00 PM 7.62 45.716 0.098 7.1 17.79 12.12
4/17/2022 12:45:00 PM 7.75 45.95 0.097 7.11 16.49 12.1
4/17/2022 1:00:00 PM 7.94 46.292 0.097 7.11 17.96 12.09
4/17/2022 1:15:00 PM 8.1 46.58 0.098 7.12 19.18 12.1
4/17/2022 1:30:00 PM 8.23 46.814 0.098 7.13 19.14 12.08
4/17/2022 1:45:00 PM 8.37 47.066 0.098 7.14 18.21 12.03
4/17/2022 2:00:00 PM 8.51 47.318 0.098 7.14 20.26 12.03
4/17/2022 2:15:00 PM 8.57 47.426 0.098 7.15 51.11 12
4/17/2022 2:30:00 PM 8.6 47.48 0.098 7.16 16.03 12
4/17/2022 2:45:00 PM 8.65 47.57 0.098 7.16 16.39 11.98
4/17/2022 3:00:00 PM 8.78 47.804 0.098 7.17 15.79 11.97
4/17/2022 3:15:00 PM 8.94 48.092 0.098 7.18 15.98 11.94
4/17/2022 3:30:00 PM 8.99 48.182 0.098 7.18 16.39 11.9
4/17/2022 3:45:00 PM 9.11 48.398 0.098 7.18 16.42 11.87
4/17/2022 4:00:00 PM 9.15 48.47 0.098 7.19 14.98 11.87
4/17/2022 4:15:00 PM 9.21 48.578 0.098 7.2 14.63 11.83
4/17/2022 4:30:00 PM 9.34 48.812 0.099 7.21 14.44 11.83
4/17/2022 4:45:00 PM 9.48 49.064 0.099 7.21 14.37 11.8
4/17/2022 5:00:00 PM 9.54 49.172 0.099 7.23 16.09 11.75
4/17/2022 5:15:00 PM 9.6 49.28 0.099 7.21 16.6 11.71
4/17/2022 5:30:00 PM 9.64 49.352 0.099 7.22 15.92 11.69
4/17/2022 5:45:00 PM 9.63 49.334 0.099 7.21 16.42 11.64
4/17/2022 6:00:00 PM 9.63 49.334 0.099 7.21 15.33 11.61
4/17/2022 6:15:00 PM 9.62 49.316 0.099 7.21 15.37 11.59
4/17/2022 6:30:00 PM 9.58 49.244 0.099 7.21 15.66 11.53
4/17/2022 6:45:00 PM 9.53 49.154 0.099 7.2 15.57 11.49
4/17/2022 7:00:00 PM 9.48 49.064 0.099 7.19 15.63 11.45
4/17/2022 7:15:00 PM 9.44 48.992 0.099 7.18 15.13 11.42
4/17/2022 7:30:00 PM 9.38 48.884 0.1 7.17 14.94 11.37
4/17/2022 7:45:00 PM 9.33 48.794 0.1 7.17 14.8 11.34
4/17/2022 8:00:00 PM 9.27 48.686 0.1 7.14 14.85 11.29
4/17/2022 8:15:00 PM 9.21 48.578 0.1 7.15 15.15 11.23
4/17/2022 8:30:00 PM 9.15 48.47 0.1 7.12 15.01 11.19
4/17/2022 8:45:00 PM 9.08 48.344 0.1 7.11 14.84 11.16
4/17/2022 9:00:00 PM 9 48.2 0.1 7.11 14.94 11.12
4/17/2022 9:15:00 PM 8.93 48.074 0.1 7.09 15.2 11.09
4/17/2022 9:30:00 PM 8.85 47.93 0.1 7.08 15.24 11.07
4/17/2022 9:45:00 PM 8.76 47.768 0.1 7.07 15.7 11.07
4/17/2022 10:00:00 PM 8.67 47.606 0.1 7.06 15.29 11.07
4/17/2022 10:15:00 PM 8.57 47.426 0.1 7.05 15.2 11.07
4/17/2022 10:30:00 PM 8.48 47.264 0.1 7.04 15.38 11.05
4/17/2022 10:45:00 PM 8.39 47.102 0.1 7.03 15.3 11.05
4/17/2022 11:00:00 PM 8.3 46.94 0.1 7.03 15.36 11.05
4/17/2022 11:15:00 PM 8.21 46.778 0.1 7.02 15.61 11.07
4/17/2022 11:30:00 PM 8.12 46.616 0.101 7.03 15.43 11.08
4/17/2022 11:45:00 PM 8.02 46.436 0.101 7.01 15.68 11.1
4/18/2022 12:00:00 AM 7.94 46.292 0.101 7 15.3 11.11
4/18/2022 12:15:00 AM 7.85 46.13 0.101 7 15.24 11.12
4/18/2022 12:30:00 AM 7.76 45.968 0.101 6.99 15.91 11.12
4/18/2022 12:45:00 AM 7.68 45.824 0.101 6.99 15.33 11.13
4/18/2022 1:00:00 AM 7.6 45.68 0.101 7 15.15 11.15
4/18/2022 1:15:00 AM 7.52 45.536 0.101 6.98 15.43 11.18
4/18/2022 1:30:00 AM 7.43 45.374 0.101 6.97 15.31 11.2
4/18/2022 1:45:00 AM 7.35 45.23 0.101 6.97 15.56 11.22
4/18/2022 2:00:00 AM 7.27 45.086 0.101 6.96 14.98 11.22
4/18/2022 2:15:00 AM 7.19 44.942 0.101 6.96 16.76 11.23
4/18/2022 2:30:00 AM 7.12 44.816 0.101 6.95 15.91 11.23
4/18/2022 2:45:00 AM 7.05 44.69 0.101 6.95 15.71 11.22
4/18/2022 3:00:00 AM 6.98 44.564 0.102 6.93 15.13 11.22
4/18/2022 3:15:00 AM 6.91 44.438 0.102 6.92 15.13 11.24
4/18/2022 3:30:00 AM 6.84 44.312 0.102 6.92 15.15 11.24
4/18/2022 3:45:00 AM 6.77 44.186 0.102 6.92 14.27 11.21
4/18/2022 4:00:00 AM 6.71 44.078 0.102 6.9 14.44 11.18
4/18/2022 4:15:00 AM 7.25 45.05 0.1 6.9 14.72 10.87
4/18/2022 4:30:00 AM 7.24 45.032 0.1 6.88 14.57 10.8
4/18/2022 4:45:00 AM 7.06 44.708 0.1 6.88 14.67 10.82
4/18/2022 5:00:00 AM 6.97 44.546 0.1 6.87 14.47 10.81
4/18/2022 5:15:00 AM 6.88 44.384 0.1 6.86 14.25 10.78
4/18/2022 5:30:00 AM 6.79 44.222 0.101 6.85 15.44 10.75
4/18/2022 5:45:00 AM 6.7 44.06 0.101 6.84 16.22 10.72
4/18/2022 6:00:00 AM 6.59 43.862 0.101 6.83 14.62 10.69
4/18/2022 6:15:00 AM 6.52 43.736 0.101 6.83 15.17 10.63
4/18/2022 6:30:00 AM 6.46 43.628 0.101 6.82 14.46 10.59
4/18/2022 6:45:00 AM 6.39 43.502 0.101 6.8 14.11 10.54
4/18/2022 7:00:00 AM 6.31 43.358 0.101 6.81 14.22 10.5
4/18/2022 7:15:00 AM 6.25 43.25 0.101 6.79 14.22 10.47
4/18/2022 7:30:00 AM 6.17 43.106 0.101 6.79 14.34 10.42
4/18/2022 7:45:00 AM 6.1 42.98 0.101 6.78 13.73 10.39
4/18/2022 8:00:00 AM 6.04 42.872 0.101 6.78 13.95 10.34
4/18/2022 8:15:00 AM 5.97 42.746 0.101 6.79 15.04 10.29
4/18/2022 8:30:00 AM 5.92 42.656 0.101 6.77 13.7 10.25
4/18/2022 8:45:00 AM 5.87 42.566 0.102 6.77 14.44 10.2
4/18/2022 9:00:00 AM 5.83 42.494 0.102 6.76 14.03 10.17
4/18/2022 9:15:00 AM 5.8 42.44 0.102 6.76 15.07 10.14
4/18/2022 9:30:00 AM 5.78 42.404 0.102 6.76 13.97 10.13
4/18/2022 9:45:00 AM 5.77 42.386 0.102 6.77 13.34 10.1
4/18/2022 10:00:00 AM 5.77 42.386 0.102 6.77 13.78 10.14
4/18/2022 10:15:00 AM 5.79 42.422 0.102 6.78 13.87 10.16
4/18/2022 10:30:00 AM 5.82 42.476 0.102 6.79 13.44 10.37
4/18/2022 10:45:00 AM 5.89 42.602 0.102 6.81 13.49 10.57
4/18/2022 11:00:00 AM 5.99 42.782 0.102 6.83 13.58 10.92
4/18/2022 11:15:00 AM 6.11 42.998 0.102 6.86 13.75 11.17
4/18/2022 11:30:00 AM 6.26 43.268 0.102 6.9 13.61 11.39
4/18/2022 11:45:00 AM 6.42 43.556 0.102 6.91 13.48 11.54
4/18/2022 12:00:00 PM 6.58 43.844 0.102 6.94 13.41 11.73
4/18/2022 12:15:00 PM 6.74 44.132 0.102 6.98 13.42 11.77
4/18/2022 12:30:00 PM 6.89 44.402 0.102 6.98 13.45 11.87
4/18/2022 12:45:00 PM 7.02 44.636 0.102 6.98 13.49 11.89
4/18/2022 1:00:00 PM 7.17 44.906 0.102 6.99 13.32 11.86
4/18/2022 1:15:00 PM 7.31 45.158 0.102 7 13.62 11.87
4/18/2022 1:30:00 PM 7.44 45.392 0.102 7 14.01 11.84
4/18/2022 1:45:00 PM 7.61 45.698 0.102 7.03 18.5 11.87
4/18/2022 2:00:00 PM 7.78 46.004 0.102 7.04 17.41 11.95
4/18/2022 2:15:00 PM 7.91 46.238 0.102 7.04 16.07 11.83
4/18/2022 2:30:00 PM 8.03 46.454 0.102 7.04 17.64 11.81
4/18/2022 2:45:00 PM 8.13 46.634 0.103 7.05 15.37 11.81
4/18/2022 3:00:00 PM 8.21 46.778 0.103 7.05 14.25 11.73
4/18/2022 3:15:00 PM 8.28 46.904 0.103 7.05 13.98 11.71
4/18/2022 3:30:00 PM 8.33 46.994 0.103 7.06 13.87 11.68
4/18/2022 3:45:00 PM 8.38 47.084 0.103 7.05 13.89 11.64
4/18/2022 4:00:00 PM 8.41 47.138 0.103 7.07 13.64 11.56
4/18/2022 4:15:00 PM 8.44 47.192 0.103 7.04 13.59 11.59
4/18/2022 4:30:00 PM 8.47 47.246 0.103 7.04 13.15 11.47
4/18/2022 4:45:00 PM 8.49 47.282 0.103 7.04 13.83 11.46
4/18/2022 5:00:00 PM 8.52 47.336 0.103 7.03 13.87 11.41
4/18/2022 5:15:00 PM 8.53 47.354 0.103 7.02 16.44 11.33
4/18/2022 5:30:00 PM 8.54 47.372 0.103 7.02 14.01 11.28
4/18/2022 5:45:00 PM 8.54 47.372 0.104 7.02 14.21 11.14
4/18/2022 6:00:00 PM 8.53 47.354 0.104 6.99 13.9 11.09
4/18/2022 6:15:00 PM 8.52 47.336 0.104 6.99 16.11 11.1
4/18/2022 6:30:00 PM 8.51 47.318 0.104 6.98 15.32 11.01
4/18/2022 6:45:00 PM 8.5 47.3 0.104 6.97 13.39 10.89
4/18/2022 7:00:00 PM 8.48 47.264 0.104 6.96 16.71 10.82
4/18/2022 7:15:00 PM 8.46 47.228 0.104 6.95 15.98 10.74
4/18/2022 7:30:00 PM 8.44 47.192 0.104 6.92 15.19 10.71
4/18/2022 7:45:00 PM 8.42 47.156 0.104 6.91 15.76 10.64
4/18/2022 8:00:00 PM 8.39 47.102 0.104 6.9 13.4 10.52
4/18/2022 8:15:00 PM 8.36 47.048 0.104 6.89 14.03 10.47
4/18/2022 8:30:00 PM 8.32 46.976 0.105 6.88 14.65 10.39
4/18/2022 8:45:00 PM 8.29 46.922 0.105 6.88 16.44 10.34
4/18/2022 9:00:00 PM 8.26 46.868 0.105 6.88 14.39 10.28
4/18/2022 9:15:00 PM 8.22 46.796 0.105 6.85 13.73 10.21
4/18/2022 9:30:00 PM 8.18 46.724 0.105 6.84 13.48 10.13
4/18/2022 9:45:00 PM 8.13 46.634 0.105 6.83 13.5 10.08
4/18/2022 10:00:00 PM 8.09 46.562 0.105 6.82 14.02 9.98
4/18/2022 10:15:00 PM 8.03 46.454 0.105 6.82 14.18 9.92
4/18/2022 10:30:00 PM 7.97 46.346 0.105 6.81 13.62 9.81
4/18/2022 10:45:00 PM 7.91 46.238 0.105 6.81 14.25 9.73
4/18/2022 11:00:00 PM 7.85 46.13 0.105 6.79 13.5 9.7
4/18/2022 11:15:00 PM 7.79 46.022 0.105 6.8 13.45 9.64
4/18/2022 11:30:00 PM 7.73 45.914 0.106 6.78 13.28 9.57
4/18/2022 11:45:00 PM 7.67 45.806 0.106 6.78 13.37 9.47
4/19/2022 12:00:00 AM 7.58 45.644 0.106 6.74 13.27 9.29
4/19/2022 12:15:00 AM 7.4 45.32 0.106 6.79 15.3 9.71
4/19/2022 12:30:00 AM 7.1 44.78 0.105 6.96 17.78 11.04
4/19/2022 12:45:00 AM 6.93 44.474 0.105 7 18.38 11.17
4/19/2022 1:00:00 AM 6.7 44.06 0.104 6.99 17.14 11.18
4/19/2022 1:15:00 AM 6.5 43.7 0.104 6.99 17.03 11.18
4/19/2022 1:30:00 AM 6.4 43.52 0.104 6.98 17.34 11.21
4/19/2022 1:45:00 AM 6.26 43.268 0.104 7 16.01 11.24
4/19/2022 2:00:00 AM 6.09 42.962 0.104 6.94 17.02 11.24
4/19/2022 2:15:00 AM 5.94 42.692 0.104 6.95 17.01 11.27
4/19/2022 2:30:00 AM 5.77 42.386 0.103 6.94 16.72 11.32
4/19/2022 2:45:00 AM 5.61 42.098 0.103 6.92 16.92 11.35
4/19/2022 3:00:00 AM 5.42 41.756 0.103 6.93 16.51 11.37
4/19/2022 3:15:00 AM 5.16 41.288 0.103 6.91 16.72 11.43
4/19/2022 3:30:00 AM 4.92 40.856 0.102 6.9 17.05 11.47
4/19/2022 3:45:00 AM 4.73 40.514 0.102 6.88 17.07 11.52
4/19/2022 4:00:00 AM 4.53 40.154 0.102 6.9 17.01 11.58
4/19/2022 4:15:00 AM 4.36 39.848 0.101 6.88 16.75 11.62
4/19/2022 4:30:00 AM 4.18 39.524 0.101 6.86 16.4 11.66
4/19/2022 4:45:00 AM 4.02 39.236 0.101 6.87 16.73 11.72
4/19/2022 5:00:00 AM 3.9 39.02 0.101 6.84 16.24 11.78
4/19/2022 5:15:00 AM 3.78 38.804 0.101 6.85 16.73 11.81
4/19/2022 5:30:00 AM 3.67 38.606 0.1 6.84 16.14 11.86
4/19/2022 5:45:00 AM 3.57 38.426 0.1 6.84 16.7 11.93
4/19/2022 6:00:00 AM 3.5 38.3 0.1 6.84 18.28 11.97
4/19/2022 6:15:00 AM 3.42 38.156 0.1 6.84 16.15 12.03
4/19/2022 6:30:00 AM 3.35 38.03 0.1 6.84 15.94 12.06
4/19/2022 6:45:00 AM 3.29 37.922 0.1 6.86 16.14 12.1
4/19/2022 7:00:00 AM 3.23 37.814 0.1 6.86 15.77 12.13
4/19/2022 7:15:00 AM 3.17 37.706 0.1 6.86 16.33 12.17
4/19/2022 7:30:00 AM 3.13 37.634 0.099 6.86 15.22 12.21
4/19/2022 7:45:00 AM 3.1 37.58 0.099 6.87 15.77 12.27
4/19/2022 8:00:00 AM 3.1 37.58 0.099 6.88 16.12 12.32
4/19/2022 8:15:00 AM 3.1 37.58 0.099 6.9 16.34 12.38
4/19/2022 8:30:00 AM 3.1 37.58 0.1 6.91 15.95 12.43
4/19/2022 8:45:00 AM 3.13 37.634 0.099 6.94 15.72 12.47
4/19/2022 9:00:00 AM 3.15 37.67 0.1 6.95 16.2 12.52
4/19/2022 9:15:00 AM 3.18 37.724 0.1 6.96 15.87 12.55
4/19/2022 9:30:00 AM 3.19 37.742 0.1 6.97 15.55 12.6
4/19/2022 9:45:00 AM 3.25 37.85 0.1 6.99 15.53 12.64
4/19/2022 10:00:00 AM 3.3 37.94 0.1 7 15.63 12.67
4/19/2022 10:15:00 AM 3.36 38.048 0.1 7.01 15.81 12.72
4/19/2022 10:30:00 AM 3.44 38.192 0.1 7.02 15.67 12.76
4/19/2022 10:45:00 AM 3.54 38.372 0.1 7.03 15.97 12.79
4/19/2022 11:00:00 AM 3.64 38.552 0.1 7.04 16.06 12.82
4/19/2022 11:15:00 AM 3.73 38.714 0.1 7.05 15.92 12.84
4/19/2022 11:30:00 AM 3.82 38.876 0.1 7.05 15.84 12.83
4/19/2022 11:45:00 AM 3.88 38.984 0.1 7.07 16.09 12.85
4/19/2022 12:00:00 PM 3.93 39.074 0.1 7.07 15.64 12.84
4/19/2022 12:15:00 PM 3.99 39.182 0.1 7.09 16.03 12.84
4/19/2022 12:30:00 PM 4.05 39.29 0.1 7.08 15.67 12.85
4/19/2022 12:45:00 PM 4.13 39.434 0.1 7.09 16.29 12.84
4/19/2022 1:00:00 PM 4.24 39.632 0.101 7.09 15.55 12.83
4/19/2022 1:15:00 PM 4.37 39.866 0.101 7.11 16.29 12.81
4/19/2022 1:30:00 PM 4.48 40.064 0.101 7.1 16.07 12.81
4/19/2022 1:45:00 PM 4.58 40.244 0.101 7.13 16.02 12.81
4/19/2022 2:00:00 PM 4.67 40.406 0.101 7.13 16.28 12.8
4/19/2022 2:15:00 PM 4.73 40.514 0.101 7.13 16.08 12.79
4/19/2022 2:30:00 PM 4.78 40.604 0.101 7.13 16.37 12.76
4/19/2022 2:45:00 PM 4.86 40.748 0.102 7.13 16.35 12.74
4/19/2022 3:00:00 PM 4.98 40.964 0.102 7.14 16.49 12.73
4/19/2022 3:15:00 PM 5.08 41.144 0.102 7.13 16.49 12.72
4/19/2022 3:30:00 PM 5.17 41.306 0.102 7.14 16.76 12.72
4/19/2022 3:45:00 PM 5.26 41.468 0.103 7.14 16.74 12.7
4/19/2022 4:00:00 PM 5.34 41.612 0.103 7.14 16.65 12.67
4/19/2022 4:15:00 PM 5.43 41.774 0.104 7.14 16.95 12.64
4/19/2022 4:30:00 PM 5.54 41.972 0.104 7.15 16.97 12.61
4/19/2022 4:45:00 PM 5.63 42.134 0.104 7.15 16.39 12.59
4/19/2022 5:00:00 PM 5.69 42.242 0.105 7.16 16.53 12.57
4/19/2022 5:15:00 PM 5.75 42.35 0.105 7.16 41.39 12.53
4/19/2022 5:30:00 PM 5.8 42.44 0.106 7.16 16.76 12.51
4/19/2022 5:45:00 PM 5.82 42.476 0.106 7.16 16.7 12.44
4/19/2022 6:00:00 PM 5.85 42.53 0.107 7.16 17.36 12.4
4/19/2022 6:15:00 PM 5.87 42.566 0.108 7.17 17.52 12.35
4/19/2022 6:30:00 PM 5.89 42.602 0.108 7.15 17.81 12.32
4/19/2022 6:45:00 PM 5.9 42.62 0.108 7.14 18.79 12.28
4/19/2022 7:00:00 PM 5.9 42.62 0.108 7.14 17.96 12.24
4/19/2022 7:15:00 PM 5.89 42.602 0.109 7.14 18.46 12.19
4/19/2022 7:30:00 PM 5.87 42.566 0.109 7.11 18.38 12.15
4/19/2022 7:45:00 PM 5.84 42.512 0.109 7.1 18.66 12.12
4/19/2022 8:00:00 PM 5.81 42.458 0.109 7.09 20.23 12.09
4/19/2022 8:15:00 PM 5.78 42.404 0.109 7.1 19.34 12.05
4/19/2022 8:30:00 PM 5.74 42.332 0.109 7.08 20.1 12.03
4/19/2022 8:45:00 PM 5.7 42.26 0.109 7.07 20.26 12.01
4/19/2022 9:00:00 PM 5.67 42.206 0.109 7.07 20.45 11.99
4/19/2022 9:15:00 PM 5.64 42.152 0.109 7.06 19.63 11.97
4/19/2022 9:30:00 PM 5.61 42.098 0.109 7.05 19.55 11.95
4/19/2022 9:45:00 PM 5.58 42.044 0.109 7.04 20.32 11.91
4/19/2022 10:00:00 PM 5.54 41.972 0.109 7.03 20.12 11.9
4/19/2022 10:15:00 PM 5.51 41.918 0.109 7.03 20.14 11.9
4/19/2022 10:30:00 PM 5.48 41.864 0.109 7.03 19.72 11.89
4/19/2022 10:45:00 PM 5.45 41.81 0.109 7.02 19.15 11.88
4/19/2022 11:00:00 PM 5.42 41.756 0.109 7.01 21.28 11.88
4/19/2022 11:15:00 PM 5.39 41.702 0.109 7.01 20.12 11.88
4/19/2022 11:30:00 PM 5.35 41.63 0.108 7.01 19.83 11.88
4/19/2022 11:45:00 PM 5.33 41.594 0.108 7 18.92 11.89
4/20/2022 12:00:00 AM 5.3 41.54 0.108 6.99 19.63 11.9
4/20/2022 12:15:00 AM 5.28 41.504 0.108 6.99 19.79 11.9
4/20/2022 12:30:00 AM 5.25 41.45 0.108 6.99 18.75 11.91
4/20/2022 12:45:00 AM 5.22 41.396 0.108 6.98 18.88 11.92
4/20/2022 1:00:00 AM 5.19 41.342 0.108 6.98 19.18 11.93
4/20/2022 1:15:00 AM 5.16 41.288 0.108 6.97 18.76 11.93
4/20/2022 1:30:00 AM 5.13 41.234 0.108 6.97 19.12 11.95
4/20/2022 1:45:00 AM 5.11 41.198 0.108 6.97 18.6 11.96
4/20/2022 2:00:00 AM 5.08 41.144 0.108 6.97 19.93 11.95
4/20/2022 2:15:00 AM 5.06 41.108 0.108 6.97 19.75 11.96
4/20/2022 2:30:00 AM 5.04 41.072 0.108 6.96 20.05 11.96
4/20/2022 2:45:00 AM 5.02 41.036 0.108 6.96 19.78 11.97
4/20/2022 3:00:00 AM 4.99 40.982 0.108 6.96 18.95 11.97
4/20/2022 3:15:00 AM 4.97 40.946 0.108 6.96 18.9 11.98
4/20/2022 3:30:00 AM 4.96 40.928 0.108 6.95 19.19 11.98
4/20/2022 3:45:00 AM 4.94 40.892 0.107 6.96 18.92 11.99
4/20/2022 4:00:00 AM 4.92 40.856 0.107 6.95 19.37 12
4/20/2022 4:15:00 AM 4.9 40.82 0.107 6.95 18.27 12
4/20/2022 4:30:00 AM 4.87 40.766 0.107 6.95 18.45 12.01
4/20/2022 4:45:00 AM 4.85 40.73 0.107 6.95 18.11 12.02
4/20/2022 5:00:00 AM 4.84 40.712 0.107 6.95 17.95 12.03
4/20/2022 5:15:00 AM 4.83 40.694 0.107 6.94 18.14 12.03
4/20/2022 5:30:00 AM 4.81 40.658 0.107 6.94 17.01 12.05
4/20/2022 5:45:00 AM 4.81 40.658 0.107 6.94 17.05 12.05
4/20/2022 6:00:00 AM 4.8 40.64 0.107 6.95 17.63 12.05
4/20/2022 6:15:00 AM 4.79 40.622 0.107 6.94 17.34 12.06
4/20/2022 6:30:00 AM 4.78 40.604 0.107 6.94 17.41 12.07
4/20/2022 6:45:00 AM 4.76 40.568 0.107 6.95 17.07 12.09
4/20/2022 7:00:00 AM 4.75 40.55 0.107 6.94 17.34 12.1
4/20/2022 7:15:00 AM 4.75 40.55 0.107 6.94 16.99 12.13
4/20/2022 7:30:00 AM 4.75 40.55 0.107 6.95 17.09 12.15
4/20/2022 7:45:00 AM 4.76 40.568 0.107 6.95 16.56 12.18
4/20/2022 8:00:00 AM 4.78 40.604 0.106 6.96 16.34 12.21
4/20/2022 8:15:00 AM 4.79 40.622 0.106 6.96 16.79 12.24
4/20/2022 8:30:00 AM 4.81 40.658 0.106 6.96 16.72 12.28
4/20/2022 8:45:00 AM 4.86 40.748 0.106 6.97 16.54 12.33
4/20/2022 9:00:00 AM 4.92 40.856 0.106 6.98 16.43 12.36
4/20/2022 9:15:00 AM 4.98 40.964 0.106 6.99 15.72 12.41
4/20/2022 9:30:00 AM 5.1 41.18 0.106 7 16.64 12.46
4/20/2022 9:45:00 AM 5.17 41.306 0.106 7 16.14 12.51
4/20/2022 10:00:00 AM 5.24 41.432 0.106 7.01 16.14 12.53
4/20/2022 10:15:00 AM 5.32 41.576 0.105 7.02 15.66 12.55
4/20/2022 10:30:00 AM 5.45 41.81 0.105 7.02 15.63 12.56
4/20/2022 10:45:00 AM 5.63 42.134 0.105 7.03 15.46 12.59
4/20/2022 11:00:00 AM 5.79 42.422 0.105 7.04 15.46 12.61
4/20/2022 11:15:00 AM 5.91 42.638 0.105 7.04 15.44 12.61
4/20/2022 11:30:00 AM 6.02 42.836 0.105 7.05 14.96 12.6
4/20/2022 11:45:00 AM 6.18 43.124 0.105 7.06 15.21 12.6
4/20/2022 12:00:00 PM 6.37 43.466 0.105 7.08 15.07 12.62
4/20/2022 12:15:00 PM 6.58 43.844 0.105 7.08 15.15 12.59
4/20/2022 12:30:00 PM 6.83 44.294 0.105 7.08 15.19 12.58
4/20/2022 12:45:00 PM 7.04 44.672 0.105 7.09 15.56 12.55
4/20/2022 1:00:00 PM 7.28 45.104 0.105 7.09 15.48 12.52
4/20/2022 1:15:00 PM 7.55 45.59 0.106 7.1 15.48 12.5
4/20/2022 1:30:00 PM 7.81 46.058 0.106 7.11 15.91 12.44
4/20/2022 1:45:00 PM 8.1 46.58 0.106 7.12 15.72 12.42
4/20/2022 2:00:00 PM 8.36 47.048 0.106 7.13 16.13 12.36
4/20/2022 2:15:00 PM 8.62 47.516 0.106 7.13 17.28 12.32
4/20/2022 2:30:00 PM 8.85 47.93 0.107 7.15 19.01 12.27
4/20/2022 2:45:00 PM 9.06 48.308 0.107 7.14 20.73 12.2
4/20/2022 3:00:00 PM 9.24 48.632 0.107 7.15 21.81 12.18
4/20/2022 3:15:00 PM 9.4 48.92 0.106 7.15 24.76 12.11
4/20/2022 3:30:00 PM 9.54 49.172 0.106 7.16 25.6 12.02
4/20/2022 3:45:00 PM 9.65 49.37 0.106 7.16 31.61 11.96
4/20/2022 4:00:00 PM 9.77 49.586 0.105 7.16 34.81 11.89
4/20/2022 4:15:00 PM 9.88 49.784 0.104 7.14 38.24 11.8
4/20/2022 4:30:00 PM 9.96 49.928 0.103 7.13 37.12 11.72
4/20/2022 4:45:00 PM 10.01 50.018 0.103 7.12 47.74 11.63
4/20/2022 5:00:00 PM 10.01 50.018 0.102 7.11 52.6 11.56
4/20/2022 5:15:00 PM 9.97 49.946 0.101 7.09 55.45 11.49
4/20/2022 5:30:00 PM 9.9 49.82 0.1 7.07 64.64 11.44
4/20/2022 5:45:00 PM 9.81 49.658 0.099 7.07 73.91 11.41
4/20/2022 6:00:00 PM 9.7 49.46 0.097 7.04 83.29 11.37
4/20/2022 6:15:00 PM 9.58 49.244 0.096 7.02 95.66 11.34
4/20/2022 6:30:00 PM 9.43 48.974 0.094 7.01 99.62 11.33
4/20/2022 6:45:00 PM 9.27 48.686 0.093 7.02 95.36 11.36
4/20/2022 7:00:00 PM 9.11 48.398 0.092 6.99 102.6 11.37
4/20/2022 7:15:00 PM 8.95 48.11 0.09 6.96 99.45 11.35
4/20/2022 7:30:00 PM 8.79 47.822 0.089 6.95 103.2 11.37
4/20/2022 7:45:00 PM 8.63 47.534 0.088 6.95 108.76 11.39
4/20/2022 8:00:00 PM 8.48 47.264 0.087 6.96 108.65 11.41
4/20/2022 8:15:00 PM 8.33 46.994 0.087 6.96 106.43 11.41
4/20/2022 8:30:00 PM 8.18 46.724 0.086 6.96 97.22 11.44
4/20/2022 8:45:00 PM 8.04 46.472 0.086 6.95 85.71 11.46
4/20/2022 9:00:00 PM 7.9 46.22 0.086 6.94 85.36 11.49
4/20/2022 9:15:00 PM 7.77 45.986 0.085 6.93 82.65 11.49
4/20/2022 9:30:00 PM 7.64 45.752 0.085 6.93 68.28 11.53
4/20/2022 9:45:00 PM 7.51 45.518 0.085 6.93 75.03 11.57
4/20/2022 10:00:00 PM 7.38 45.284 0.084 6.92 67.07 11.6
4/20/2022 10:15:00 PM 7.26 45.068 0.084 6.94 72.7 11.6
4/20/2022 10:30:00 PM 7.14 44.852 0.084 6.91 67.81 11.62
4/20/2022 10:45:00 PM 7.04 44.672 0.084 6.92 65.71 11.64
4/20/2022 11:00:00 PM 6.93 44.474 0.084 6.9 60.7 11.65
4/20/2022 11:15:00 PM 6.83 44.294 0.084 6.9 56.62 11.65
4/20/2022 11:30:00 PM 6.74 44.132 0.084 6.88 53.98 11.7
4/20/2022 11:45:00 PM 6.65 43.97 0.084 6.88 47.97 11.71
4/21/2022 12:00:00 AM 6.56 43.808 0.084 6.88 47.59 11.72
4/21/2022 12:15:00 AM 6.48 43.664 0.084 6.87 46.47 11.75
4/21/2022 12:30:00 AM 6.41 43.538 0.084 6.9 44.13 11.76
4/21/2022 12:45:00 AM 6.33 43.394 0.084 6.87 37.18 11.78
4/21/2022 1:00:00 AM 6.27 43.286 0.084 6.89 38.48 11.8
4/21/2022 1:15:00 AM 6.21 43.178 0.085 6.86 37.5 11.8
4/21/2022 1:30:00 AM 6.15 43.07 0.085 6.89 37.11 11.81
4/21/2022 1:45:00 AM 6.1 42.98 0.085 6.85 35.13 11.82
4/21/2022 2:00:00 AM 6.06 42.908 0.085 6.87 33.02 11.82
4/21/2022 2:15:00 AM 6.01 42.818 0.085 6.85 34.56 11.83
4/21/2022 2:30:00 AM 5.97 42.746 0.085 6.85 33.96 11.84
4/21/2022 2:45:00 AM 5.94 42.692 0.085 6.85 29.11 11.86
4/21/2022 3:00:00 AM 5.9 42.62 0.086 6.86 31.48 11.86
4/21/2022 3:15:00 AM 5.87 42.566 0.086 6.84 28.6 11.88
4/21/2022 3:30:00 AM 5.84 42.512 0.086 6.84 27.97 11.88
4/21/2022 3:45:00 AM 5.81 42.458 0.086 6.84 27.17 11.89
4/21/2022 4:00:00 AM 5.79 42.422 0.087 6.84 36.35 11.89
4/21/2022 4:15:00 AM 5.76 42.368 0.087 6.84 27.04 11.9
4/21/2022 4:30:00 AM 5.74 42.332 0.087 6.84 25.53 11.91
4/21/2022 4:45:00 AM 5.71 42.278 0.087 6.86 25.83 11.91
4/21/2022 5:00:00 AM 5.69 42.242 0.088 6.84 26.61 11.9
4/21/2022 5:15:00 AM 5.68 42.224 0.088 6.83 25.07 11.9
4/21/2022 5:30:00 AM 5.66 42.188 0.088 6.85 24.7 11.91
4/21/2022 5:45:00 AM 5.65 42.17 0.088 6.84 23.66 11.9
4/21/2022 6:00:00 AM 5.65 42.17 0.088 6.84 20.56 11.89
4/21/2022 6:15:00 AM 5.64 42.152 0.089 6.86 23.17 11.9
4/21/2022 6:30:00 AM 5.64 42.152 0.089 6.84 23.2 11.91
4/21/2022 6:45:00 AM 5.64 42.152 0.089 6.83 27.9 11.9
4/21/2022 7:00:00 AM 5.64 42.152 0.089 6.83 21.99 11.88
4/21/2022 7:15:00 AM 5.65 42.17 0.089 6.82 34.71 11.89
4/21/2022 7:30:00 AM 5.66 42.188 0.089 6.83 34.1 11.9
4/21/2022 7:45:00 AM 5.68 42.224 0.089 6.84 27.39 11.92
4/21/2022 8:00:00 AM 5.71 42.278 0.089 6.87 30.78 11.95
4/21/2022 8:15:00 AM 5.75 42.35 0.089 6.85 27.99 11.97
4/21/2022 8:30:00 AM 5.8 42.44 0.09 6.85 24.78 11.99
4/21/2022 8:45:00 AM 5.87 42.566 0.09 6.89 21.69 12.02
4/21/2022 9:00:00 AM 5.94 42.692 0.09 6.87 20.53 12.03
4/21/2022 9:15:00 AM 6.01 42.818 0.09 6.88 20 12.04
4/21/2022 9:30:00 AM 6.09 42.962 0.09 6.89 21.39 12.06
4/21/2022 9:45:00 AM 6.17 43.106 0.09 6.89 19.44 12.08
4/21/2022 10:00:00 AM 6.24 43.232 0.09 6.9 19.97 12.09
4/21/2022 10:15:00 AM 6.32 43.376 0.09 6.91 19.13 12.11
4/21/2022 10:30:00 AM 6.39 43.502 0.09 6.95 19.58 12.11
4/21/2022 10:45:00 AM 6.46 43.628 0.09 6.93 19.36 12.1
4/21/2022 11:00:00 AM 6.55 43.79 0.09 6.93 18.42 12.11
4/21/2022 11:15:00 AM 6.63 43.934 0.09 6.93 19.05 12.09
4/21/2022 11:30:00 AM 6.72 44.096 0.09 6.94 17.6 12.09
4/21/2022 11:45:00 AM 6.8 44.24 0.091 6.95 18.18 12.08
4/21/2022 12:00:00 PM 6.88 44.384 0.091 6.95 20.59 12.1
4/21/2022 12:15:00 PM 6.96 44.528 0.091 6.97 17.33 12.1
4/21/2022 12:30:00 PM 7.06 44.708 0.09 6.97 17.83 12.09
4/21/2022 12:45:00 PM 7.16 44.888 0.09 6.97 17.98 12.07
4/21/2022 1:00:00 PM 7.24 45.032 0.09 6.98 19.64 12.03
4/21/2022 1:15:00 PM 7.32 45.176 0.09 6.97 16.06 12.01
4/21/2022 1:30:00 PM 7.38 45.284 0.09 6.98 15.91 11.99
4/21/2022 1:45:00 PM 7.44 45.392 0.09 6.99 25.37 11.95
4/21/2022 2:00:00 PM 7.49 45.482 0.09 6.98 19.02 11.91
4/21/2022 2:15:00 PM 7.53 45.554 0.09 6.98 17.01 11.89
4/21/2022 2:30:00 PM 7.57 45.626 0.089 6.99 14.27 11.87
4/21/2022 2:45:00 PM 7.59 45.662 0.089 7 19.33 11.83
4/21/2022 3:00:00 PM 7.62 45.716 0.089 7 19.73 11.8
4/21/2022 3:15:00 PM 7.64 45.752 0.089 7.03 21.75 11.77
4/21/2022 3:30:00 PM 7.66 45.788 0.089 7 33.33 11.74
4/21/2022 3:45:00 PM 7.66 45.788 0.088 6.99 24.31 11.72
4/21/2022 4:00:00 PM 7.66 45.788 0.088 7 22.88 11.72
4/21/2022 4:15:00 PM 7.66 45.788 0.087 6.99 29.47 11.71
4/21/2022 4:30:00 PM 7.66 45.788 0.087 6.99 22.27 11.7
4/21/2022 4:45:00 PM 7.65 45.77 0.086 6.99 22.63 11.7
4/21/2022 5:00:00 PM 7.64 45.752 0.086 7.01 24.61 11.7
4/21/2022 5:15:00 PM 7.62 45.716 0.086 7.03 27.97 11.69
4/21/2022 5:30:00 PM 7.6 45.68 0.086 7.02 31.06 11.68
4/21/2022 5:45:00 PM 7.59 45.662 0.086 7.01 32.7 11.67
4/21/2022 6:00:00 PM 7.57 45.626 0.085 7.01 23.22 11.68
4/21/2022 6:15:00 PM 7.54 45.572 0.084 7 65.32 11.68
4/21/2022 6:30:00 PM 7.53 45.554 0.084 7 35.79 11.68
4/21/2022 6:45:00 PM 7.51 45.518 0.084 7 33.31 11.69
4/21/2022 7:00:00 PM 7.5 45.5 0.083 6.99 30.94 11.68
4/21/2022 7:15:00 PM 7.48 45.464 0.082 6.97 31.85 11.68
4/21/2022 7:30:00 PM 7.46 45.428 0.082 6.97 44.21 11.68
4/21/2022 7:45:00 PM 7.45 45.41 0.082 6.97 39.17 11.68
4/21/2022 8:00:00 PM 7.43 45.374 0.081 6.97 35.7 11.68
4/21/2022 8:15:00 PM 7.42 45.356 0.081 6.96 31.16 11.67
4/21/2022 8:30:00 PM 7.4 45.32 0.08 6.94 32.37 11.65
4/21/2022 8:45:00 PM 7.38 45.284 0.08 6.95 31.22 11.64
4/21/2022 9:00:00 PM 7.36 45.248 0.08 6.93 30.53 11.63
4/21/2022 9:15:00 PM 7.33 45.194 0.08 6.93 30.77 11.62
4/21/2022 9:30:00 PM 7.31 45.158 0.079 6.92 29.44 11.61
4/21/2022 9:45:00 PM 7.29 45.122 0.079 6.92 29.2 11.61
4/21/2022 10:00:00 PM 7.27 45.086 0.079 6.92 27.73 11.6
4/21/2022 10:15:00 PM 7.24 45.032 0.079 6.93 28.36 11.58
4/21/2022 10:30:00 PM 7.21 44.978 0.079 6.91 25.15 11.59
4/21/2022 10:45:00 PM 7.18 44.924 0.079 6.89 35.49 11.58
4/21/2022 11:00:00 PM 7.15 44.87 0.078 6.89 24.81 11.58
4/21/2022 11:15:00 PM 7.12 44.816 0.078 6.9 22.64 11.6
4/21/2022 11:30:00 PM 7.08 44.744 0.078 6.87 22.93 11.6
4/21/2022 11:45:00 PM 7.05 44.69 0.078 6.87 23.3 11.61
4/22/2022 12:00:00 AM 7.01 44.618 0.078 6.89 21.09 11.61
4/22/2022 12:15:00 AM 6.97 44.546 0.079 6.85 19.84 11.61
4/22/2022 12:30:00 AM 6.93 44.474 0.079 6.85 21.47 11.63
4/22/2022 12:45:00 AM 6.89 44.402 0.079 6.83 19.06 11.62
4/22/2022 1:00:00 AM 6.85 44.33 0.079 6.82 26.8 11.61
4/22/2022 1:15:00 AM 6.81 44.258 0.079 6.82 19.1 11.62
4/22/2022 1:30:00 AM 6.77 44.186 0.079 6.81 19.35 11.63
4/22/2022 1:45:00 AM 6.73 44.114 0.079 6.83 19.17 11.62
4/22/2022 2:00:00 AM 6.69 44.042 0.079 6.83 17.8 11.64
4/22/2022 2:15:00 AM 6.65 43.97 0.079 6.83 18.11 11.64
4/22/2022 2:30:00 AM 6.61 43.898 0.079 6.81 17.53 11.65
4/22/2022 2:45:00 AM 6.56 43.808 0.079 6.81 17.66 11.67
4/22/2022 3:00:00 AM 6.52 43.736 0.079 6.79 17.24 11.68
4/22/2022 3:15:00 AM 6.49 43.682 0.08 6.81 16.57 11.69
4/22/2022 3:30:00 AM 6.46 43.628 0.08 6.79 14.48 11.7
4/22/2022 3:45:00 AM 6.42 43.556 0.08 6.79 15.09 11.71
4/22/2022 4:00:00 AM 6.39 43.502 0.08 6.8 13.89 11.72
4/22/2022 4:15:00 AM 6.35 43.43 0.08 6.8 16.08 11.73
4/22/2022 4:30:00 AM 6.32 43.376 0.08 6.8 16.03 11.74
4/22/2022 4:45:00 AM 6.29 43.322 0.08 6.8 14.89 11.76
4/22/2022 5:00:00 AM 6.26 43.268 0.08 6.81 15.31 11.75
4/22/2022 5:15:00 AM 6.24 43.232 0.08 6.81 15.28 11.76
4/22/2022 5:30:00 AM 6.23 43.214 0.08 6.81 14.44 11.76
4/22/2022 5:45:00 AM 6.21 43.178 0.08 6.81 15.19 11.77
4/22/2022 6:00:00 AM 6.19 43.142 0.08 6.81 15.65 11.77
4/22/2022 6:15:00 AM 6.17 43.106 0.08 6.81 15.32 11.78
4/22/2022 6:30:00 AM 6.15 43.07 0.08 6.82 14.67 11.78
4/22/2022 6:45:00 AM 6.14 43.052 0.08 6.82 15.22 11.79
4/22/2022 7:00:00 AM 6.12 43.016 0.08 6.82 14.37 11.8
4/22/2022 7:15:00 AM 6.11 42.998 0.08 6.83 14.04 11.82
4/22/2022 7:30:00 AM 6.11 42.998 0.08 6.81 19.54 11.83
4/22/2022 7:45:00 AM 6.11 42.998 0.081 6.82 15 11.85
4/22/2022 8:00:00 AM 6.11 42.998 0.081 6.82 14.1 11.87
4/22/2022 8:15:00 AM 6.13 43.034 0.081 6.83 14.94 11.9
4/22/2022 8:30:00 AM 6.15 43.07 0.081 6.83 14.06 11.93
4/22/2022 8:45:00 AM 6.18 43.124 0.081 6.84 13.61 11.96
4/22/2022 9:00:00 AM 6.23 43.214 0.081 6.87 12.74 12
4/22/2022 9:15:00 AM 6.29 43.322 0.081 6.86 15.41 12.04
4/22/2022 9:30:00 AM 6.36 43.448 0.081 6.88 13.27 12.08
4/22/2022 9:45:00 AM 6.46 43.628 0.081 6.89 13.38 12.09
4/22/2022 10:00:00 AM 6.57 43.826 0.081 6.89 12.94 12.1
4/22/2022 10:15:00 AM 6.69 44.042 0.081 6.9 13 12.12
4/22/2022 10:30:00 AM 6.83 44.294 0.08 6.91 13.12 12.13
4/22/2022 10:45:00 AM 6.98 44.564 0.08 6.92 13.55 12.15
4/22/2022 11:00:00 AM 7.15 44.87 0.081 6.92 12.59 12.15
4/22/2022 11:15:00 AM 7.34 45.212 0.081 6.94 12.36 12.14
4/22/2022 11:30:00 AM 7.53 45.554 0.081 6.94 12.41 12.16
4/22/2022 11:45:00 AM 7.73 45.914 0.081 6.96 11.65 12.15
4/22/2022 12:00:00 PM 7.93 46.274 0.081 6.96 11.47 12.12
4/22/2022 12:15:00 PM 8.14 46.652 0.081 6.97 11.18 12.13
4/22/2022 12:30:00 PM 8.36 47.048 0.081 6.99 11.46 12.09
4/22/2022 12:45:00 PM 8.56 47.408 0.081 6.99 14.36 12.06
4/22/2022 1:00:00 PM 8.79 47.822 0.081 6.99 12.33 12.06
4/22/2022 1:15:00 PM 9.03 48.254 0.081 7 11.66 12.01
4/22/2022 1:30:00 PM 9.26 48.668 0.081 7.01 11.26 12
4/22/2022 1:45:00 PM 9.49 49.082 0.081 7.02 11.59 11.96
4/22/2022 2:00:00 PM 9.72 49.496 0.081 7.03 11.46 11.9
4/22/2022 2:15:00 PM 9.95 49.91 0.081 7.03 12.69 11.9
4/22/2022 2:30:00 PM 10.18 50.324 0.081 7.04 13.17 11.83
4/22/2022 2:45:00 PM 10.39 50.702 0.081 7.06 10.88 11.79
4/22/2022 3:00:00 PM 10.58 51.044 0.082 7.06 12.47 11.76
4/22/2022 3:15:00 PM 10.77 51.386 0.082 7.07 11.94 11.69
4/22/2022 3:30:00 PM 10.93 51.674 0.082 7.08 11.26 11.65
4/22/2022 3:45:00 PM 11.09 51.962 0.082 7.07 12.03 11.62
4/22/2022 4:00:00 PM 11.23 52.214 0.082 7.08 12.36 11.56
4/22/2022 4:15:00 PM 11.36 52.448 0.082 7.08 11.78 11.5
4/22/2022 4:30:00 PM 11.47 52.646 0.082 7.09 13.23 11.45
4/22/2022 4:45:00 PM 11.55 52.79 0.082 7.08 11.1 11.42
4/22/2022 5:00:00 PM 11.61 52.898 0.082 7.09 13.58 11.38
4/22/2022 5:15:00 PM 11.64 52.952 0.082 7.08 12.43 11.33
4/22/2022 5:30:00 PM 11.65 52.97 0.082 7.07 16.01 11.27
4/22/2022 5:45:00 PM 11.65 52.97 0.082 7.05 20.65 11.2
4/22/2022 6:00:00 PM 11.63 52.934 0.082 7.05 17.61 11.13
4/22/2022 6:15:00 PM 11.6 52.88 0.082 7.03 22.09 11.07
4/22/2022 6:30:00 PM 11.55 52.79 0.082 7.02 25.02 11
4/22/2022 6:45:00 PM 11.49 52.682 0.082 7.01 28.21 10.93
4/22/2022 7:00:00 PM 11.42 52.556 0.082 6.99 39.34 10.87
4/22/2022 7:15:00 PM 11.34 52.412 0.082 6.98 36.55 10.83
4/22/2022 7:30:00 PM 11.27 52.286 0.082 6.98 24.67 10.81
4/22/2022 7:45:00 PM 11.18 52.124 0.082 6.97 26.14 10.82
4/22/2022 8:00:00 PM 11.08 51.944 0.082 6.95 50.03 10.81
4/22/2022 8:15:00 PM 10.97 51.746 0.082 6.94 24.61 10.8
4/22/2022 8:30:00 PM 10.86 51.548 0.082 6.96 15.45 10.77
4/22/2022 8:45:00 PM 10.75 51.35 0.082 6.94 16.14 10.75
4/22/2022 9:00:00 PM 10.63 51.134 0.082 6.93 14.88 10.74
4/22/2022 9:15:00 PM 10.51 50.918 0.082 6.91 15.33 10.75
4/22/2022 9:30:00 PM 10.39 50.702 0.082 6.92 16.07 10.76
4/22/2022 9:45:00 PM 10.26 50.468 0.082 6.89 17.26 10.75
4/22/2022 10:00:00 PM 10.14 50.252 0.082 6.91 14.73 10.75
4/22/2022 10:15:00 PM 10.01 50.018 0.082 6.89 14.81 10.77
4/22/2022 10:30:00 PM 9.89 49.802 0.082 6.89 14.27 10.8
4/22/2022 10:45:00 PM 9.76 49.568 0.082 6.86 17.04 10.82
4/22/2022 11:00:00 PM 9.63 49.334 0.082 6.85 16.15 10.82
4/22/2022 11:15:00 PM 9.5 49.1 0.082 6.84 14.94 10.83
4/22/2022 11:30:00 PM 9.42 48.956 0.082 6.83 14.84 10.86
4/22/2022 11:45:00 PM 9.28 48.704 0.082 6.83 13.83 10.9
4/23/2022 12:00:00 AM 9.16 48.488 0.082 6.83 14.05 10.91
4/23/2022 12:15:00 AM 9.02 48.236 0.083 6.82 14.34 10.93
4/23/2022 12:30:00 AM 8.9 48.02 0.083 6.82 14 10.96
4/23/2022 12:45:00 AM 8.78 47.804 0.083 6.81 13.06 10.99
4/23/2022 1:00:00 AM 8.67 47.606 0.083 6.84 13.48 11.03
4/23/2022 1:15:00 AM 8.56 47.408 0.083 6.81 13.47 11.03
4/23/2022 1:30:00 AM 8.46 47.228 0.083 6.8 13.07 11.04
4/23/2022 1:45:00 AM 8.37 47.066 0.083 6.8 13.36 11.07
4/23/2022 2:00:00 AM 8.27 46.886 0.083 6.79 13.36 11.1
4/23/2022 2:15:00 AM 8.19 46.742 0.083 6.79 12.59 11.13
4/23/2022 2:30:00 AM 8.16 46.688 0.082 6.79 12.75 11.12
4/23/2022 2:45:00 AM 8.11 46.598 0.082 6.78 12.59 11.12
4/23/2022 3:00:00 AM 8.03 46.454 0.082 6.78 12.17 11.13
4/23/2022 3:15:00 AM 7.95 46.31 0.082 6.78 12.45 11.15
4/23/2022 3:30:00 AM 7.85 46.13 0.082 6.75 14.64 11.18
4/23/2022 3:45:00 AM 7.78 46.004 0.082 6.74 13.35 11.21
4/23/2022 4:00:00 AM 7.71 45.878 0.082 6.76 12.15 11.23
4/23/2022 4:15:00 AM 7.65 45.77 0.082 6.75 11.96 11.26
4/23/2022 4:30:00 AM 7.58 45.644 0.082 6.71 11.91 11.28
4/23/2022 4:45:00 AM 7.53 45.554 0.082 6.72 11.59 11.29
4/23/2022 5:00:00 AM 7.48 45.464 0.082 6.72 12.1 11.3
4/23/2022 5:15:00 AM 7.43 45.374 0.082 6.71 11.5 11.31
4/23/2022 5:30:00 AM 7.38 45.284 0.082 6.71 11.13 11.32
4/23/2022 5:45:00 AM 7.34 45.212 0.082 6.73 11.03 11.34
4/23/2022 6:00:00 AM 7.31 45.158 0.082 6.71 11.75 11.35
4/23/2022 6:15:00 AM 7.28 45.104 0.082 6.7 11.65 11.36
4/23/2022 6:30:00 AM 7.25 45.05 0.082 6.7 10.72 11.36
4/23/2022 6:45:00 AM 7.22 44.996 0.082 6.71 11.01 11.41
4/23/2022 7:00:00 AM 7.29 45.122 0.082 6.69 10.68 11.39
4/23/2022 7:15:00 AM 7.3 45.14 0.082 6.71 10.67 11.39
4/23/2022 7:30:00 AM 7.29 45.122 0.082 6.73 10.6 11.44
4/23/2022 7:45:00 AM 7.28 45.104 0.082 6.73 10.56 11.48
4/23/2022 8:00:00 AM 7.27 45.086 0.082 6.73 9.91 11.51
4/23/2022 8:15:00 AM 7.26 45.068 0.082 6.74 9.85 11.53
4/23/2022 8:30:00 AM 7.26 45.068 0.082 6.74 10.2 11.55
4/23/2022 8:45:00 AM 7.27 45.086 0.082 6.76 9.62 11.59
4/23/2022 9:00:00 AM 7.28 45.104 0.082 6.77 9.74 11.6
4/23/2022 9:15:00 AM 7.3 45.14 0.082 6.78 9.75 11.63
4/23/2022 9:30:00 AM 7.33 45.194 0.083 6.8 9.94 11.67
4/23/2022 9:45:00 AM 7.37 45.266 0.083 6.81 9.43 11.69
4/23/2022 10:00:00 AM 7.46 45.428 0.083 6.81 9.5 11.74
4/23/2022 10:15:00 AM 7.57 45.626 0.083 6.83 9.2 11.78
4/23/2022 10:30:00 AM 7.69 45.842 0.083 6.85 9.11 11.83
4/23/2022 10:45:00 AM 7.82 46.076 0.083 6.87 9.09 11.85
4/23/2022 11:00:00 AM 7.97 46.346 0.083 6.89 8.97 11.87
4/23/2022 11:15:00 AM 8.12 46.616 0.083 6.89 9.1 11.89
4/23/2022 11:30:00 AM 8.3 46.94 0.083 6.93 8.99 11.94
4/23/2022 11:45:00 AM 8.47 47.246 0.083 6.93 8.57 11.94
4/23/2022 12:00:00 PM 8.66 47.588 0.083 6.93 8.94 11.92
4/23/2022 12:15:00 PM 8.85 47.93 0.083 6.95 8.44 11.94
4/23/2022 12:30:00 PM 9.02 48.236 0.083 7 8.63 11.93
4/23/2022 12:45:00 PM 9.24 48.632 0.083 6.99 8.63 11.89
4/23/2022 1:00:00 PM 9.47 49.046 0.083 7 8.5 11.89
4/23/2022 1:15:00 PM 9.67 49.406 0.083 7.01 8.42 11.85
4/23/2022 1:30:00 PM 9.9 49.82 0.083 7.03 8.61 11.82
4/23/2022 1:45:00 PM 10.17 50.306 0.083 7.04 9.18 11.82
4/23/2022 2:00:00 PM 10.42 50.756 0.083 7.04 10.83 11.76
4/23/2022 2:15:00 PM 10.57 51.026 0.083 7.05 10.51 11.7
4/23/2022 2:30:00 PM 10.66 51.188 0.084 7.07 10.25 11.67
4/23/2022 2:45:00 PM 10.74 51.332 0.084 7.05 12.37 11.62
4/23/2022 3:00:00 PM 10.82 51.476 0.084 7.07 10.19 11.56
4/23/2022 3:15:00 PM 10.89 51.602 0.084 7.07 9.61 11.5
4/23/2022 3:30:00 PM 10.96 51.728 0.084 7.06 11.61 11.45
4/23/2022 3:45:00 PM 11.01 51.818 0.084 7.08 9.59 11.39
4/23/2022 4:00:00 PM 11.06 51.908 0.084 7.06 11.27 11.33
4/23/2022 4:15:00 PM 11.11 51.998 0.084 7.05 205.2 11.27
4/23/2022 4:30:00 PM 11.15 52.07 0.084 7.06 35.58 11.26
4/23/2022 4:45:00 PM 11.18 52.124 0.084 7.02 14.18 11.25
4/23/2022 5:00:00 PM 11.21 52.178 0.085 7.01 10.38 11.21
4/23/2022 5:15:00 PM 11.25 52.25 0.084 6.98 9.71 11.19
4/23/2022 5:30:00 PM 11.29 52.322 0.085 6.98 9.33 11.17
4/23/2022 5:45:00 PM 11.32 52.376 0.085 6.98 8.68 11.14
4/23/2022 6:00:00 PM 11.36 52.448 0.085 6.98 10.25 11.12
4/23/2022 6:15:00 PM 11.39 52.502 0.085 6.99 8.17 11.1
4/23/2022 6:30:00 PM 11.42 52.556 0.085 6.98 9.87 11.06
4/23/2022 6:45:00 PM 11.44 52.592 0.085 6.98 9.38 11.01
4/23/2022 7:00:00 PM 11.46 52.628 0.085 6.98 7.69 10.97
4/23/2022 7:15:00 PM 11.46 52.628 0.085 6.97 9.11 10.91
4/23/2022 7:30:00 PM 11.46 52.628 0.085 6.97 7.61 10.85
4/23/2022 7:45:00 PM 11.45 52.61 0.085 6.95 9.13 10.79
4/23/2022 8:00:00 PM 11.43 52.574 0.086 6.95 7.54 10.73
4/23/2022 8:15:00 PM 11.42 52.556 0.086 6.94 7.78 10.68
4/23/2022 8:30:00 PM 11.39 52.502 0.086 6.91 9.82 10.62
4/23/2022 8:45:00 PM 11.35 52.43 0.086 6.9 7.8 10.59
4/23/2022 9:00:00 PM 11.3 52.34 0.086 6.9 7.8 10.55
4/23/2022 9:15:00 PM 11.23 52.214 0.086 6.87 9.55 10.52
4/23/2022 9:30:00 PM 11.16 52.088 0.086 6.87 8.1 10.49
4/23/2022 9:45:00 PM 11.09 51.962 0.086 6.87 8.55 10.46
4/23/2022 10:00:00 PM 11.02 51.836 0.087 6.84 9.81 10.45
4/23/2022 10:15:00 PM 10.93 51.674 0.087 6.84 7.91 10.44
4/23/2022 10:30:00 PM 10.85 51.53 0.087 6.84 8.14 10.44
4/23/2022 10:45:00 PM 10.78 51.404 0.087 6.83 9.77 10.46
4/23/2022 11:00:00 PM 10.7 51.26 0.087 6.82 9.48 10.46
4/23/2022 11:15:00 PM 10.61 51.098 0.087 6.83 8.18 10.45
4/23/2022 11:30:00 PM 10.53 50.954 0.087 6.82 8.24 10.45
4/23/2022 11:45:00 PM 10.44 50.792 0.087 6.82 9.6 10.46
4/24/2022 12:00:00 AM 10.36 50.648 0.087 6.8 8.09 10.47
4/24/2022 12:15:00 AM 10.27 50.486 0.087 6.81 8.18 10.48
4/24/2022 12:30:00 AM 10.19 50.342 0.087 6.8 8.03 10.5
4/24/2022 12:45:00 AM 10.11 50.198 0.087 6.8 8.01 10.51
4/24/2022 1:00:00 AM 10.04 50.072 0.087 6.79 7.98 10.52
4/24/2022 1:15:00 AM 9.97 49.946 0.087 6.8 7.96 10.52
4/24/2022 1:30:00 AM 9.9 49.82 0.087 6.8 8.15 10.52
4/24/2022 1:45:00 AM 9.84 49.712 0.087 6.81 8.38 10.53
4/24/2022 2:00:00 AM 9.78 49.604 0.087 6.79 8.15 10.54
4/24/2022 2:15:00 AM 9.71 49.478 0.087 6.79 8.16 10.56
4/24/2022 2:30:00 AM 9.65 49.37 0.087 6.79 8.35 10.58
4/24/2022 2:45:00 AM 9.59 49.262 0.088 6.78 8.16 10.59
4/24/2022 3:00:00 AM 9.53 49.154 0.088 6.78 8.12 10.6
4/24/2022 3:15:00 AM 9.46 49.028 0.088 6.77 8.38 10.6
4/24/2022 3:30:00 AM 9.4 48.92 0.088 6.78 8.38 10.61
4/24/2022 3:45:00 AM 9.34 48.812 0.088 6.78 8.11 10.61
4/24/2022 4:00:00 AM 9.27 48.686 0.088 6.77 8.01 10.63
4/24/2022 4:15:00 AM 9.21 48.578 0.088 6.78 7.83 10.64
4/24/2022 4:30:00 AM 9.14 48.452 0.088 6.78 7.95 10.67
4/24/2022 4:45:00 AM 9.07 48.326 0.088 6.79 7.95 10.68
4/24/2022 5:00:00 AM 9.01 48.218 0.088 6.78 7.84 10.71
4/24/2022 5:15:00 AM 8.95 48.11 0.088 6.78 7.59 10.71
4/24/2022 5:30:00 AM 8.89 48.002 0.088 6.79 7.77 10.73
4/24/2022 5:45:00 AM 8.83 47.894 0.088 6.78 7.83 10.74
4/24/2022 6:00:00 AM 8.78 47.804 0.088 6.78 7.73 10.74
4/24/2022 6:15:00 AM 8.73 47.714 0.088 6.78 7.77 10.75
4/24/2022 6:30:00 AM 8.68 47.624 0.088 6.76 7.68 10.77
4/24/2022 6:45:00 AM 8.64 47.552 0.089 6.77 7.63 10.79
4/24/2022 7:00:00 AM 8.6 47.48 0.089 6.77 7.83 10.84
4/24/2022 7:15:00 AM 8.58 47.444 0.089 6.77 7.53 10.87
4/24/2022 7:30:00 AM 8.57 47.426 0.089 6.78 7.41 10.93
4/24/2022 7:45:00 AM 8.57 47.426 0.089 6.79 7.25 11
4/24/2022 8:00:00 AM 8.58 47.444 0.089 6.8 7.07 11.04
4/24/2022 8:15:00 AM 8.59 47.462 0.089 6.81 7.11 11.1
4/24/2022 8:30:00 AM 8.6 47.48 0.089 6.81 7.13 11.15
4/24/2022 8:45:00 AM 8.65 47.57 0.089 6.83 7.12 11.21
4/24/2022 9:00:00 AM 8.69 47.642 0.089 6.85 7.07 11.28
4/24/2022 9:15:00 AM 8.72 47.696 0.089 6.86 6.79 11.32
4/24/2022 9:30:00 AM 8.75 47.75 0.089 6.87 6.85 11.36
4/24/2022 9:45:00 AM 8.78 47.804 0.089 6.88 6.66 11.4
4/24/2022 10:00:00 AM 8.87 47.966 0.089 6.88 6.6 11.46
4/24/2022 10:15:00 AM 8.95 48.11 0.089 6.9 6.48 11.51
4/24/2022 10:30:00 AM 9.05 48.29 0.089 6.92 6.58 11.55
4/24/2022 10:45:00 AM 9.21 48.578 0.089 6.93 6.54 11.58
4/24/2022 11:00:00 AM 9.39 48.902 0.089 6.95 6.48 11.59
4/24/2022 11:15:00 AM 9.57 49.226 0.089 6.97 6.31 11.62
4/24/2022 11:30:00 AM 9.76 49.568 0.089 6.98 6.44 11.64
4/24/2022 11:45:00 AM 9.96 49.928 0.089 6.99 6.37 11.63
4/24/2022 12:00:00 PM 10.16 50.288 0.089 7.01 6.41 11.66
4/24/2022 12:15:00 PM 10.36 50.648 0.089 7.02 6.63 11.66
4/24/2022 12:30:00 PM 10.59 51.062 0.089 7.03 6.61 11.64
4/24/2022 12:45:00 PM 10.82 51.476 0.089 7.04 6.52 11.66
4/24/2022 1:00:00 PM 11.07 51.926 0.09 7.04 6.37 11.63
4/24/2022 1:15:00 PM 11.34 52.412 0.09 7.06 6.21 11.62
4/24/2022 1:30:00 PM 11.61 52.898 0.09 7.06 7.87 11.59
4/24/2022 1:45:00 PM 11.9 53.42 0.09 7.07 7.86 11.56
4/24/2022 2:00:00 PM 12.19 53.942 0.09 7.08 7.86 11.52
4/24/2022 2:15:00 PM 12.48 54.464 0.09 7.09 7.48 11.48
4/24/2022 2:30:00 PM 12.77 54.986 0.09 7.11 5.97 11.45
4/24/2022 2:45:00 PM 13.03 55.454 0.09 7.12 6.51 11.39
4/24/2022 3:00:00 PM 13.27 55.886 0.091 7.12 7.46 11.36
4/24/2022 3:15:00 PM 13.5 56.3 0.091 7.16 5.89 11.29
4/24/2022 3:30:00 PM 13.73 56.714 0.091 7.15 5.9 11.26
4/24/2022 3:45:00 PM 13.94 57.092 0.091 7.16 5.93 11.21
4/24/2022 4:00:00 PM 14.14 57.452 0.091 7.17 5.79 11.13
4/24/2022 4:15:00 PM 14.31 57.758 0.091 7.16 6.73 11.1
4/24/2022 4:30:00 PM 14.46 58.028 0.091 7.17 7.8 11.04
4/24/2022 4:45:00 PM 14.6 58.28 0.091 7.16 5.77 10.97
4/24/2022 5:00:00 PM 14.72 58.496 0.091 7.17 5.75 10.9
4/24/2022 5:15:00 PM 14.82 58.676 0.091 7.16 5.67 10.85
4/24/2022 5:30:00 PM 14.91 58.838 0.092 7.16 7.41 10.79
4/24/2022 5:45:00 PM 14.97 58.946 0.092 7.15 5.72 10.71
4/24/2022 6:00:00 PM 15.03 59.054 0.092 7.15 5.73 10.64
4/24/2022 6:15:00 PM 15.07 59.126 0.092 7.14 5.71 10.55
4/24/2022 6:30:00 PM 15.1 59.18 0.092 7.13 5.73 10.47
4/24/2022 6:45:00 PM 15.11 59.198 0.092 7.11 7.17 10.39
4/24/2022 7:00:00 PM 15.11 59.198 0.092 7.1 5.91 10.3
4/24/2022 7:15:00 PM 15.1 59.18 0.092 7.07 6.08 10.2
4/24/2022 7:30:00 PM 15.07 59.126 0.092 7.05 5.99 10.11
4/24/2022 7:45:00 PM 15.04 59.072 0.093 7.04 5.94 10.01
4/24/2022 8:00:00 PM 15 59 0.093 7.01 6.06 9.92
4/24/2022 8:15:00 PM 14.96 58.928 0.093 6.99 6.11 9.84
4/24/2022 8:30:00 PM 14.92 58.856 0.093 6.97 6.32 9.77
4/24/2022 8:45:00 PM 14.88 58.784 0.093 6.95 8.68 9.71
4/24/2022 9:00:00 PM 14.83 58.694 0.093 6.94 6.53 9.65
4/24/2022 9:15:00 PM 14.78 58.604 0.094 6.92 7.89 9.59
4/24/2022 9:30:00 PM 14.72 58.496 0.094 6.91 6.79 9.55
4/24/2022 9:45:00 PM 14.65 58.37 0.094 6.91 7.16 9.52
4/24/2022 10:00:00 PM 14.58 58.244 0.094 6.9 6.9 9.5
4/24/2022 10:15:00 PM 14.51 58.118 0.095 6.89 6.79 9.47
4/24/2022 10:30:00 PM 14.44 57.992 0.095 6.87 6.88 9.48
4/24/2022 10:45:00 PM 14.37 57.866 0.095 6.88 7.25 9.47
4/24/2022 11:00:00 PM 14.3 57.74 0.095 6.87 8.97 9.46
4/24/2022 11:15:00 PM 14.23 57.614 0.095 6.87 8.79 9.45
4/24/2022 11:30:00 PM 14.15 57.47 0.095 6.86 12.08 9.43
4/24/2022 11:45:00 PM 14.07 57.326 0.095 6.86 14.97 9.43
4/25/2022 12:00:00 AM 13.99 57.182 0.096 6.85 18.34 9.44
4/25/2022 12:15:00 AM 13.89 57.002 0.096 6.85 26.41 9.47
4/25/2022 12:30:00 AM 13.79 56.822 0.096 6.85 31.96 9.49
4/25/2022 12:45:00 AM 13.68 56.624 0.096 6.85 37.54 9.5
4/25/2022 1:00:00 AM 13.58 56.444 0.095 6.84 42.07 9.51
4/25/2022 1:15:00 AM 13.47 56.246 0.095 6.84 43.26 9.52
4/25/2022 1:30:00 AM 13.36 56.048 0.095 6.84 44.48 9.55
4/25/2022 1:45:00 AM 13.25 55.85 0.095 6.83 37.55 9.57
4/25/2022 2:00:00 AM 13.15 55.67 0.094 6.82 32.58 9.6
4/25/2022 2:15:00 AM 13.03 55.454 0.094 6.82 28.51 9.62
4/25/2022 2:30:00 AM 12.92 55.256 0.093 6.81 22.95 9.62
4/25/2022 2:45:00 AM 12.82 55.076 0.093 6.81 21.16 9.65
4/25/2022 3:00:00 AM 12.71 54.878 0.093 6.8 17.59 9.68
4/25/2022 3:15:00 AM 12.61 54.698 0.093 6.81 16.31 9.71
4/25/2022 3:30:00 AM 12.5 54.5 0.092 6.81 14.4 9.74
4/25/2022 3:45:00 AM 12.39 54.302 0.092 6.81 13.14 9.74
4/25/2022 4:00:00 AM 12.29 54.122 0.092 6.8 12.4 9.76
4/25/2022 4:15:00 AM 12.19 53.942 0.092 6.8 11.76 9.8
4/25/2022 4:30:00 AM 12.09 53.762 0.092 6.79 11.54 9.82
4/25/2022 4:45:00 AM 11.99 53.582 0.092 6.8 10.82 9.84
4/25/2022 5:00:00 AM 11.89 53.402 0.092 6.79 11.93 9.88
4/25/2022 5:15:00 AM 11.79 53.222 0.092 6.79 10.17 9.88
4/25/2022 5:30:00 AM 11.7 53.06 0.092 6.79 9.79 9.9
4/25/2022 5:45:00 AM 11.61 52.898 0.092 6.78 9.84 9.93
4/25/2022 6:00:00 AM 11.51 52.718 0.092 6.78 9.5 9.96
4/25/2022 6:15:00 AM 11.42 52.556 0.092 6.77 10.98 9.99
4/25/2022 6:30:00 AM 11.35 52.43 0.092 6.79 9.19 10.02
4/25/2022 6:45:00 AM 11.27 52.286 0.092 6.8 9.16 10.05
4/25/2022 7:00:00 AM 11.21 52.178 0.093 6.81 8.98 10.09
4/25/2022 7:15:00 AM 11.15 52.07 0.093 6.82 8.78 10.14
4/25/2022 7:30:00 AM 11.1 51.98 0.093 6.82 9.94 10.21
4/25/2022 7:45:00 AM 11.06 51.908 0.093 6.83 8.27 10.29
4/25/2022 8:00:00 AM 11.03 51.854 0.093 6.84 7.84 10.36
4/25/2022 8:15:00 AM 11.01 51.818 0.093 6.85 7.94 10.44
4/25/2022 8:30:00 AM 11.01 51.818 0.093 6.87 7.7 10.52
4/25/2022 8:45:00 AM 11.02 51.836 0.093 6.85 7.52 10.59
4/25/2022 9:00:00 AM 11.05 51.89 0.093 6.87 7.16 10.68
4/25/2022 9:15:00 AM 11.08 51.944 0.093 6.88 7.13 10.74
4/25/2022 9:30:00 AM 11.14 52.052 0.093 6.9 7.25 10.82
4/25/2022 9:45:00 AM 11.2 52.16 0.093 6.92 7.28 10.9
4/25/2022 10:00:00 AM 11.29 52.322 0.093 6.94 7.11 10.97
4/25/2022 10:15:00 AM 11.37 52.466 0.093 6.97 6.99 11.05
4/25/2022 10:30:00 AM 11.48 52.664 0.093 6.99 6.83 11.1
4/25/2022 10:45:00 AM 11.62 52.916 0.093 7 8.41 11.13
4/25/2022 11:00:00 AM 11.77 53.186 0.093 7.03 6.35 11.17
4/25/2022 11:15:00 AM 11.95 53.51 0.093 7.05 7.87 11.22
4/25/2022 11:30:00 AM 12.12 53.816 0.093 7.07 7.8 11.25
4/25/2022 11:45:00 AM 12.3 54.14 0.093 7.08 7.96 11.25
4/25/2022 12:00:00 PM 12.5 54.5 0.093 7.11 6.23 11.27
4/25/2022 12:15:00 PM 12.7 54.86 0.093 7.13 6.39 11.3
4/25/2022 12:30:00 PM 12.92 55.256 0.093 7.15 6.24 11.28
4/25/2022 12:45:00 PM 13.14 55.652 0.093 7.16 6.31 11.29
4/25/2022 1:00:00 PM 13.38 56.084 0.093 7.18 6.23 11.28
4/25/2022 1:15:00 PM 13.63 56.534 0.093 7.2 6.19 11.27
4/25/2022 1:30:00 PM 13.87 56.966 0.094 7.21 6.08 11.26
4/25/2022 1:45:00 PM 14.11 57.398 0.094 7.22 6.05 11.22
4/25/2022 2:00:00 PM 14.35 57.83 0.094 7.23 6 11.23
4/25/2022 2:15:00 PM 14.6 58.28 0.094 7.24 5.8 11.17
4/25/2022 2:30:00 PM 14.81 58.658 0.094 7.26 6.05 11.15
4/25/2022 2:45:00 PM 15.02 59.036 0.094 7.26 5.74 11.13
4/25/2022 3:00:00 PM 15.22 59.396 0.094 7.27 5.59 11.07
4/25/2022 3:15:00 PM 15.41 59.738 0.094 7.28 5.7 11.05
4/25/2022 3:30:00 PM 15.59 60.062 0.095 7.29 5.72 11.02
4/25/2022 3:45:00 PM 15.76 60.368 0.095 7.3 5.88 10.96
4/25/2022 4:00:00 PM 15.92 60.656 0.095 7.31 5.6 10.91
4/25/2022 4:15:00 PM 16.06 60.908 0.095 7.32 5.45 10.88
4/25/2022 4:30:00 PM 16.19 61.142 0.095 7.32 5.45 10.82
4/25/2022 4:45:00 PM 16.28 61.304 0.095 7.32 5.76 10.76
4/25/2022 5:00:00 PM 16.36 61.448 0.095 7.32 6.02 10.69
4/25/2022 5:15:00 PM 16.43 61.574 0.095 7.33 5.98 10.64
4/25/2022 5:30:00 PM 16.49 61.682 0.096 7.31 5.86 10.57
4/25/2022 5:45:00 PM 16.52 61.736 0.096 7.31 6.1 10.53
4/25/2022 6:00:00 PM 16.53 61.754 0.096 7.3 6.16 10.44
4/25/2022 6:15:00 PM 16.53 61.754 0.096 7.29 6.12 10.39
4/25/2022 6:30:00 PM 16.53 61.754 0.096 7.26 6.68 10.28
4/25/2022 6:45:00 PM 16.5 61.7 0.096 7.26 6.34 10.21
4/25/2022 7:00:00 PM 16.45 61.61 0.096 7.24 6.15 10.1
4/25/2022 7:15:00 PM 16.39 61.502 0.097 7.22 6.31 10
4/25/2022 7:30:00 PM 16.32 61.376 0.097 7.18 6.29 9.9
4/25/2022 7:45:00 PM 16.24 61.232 0.097 7.16 6.25 9.81
4/25/2022 8:00:00 PM 16.15 61.07 0.097 7.14 6.23 9.72
4/25/2022 8:15:00 PM 16.06 60.908 0.098 7.11 5.81 9.63
4/25/2022 8:30:00 PM 15.97 60.746 0.098 7.09 5.94 9.55
4/25/2022 8:45:00 PM 15.88 60.584 0.098 7.09 6.34 9.48
4/25/2022 9:00:00 PM 15.79 60.422 0.098 7.06 6.21 9.41
4/25/2022 9:15:00 PM 15.7 60.26 0.098 7.04 5.79 9.36
4/25/2022 9:30:00 PM 15.6 60.08 0.098 7.03 6.06 9.33
4/25/2022 9:45:00 PM 15.49 59.882 0.098 7.03 6.23 9.3
4/25/2022 10:00:00 PM 15.38 59.684 0.099 7.01 6.3 9.28
4/25/2022 10:15:00 PM 15.28 59.504 0.099 7.01 6.46 9.24
4/25/2022 10:30:00 PM 15.18 59.324 0.099 6.99 6.59 9.22
4/25/2022 10:45:00 PM 15.08 59.144 0.099 6.98 6.57 9.21
4/25/2022 11:00:00 PM 14.99 58.982 0.099 6.97 6.35 9.21
4/25/2022 11:15:00 PM 14.91 58.838 0.1 6.97 6.25 9.22
4/25/2022 11:30:00 PM 14.81 58.658 0.1 6.96 6.59 9.21
4/25/2022 11:45:00 PM 14.73 58.514 0.1 6.96 7.4 9.22
4/26/2022 12:00:00 AM 14.65 58.37 0.1 6.95 6.33 9.21
4/26/2022 12:15:00 AM 14.56 58.208 0.101 6.96 6.17 9.22
4/26/2022 12:30:00 AM 14.49 58.082 0.101 6.95 5.88 9.22
4/26/2022 12:45:00 AM 14.42 57.956 0.101 6.95 6.27 9.22
4/26/2022 1:00:00 AM 14.34 57.812 0.101 6.94 7.77 9.24
4/26/2022 1:15:00 AM 14.27 57.686 0.102 6.94 7.43 9.25
4/26/2022 1:30:00 AM 14.21 57.578 0.102 6.93 7.48 9.26
4/26/2022 1:45:00 AM 14.15 57.47 0.102 6.93 7.1 9.26
4/26/2022 2:00:00 AM 14.1 57.38 0.102 6.93 5.63 9.23
4/26/2022 2:15:00 AM 14.05 57.29 0.102 6.93 5.56 9.21
4/26/2022 2:30:00 AM 14.01 57.218 0.102 6.93 5.45 9.17
4/26/2022 2:45:00 AM 13.96 57.128 0.102 6.91 5.26 9.16
4/26/2022 3:00:00 AM 13.9 57.02 0.103 6.91 6.53 9.15
4/26/2022 3:15:00 AM 13.86 56.948 0.103 6.91 5.18 9.13
4/26/2022 3:30:00 AM 13.8 56.84 0.103 6.91 5.17 9.12
4/26/2022 3:45:00 AM 13.74 56.732 0.103 6.91 5.24 9.12
4/26/2022 4:00:00 AM 13.68 56.624 0.103 6.9 5.33 9.11
4/26/2022 4:15:00 AM 13.62 56.516 0.103 6.89 5.13 9.09
4/26/2022 4:30:00 AM 13.55 56.39 0.103 6.89 5.22 9.07
4/26/2022 4:45:00 AM 13.49 56.282 0.103 6.89 5.26 9.04
4/26/2022 5:00:00 AM 13.43 56.174 0.103 6.89 4.94 9.01
4/26/2022 5:15:00 AM 13.37 56.066 0.103 6.88 5.14 9
4/26/2022 5:30:00 AM 13.3 55.94 0.104 6.87 4.97 8.98
4/26/2022 5:45:00 AM 13.25 55.85 0.103 6.86 6.43 8.95
4/26/2022 6:00:00 AM 13.18 55.724 0.103 6.86 4.55 8.92
4/26/2022 6:15:00 AM 13.11 55.598 0.103 6.85 6.16 8.9
4/26/2022 6:30:00 AM 13.05 55.49 0.103 6.85 6.14 8.85
4/26/2022 6:45:00 AM 12.99 55.382 0.103 6.84 6.21 8.8
4/26/2022 7:00:00 AM 12.93 55.274 0.103 6.85 4.6 8.76
4/26/2022 7:15:00 AM 12.86 55.148 0.103 6.84 4.81 8.71
4/26/2022 7:30:00 AM 12.81 55.058 0.103 6.82 6.16 8.67
4/26/2022 7:45:00 AM 12.75 54.95 0.103 6.82 4.6 8.63
4/26/2022 8:00:00 AM 12.7 54.86 0.103 6.81 4.55 8.59
4/26/2022 8:15:00 AM 12.65 54.77 0.103 6.8 5.91 8.55
4/26/2022 8:30:00 AM 12.59 54.662 0.103 6.8 5.93 8.52
4/26/2022 8:45:00 AM 12.54 54.572 0.103 6.8 4.47 8.49
4/26/2022 9:00:00 AM 12.5 54.5 0.103 6.79 4.45 8.45
4/26/2022 9:15:00 AM 12.46 54.428 0.103 6.78 5.86 8.41
4/26/2022 9:30:00 AM 12.42 54.356 0.103 6.78 5.98 8.37
4/26/2022 9:45:00 AM 12.38 54.284 0.103 6.77 5.78 8.32
4/26/2022 10:00:00 AM 12.35 54.23 0.103 6.77 4.35 8.27
4/26/2022 10:15:00 AM 12.31 54.158 0.103 6.76 5.99 8.24
4/26/2022 10:30:00 AM 12.28 54.104 0.103 6.76 6.03 8.2
4/26/2022 10:45:00 AM 12.26 54.068 0.103 6.76 4.28 8.17
4/26/2022 11:00:00 AM 12.23 54.014 0.103 6.75 5.88 8.13
4/26/2022 11:15:00 AM 12.21 53.978 0.104 6.74 4.33 8.08
4/26/2022 11:30:00 AM 12.2 53.96 0.103 6.74 5.75 8.04
4/26/2022 11:45:00 AM 12.18 53.924 0.104 6.74 4.32 8.01
4/26/2022 12:00:00 PM 12.17 53.906 0.104 6.73 5.85 7.97
4/26/2022 12:15:00 PM 12.16 53.888 0.104 6.73 5.72 7.93
4/26/2022 12:30:00 PM 12.14 53.852 0.104 6.72 4.12 7.9
4/26/2022 12:45:00 PM 12.14 53.852 0.104 6.72 6.11 7.85
4/26/2022 1:00:00 PM 12.14 53.852 0.104 6.72 5.9 7.81
4/26/2022 1:15:00 PM 12.15 53.87 0.104 6.72 3.95 7.79
4/26/2022 1:30:00 PM 12.16 53.888 0.104 6.72 5.45 7.87
4/26/2022 1:45:00 PM 12.17 53.906 0.104 6.77 4.25 8.63
4/26/2022 2:00:00 PM 12.19 53.942 0.104 6.8 5.86 8.95
4/26/2022 2:15:00 PM 12.2 53.96 0.104 6.83 5.78 9.15
4/26/2022 2:30:00 PM 12.21 53.978 0.104 6.84 5.89 9.24
4/26/2022 2:45:00 PM 12.22 53.996 0.103 6.85 5.71 9.33
4/26/2022 3:00:00 PM 12.22 53.996 0.103 6.85 5.98 9.38
4/26/2022 3:15:00 PM 12.22 53.996 0.103 6.86 4.24 9.37
4/26/2022 3:30:00 PM 12.23 54.014 0.104 6.86 4.18 9.34
4/26/2022 3:45:00 PM 12.24 54.032 0.103 6.84 5.56 9.25
4/26/2022 4:00:00 PM 12.24 54.032 0.103 6.83 5.56 9.22
4/26/2022 4:15:00 PM 12.25 54.05 0.103 6.84 5.62 9.29
4/26/2022 4:30:00 PM 12.26 54.068 0.103 6.87 5.62 9.48
4/26/2022 4:45:00 PM 12.27 54.086 0.103 6.87 4.18 9.53
4/26/2022 5:00:00 PM 12.27 54.086 0.104 6.87 4.14 9.47
4/26/2022 5:15:00 PM 12.27 54.086 0.104 6.86 5.65 9.4
4/26/2022 5:30:00 PM 12.27 54.086 0.104 6.87 4.01 9.32
4/26/2022 5:45:00 PM 12.27 54.086 0.104 6.84 4.06 9.23
4/26/2022 6:00:00 PM 12.26 54.068 0.103 6.83 5.76 9.16
4/26/2022 6:15:00 PM 12.25 54.05 0.103 6.82 3.94 9.11
4/26/2022 6:30:00 PM 12.24 54.032 0.103 6.82 5.63 9.03
4/26/2022 6:45:00 PM 12.23 54.014 0.103 6.81 3.86 8.96
4/26/2022 7:00:00 PM 12.22 53.996 0.103 6.8 5.53 8.89
4/26/2022 7:15:00 PM 12.21 53.978 0.103 6.79 5.34 8.83
4/26/2022 7:30:00 PM 12.2 53.96 0.104 6.79 3.87 8.79
4/26/2022 7:45:00 PM 12.18 53.924 0.104 6.78 5.41 8.73
4/26/2022 8:00:00 PM 12.16 53.888 0.103 6.78 5.48 8.68
4/26/2022 8:15:00 PM 12.14 53.852 0.103 6.77 5.29 8.63
4/26/2022 8:30:00 PM 12.11 53.798 0.104 6.77 3.82 8.6
4/26/2022 8:45:00 PM 12.08 53.744 0.104 6.77 5.48 8.56
4/26/2022 9:00:00 PM 12.05 53.69 0.103 6.76 5.14 8.54
4/26/2022 9:15:00 PM 12.02 53.636 0.104 6.76 3.75 8.51
4/26/2022 9:30:00 PM 11.99 53.582 0.103 6.76 5.65 8.49
4/26/2022 9:45:00 PM 11.95 53.51 0.104 6.76 5.42 8.46
4/26/2022 10:00:00 PM 11.92 53.456 0.104 6.76 5.45 8.44
4/26/2022 10:15:00 PM 11.88 53.384 0.104 6.75 3.69 8.42
4/26/2022 10:30:00 PM 11.84 53.312 0.104 6.76 3.65 8.4
4/26/2022 10:45:00 PM 11.8 53.24 0.104 6.75 5.2 8.38
4/26/2022 11:00:00 PM 11.76 53.168 0.104 6.75 5.16 8.35
4/26/2022 11:15:00 PM 11.72 53.096 0.104 6.75 5.16 8.33
4/26/2022 11:30:00 PM 11.68 53.024 0.104 6.74 5.2 8.3
4/26/2022 11:45:00 PM 11.64 52.952 0.104 6.76 3.64 8.28
4/27/2022 12:00:00 AM 11.59 52.862 0.104 6.74 3.73 8.25
4/27/2022 12:15:00 AM 11.53 52.754 0.104 6.74 3.62 8.23
4/27/2022 12:30:00 AM 11.47 52.646 0.104 6.74 5.13 8.24
4/27/2022 12:45:00 AM 11.42 52.556 0.104 6.75 3.65 8.24
4/27/2022 1:00:00 AM 11.35 52.43 0.104 6.74 5.17 8.31
4/27/2022 1:15:00 AM 11.26 52.268 0.104 6.77 3.75 8.41
4/27/2022 1:30:00 AM 11.19 52.142 0.104 6.78 3.73 8.56
4/27/2022 1:45:00 AM 11.12 52.016 0.104 6.74 3.77 8.65
4/27/2022 2:00:00 AM 11.06 51.908 0.104 6.75 3.9 8.71
4/27/2022 2:15:00 AM 10.99 51.782 0.104 6.74 3.98 8.76
4/27/2022 2:30:00 AM 10.93 51.674 0.104 6.75 5.47 8.81
4/27/2022 2:45:00 AM 10.86 51.548 0.104 6.75 4 8.83
4/27/2022 3:00:00 AM 10.8 51.44 0.103 6.75 5.44 8.86
4/27/2022 3:15:00 AM 10.73 51.314 0.103 6.74 3.9 8.87
4/27/2022 3:30:00 AM 10.66 51.188 0.103 6.75 5.53 8.89
4/27/2022 3:45:00 AM 10.6 51.08 0.103 6.74 5.38 8.88
4/27/2022 4:00:00 AM 10.53 50.954 0.103 6.74 3.9 8.87
4/27/2022 4:15:00 AM 10.46 50.828 0.103 6.75 4.02 8.86
4/27/2022 4:30:00 AM 10.38 50.684 0.103 6.73 3.85 8.85
4/27/2022 4:45:00 AM 10.32 50.576 0.103 6.72 4.01 8.85
4/27/2022 5:00:00 AM 10.25 50.45 0.103 6.72 3.96 8.84
4/27/2022 5:15:00 AM 10.19 50.342 0.103 6.74 4.09 8.83
4/27/2022 5:30:00 AM 10.17 50.306 0.103 6.72 4 8.81
4/27/2022 5:45:00 AM 10.11 50.198 0.103 6.71 5.66 8.8
4/27/2022 6:00:00 AM 10.05 50.09 0.103 6.73 4.09 8.78
4/27/2022 6:15:00 AM 9.98 49.964 0.103 6.71 4 8.77
4/27/2022 6:30:00 AM 9.93 49.874 0.103 6.72 3.96 8.74
4/27/2022 6:45:00 AM 9.88 49.784 0.103 6.7 3.94 8.71
4/27/2022 7:00:00 AM 9.83 49.694 0.103 6.7 4.02 8.68
4/27/2022 7:15:00 AM 9.77 49.586 0.103 6.7 4.02 8.66
4/27/2022 7:30:00 AM 9.73 49.514 0.103 6.71 3.97 8.64
4/27/2022 7:45:00 AM 9.69 49.442 0.103 6.7 3.88 8.61
4/27/2022 8:00:00 AM 9.65 49.37 0.103 6.7 5.22 8.59
4/27/2022 8:15:00 AM 9.61 49.298 0.103 6.72 3.97 8.58
4/27/2022 8:30:00 AM 9.57 49.226 0.103 6.7 3.87 8.56
4/27/2022 8:45:00 AM 9.53 49.154 0.104 6.7 3.91 8.52
4/27/2022 9:00:00 AM 9.5 49.1 0.104 6.7 3.89 8.5
4/27/2022 9:15:00 AM 9.47 49.046 0.104 6.72 3.91 8.5
4/27/2022 9:30:00 AM 9.44 48.992 0.104 6.7 3.95 8.49
4/27/2022 9:45:00 AM 9.42 48.956 0.104 6.71 3.84 8.48
4/27/2022 10:00:00 AM 9.41 48.938 0.104 6.72 3.96 8.46
4/27/2022 10:15:00 AM 9.41 48.938 0.104 6.72 3.79 8.45
4/27/2022 10:30:00 AM 9.42 48.956 0.104 6.72 3.86 8.44
4/27/2022 10:45:00 AM 9.45 49.01 0.104 6.73 3.93 8.53
4/27/2022 11:00:00 AM 9.5 49.1 0.104 6.82 4.08 9.41
4/27/2022 11:15:00 AM 9.55 49.19 0.104 6.86 4.47 10.03
4/27/2022 11:30:00 AM 9.6 49.28 0.103 6.9 4.55 10.24
4/27/2022 11:45:00 AM 9.69 49.442 0.103 6.93 4.45 10.62
4/27/2022 12:00:00 PM 9.75 49.55 0.103 6.96 4.51 10.73
4/27/2022 12:15:00 PM 9.79 49.622 0.103 6.98 5.89 10.79
4/27/2022 12:30:00 PM 9.83 49.694 0.103 6.99 4.42 10.87
4/27/2022 12:45:00 PM 9.86 49.748 0.103 6.99 4.39 10.88
4/27/2022 1:00:00 PM 9.92 49.856 0.102 7.02 5.91 10.95
4/27/2022 1:15:00 PM 9.97 49.946 0.102 7.04 4.62 11.05
4/27/2022 1:30:00 PM 10.02 50.036 0.102 7.04 4.35 11.1
4/27/2022 1:45:00 PM 10.06 50.108 0.102 7.05 4.23 11.08
4/27/2022 2:00:00 PM 10.13 50.234 0.102 7.06 4.38 11.13
4/27/2022 2:15:00 PM 10.17 50.306 0.102 7.07 4.51 11.13
4/27/2022 2:30:00 PM 10.21 50.378 0.102 7.06 4.42 11.14
4/27/2022 2:45:00 PM 10.29 50.522 0.102 7.06 4.27 11.08
4/27/2022 3:00:00 PM 10.37 50.666 0.102 7.12 4.22 11.17
4/27/2022 3:15:00 PM 10.4 50.72 0.102 7.1 4.41 11.11
4/27/2022 3:30:00 PM 10.41 50.738 0.102 7.09 4.11 11.01
4/27/2022 3:45:00 PM 10.42 50.756 0.102 7.08 4.21 10.97
4/27/2022 4:00:00 PM 10.43 50.774 0.102 7.06 4.37 10.95
4/27/2022 4:15:00 PM 10.44 50.792 0.102 7.06 4.13 10.95
4/27/2022 4:30:00 PM 10.45 50.81 0.102 7.06 4.12 10.9
4/27/2022 4:45:00 PM 10.45 50.81 0.102 7.04 4.11 10.8
4/27/2022 5:00:00 PM 10.45 50.81 0.102 7.03 3.86 10.69
4/27/2022 5:15:00 PM 10.45 50.81 0.102 7.02 4.04 10.65
4/27/2022 5:30:00 PM 10.43 50.774 0.102 7.01 5.3 10.58
4/27/2022 5:45:00 PM 10.42 50.756 0.102 7 3.94 10.53
4/27/2022 6:00:00 PM 10.4 50.72 0.102 6.99 4.05 10.46
4/27/2022 6:15:00 PM 10.38 50.684 0.102 6.98 3.96 10.38
4/27/2022 6:30:00 PM 10.35 50.63 0.102 6.97 3.75 10.33
4/27/2022 6:45:00 PM 10.31 50.558 0.102 6.95 3.83 10.29
4/27/2022 7:00:00 PM 10.26 50.468 0.102 6.95 3.72 10.25
4/27/2022 7:15:00 PM 10.21 50.378 0.102 6.95 3.79 10.2
4/27/2022 7:30:00 PM 10.16 50.288 0.102 6.94 3.85 10.15
4/27/2022 7:45:00 PM 10.1 50.18 0.102 6.93 3.74 10.11
4/27/2022 8:00:00 PM 10.04 50.072 0.102 6.92 3.87 10.08
4/27/2022 8:15:00 PM 9.97 49.946 0.102 6.92 3.66 10.03
4/27/2022 8:30:00 PM 9.9 49.82 0.102 6.91 3.76 9.98
4/27/2022 8:45:00 PM 9.84 49.712 0.102 6.91 3.76 9.94
4/27/2022 9:00:00 PM 9.77 49.586 0.102 6.9 3.64 9.89
4/27/2022 9:15:00 PM 9.7 49.46 0.102 6.92 3.78 9.86
4/27/2022 9:30:00 PM 9.63 49.334 0.102 6.89 3.68 9.83
4/27/2022 9:45:00 PM 9.56 49.208 0.102 6.88 3.71 9.81
4/27/2022 10:00:00 PM 9.49 49.082 0.102 6.89 3.75 9.76
4/27/2022 10:15:00 PM 9.42 48.956 0.102 6.85 3.74 9.73
4/27/2022 10:30:00 PM 9.36 48.848 0.102 6.84 3.6 9.69
4/27/2022 10:45:00 PM 9.29 48.722 0.102 6.86 3.56 9.64
4/27/2022 11:00:00 PM 9.22 48.596 0.102 6.83 3.68 9.59
4/27/2022 11:15:00 PM 9.15 48.47 0.102 6.82 3.65 9.56
4/27/2022 11:30:00 PM 9.09 48.362 0.102 6.82 3.57 9.53
4/27/2022 11:45:00 PM 9.04 48.272 0.102 6.8 3.67 9.5
4/28/2022 12:00:00 AM 8.97 48.146 0.102 6.79 3.63 9.47
4/28/2022 12:15:00 AM 8.91 48.038 0.102 6.78 3.52 9.45
4/28/2022 12:30:00 AM 8.84 47.912 0.102 6.77 3.59 9.41
4/28/2022 12:45:00 AM 8.78 47.804 0.102 6.77 3.53 9.37
4/28/2022 1:00:00 AM 8.72 47.696 0.102 6.78 3.52 9.34
4/28/2022 1:15:00 AM 8.67 47.606 0.102 6.76 3.48 9.3
4/28/2022 1:30:00 AM 8.61 47.498 0.102 6.76 3.52 9.27
4/28/2022 1:45:00 AM 8.55 47.39 0.102 6.77 3.48 9.23
4/28/2022 2:00:00 AM 8.5 47.3 0.102 6.75 3.55 9.21
4/28/2022 2:15:00 AM 8.45 47.21 0.102 6.74 3.5 9.16
4/28/2022 2:30:00 AM 8.39 47.102 0.102 6.74 3.48 9.16
4/28/2022 2:45:00 AM 8.34 47.012 0.102 6.73 3.44 9.14
4/28/2022 3:00:00 AM 8.29 46.922 0.102 6.73 3.57 9.11
4/28/2022 3:15:00 AM 8.25 46.85 0.102 6.73 3.48 9.09
4/28/2022 3:30:00 AM 8.2 46.76 0.102 6.74 3.57 9.06
4/28/2022 3:45:00 AM 8.15 46.67 0.102 6.73 3.44 9.03
4/28/2022 4:00:00 AM 8.1 46.58 0.102 6.72 3.44 9
4/28/2022 4:15:00 AM 8.05 46.49 0.102 6.72 3.48 8.97
4/28/2022 4:30:00 AM 8 46.4 0.102 6.72 3.43 8.95
4/28/2022 4:45:00 AM 7.95 46.31 0.102 6.72 3.44 8.92
4/28/2022 5:00:00 AM 7.9 46.22 0.102 6.73 3.47 8.91
4/28/2022 5:15:00 AM 7.86 46.148 0.102 6.72 3.46 8.89
4/28/2022 5:30:00 AM 7.81 46.058 0.102 6.72 3.41 8.87
4/28/2022 5:45:00 AM 7.77 45.986 0.102 6.71 3.39 8.85
4/28/2022 6:00:00 AM 7.72 45.896 0.102 6.71 3.52 8.83
4/28/2022 6:15:00 AM 7.68 45.824 0.102 6.71 3.43 8.81
4/28/2022 6:30:00 AM 7.63 45.734 0.102 6.71 3.42 8.8
4/28/2022 6:45:00 AM 7.58 45.644 0.102 6.73 3.4 8.78
4/28/2022 7:00:00 AM 7.54 45.572 0.102 6.71 3.4 8.76
4/28/2022 7:15:00 AM 7.51 45.518 0.102 6.71 3.4 8.72
4/28/2022 7:30:00 AM 7.47 45.446 0.102 6.71 3.48 8.71
4/28/2022 7:45:00 AM 7.43 45.374 0.102 6.7 3.48 8.68
4/28/2022 8:00:00 AM 7.39 45.302 0.102 6.71 3.42 8.67
4/28/2022 8:15:00 AM 7.36 45.248 0.102 6.71 3.42 8.65
4/28/2022 8:30:00 AM 7.33 45.194 0.102 6.71 3.42 8.64
4/28/2022 8:45:00 AM 7.3 45.14 0.102 6.71 3.33 8.62
4/28/2022 9:00:00 AM 7.28 45.104 0.103 6.73 3.44 8.6
4/28/2022 9:15:00 AM 7.27 45.086 0.103 6.71 3.38 8.59
4/28/2022 9:30:00 AM 7.26 45.068 0.103 6.71 3.4 8.58
4/28/2022 9:45:00 AM 7.27 45.086 0.103 6.72 3.37 8.56
4/28/2022 10:00:00 AM 7.28 45.104 0.103 6.73 3.41 8.56
4/28/2022 10:15:00 AM 7.32 45.176 0.103 6.73 3.36 8.57
4/28/2022 10:30:00 AM 7.4 45.32 0.103 6.78 3.57 9.38
4/28/2022 10:45:00 AM 7.51 45.518 0.103 6.85 3.95 10.14
4/28/2022 11:00:00 AM 7.62 45.716 0.103 6.9 4 10.62
4/28/2022 11:15:00 AM 7.76 45.968 0.103 6.95 4.06 10.88
4/28/2022 11:30:00 AM 7.89 46.202 0.103 6.97 4.01 11.12
4/28/2022 11:45:00 AM 8.05 46.49 0.103 6.98 4.01 11.37
4/28/2022 12:00:00 PM 8.23 46.814 0.103 7 3.89 11.43
4/28/2022 12:15:00 PM 8.42 47.156 0.103 7.02 4.11 11.53
4/28/2022 12:30:00 PM 8.61 47.498 0.103 7.04 4.06 11.57
4/28/2022 12:45:00 PM 8.84 47.912 0.103 7.06 4.17 11.59
4/28/2022 1:00:00 PM 9.05 48.29 0.103 7.07 4.12 11.62
4/28/2022 1:15:00 PM 9.27 48.686 0.103 7.07 4.06 11.64
4/28/2022 1:30:00 PM 9.52 49.136 0.103 7.1 3.92 11.68
4/28/2022 1:45:00 PM 9.77 49.586 0.103 7.1 4.23 11.67
4/28/2022 2:00:00 PM 9.98 49.964 0.103 7.11 3.99 11.6
4/28/2022 2:15:00 PM 10.2 50.36 0.103 7.11 3.89 11.68
4/28/2022 2:30:00 PM 10.44 50.792 0.103 7.13 3.87 11.64
4/28/2022 2:45:00 PM 10.69 51.242 0.103 7.15 4.09 11.65
4/28/2022 3:00:00 PM 10.9 51.62 0.104 7.15 5.42 11.58
4/28/2022 3:15:00 PM 11.12 52.016 0.103 7.19 4.04 11.65
4/28/2022 3:30:00 PM 11.31 52.358 0.104 7.21 3.98 11.64
4/28/2022 3:45:00 PM 11.56 52.808 0.104 7.21 5.31 11.62
4/28/2022 4:00:00 PM 11.67 53.006 0.104 7.21 5.24 11.59
4/28/2022 4:15:00 PM 11.83 53.294 0.104 7.22 5.28 11.58
4/28/2022 4:30:00 PM 11.97 53.546 0.104 7.23 5.19 11.56
4/28/2022 4:45:00 PM 12.06 53.708 0.104 7.23 3.75 11.51
4/28/2022 5:00:00 PM 12.16 53.888 0.104 7.23 5.22 11.46
4/28/2022 5:15:00 PM 12.23 54.014 0.104 7.24 5.09 11.44
4/28/2022 5:30:00 PM 12.28 54.104 0.104 7.24 5.04 11.39
4/28/2022 5:45:00 PM 12.31 54.158 0.104 7.24 5.24 11.37
4/28/2022 6:00:00 PM 12.32 54.176 0.103 7.22 5.11 11.31
4/28/2022 6:15:00 PM 12.32 54.176 0.103 7.2 3.83 11.26
4/28/2022 6:30:00 PM 12.31 54.158 0.103 7.19 4.89 11.21
4/28/2022 6:45:00 PM 12.29 54.122 0.103 7.18 5.01 11.15
4/28/2022 7:00:00 PM 12.27 54.086 0.103 7.15 3.65 11.09
4/28/2022 7:15:00 PM 12.24 54.032 0.103 7.14 3.61 11.03
4/28/2022 7:30:00 PM 12.2 53.96 0.103 7.12 3.66 10.96
4/28/2022 7:45:00 PM 12.15 53.87 0.104 7.12 4.83 10.88
4/28/2022 8:00:00 PM 12.09 53.762 0.103 7.1 4.93 10.82
4/28/2022 8:15:00 PM 12.02 53.636 0.103 7.08 3.52 10.77
4/28/2022 8:30:00 PM 11.95 53.51 0.104 7.07 4.86 10.7
4/28/2022 8:45:00 PM 11.87 53.366 0.103 7.09 3.4 10.66
4/28/2022 9:00:00 PM 11.78 53.204 0.104 7.05 3.47 10.6
4/28/2022 9:15:00 PM 11.69 53.042 0.104 7.04 4.79 10.55
4/28/2022 9:30:00 PM 11.6 52.88 0.104 7.02 3.44 10.48
4/28/2022 9:45:00 PM 11.49 52.682 0.104 7.02 4.6 10.41
4/28/2022 10:00:00 PM 11.38 52.484 0.104 7.01 3.42 10.37
4/28/2022 10:15:00 PM 11.28 52.304 0.104 7 3.37 10.33
4/28/2022 10:30:00 PM 11.18 52.124 0.104 6.99 3.4 10.3
4/28/2022 10:45:00 PM 11.06 51.908 0.104 6.99 4.69 10.24
4/28/2022 11:00:00 PM 10.95 51.71 0.104 6.97 3.43 10.18
4/28/2022 11:15:00 PM 10.85 51.53 0.104 6.98 3.38 10.14
4/28/2022 11:30:00 PM 10.74 51.332 0.104 6.97 3.42 10.12
4/28/2022 11:45:00 PM 10.62 51.116 0.104 6.95 3.39 10.09
4/29/2022 12:00:00 AM 10.5 50.9 0.104 6.94 3.34 10.04
4/29/2022 12:15:00 AM 10.38 50.684 0.104 6.94 3.3 9.98
4/29/2022 12:30:00 AM 10.27 50.486 0.104 6.93 3.3 9.95
4/29/2022 12:45:00 AM 10.15 50.27 0.104 6.93 3.23 9.92
4/29/2022 1:00:00 AM 10.03 50.054 0.104 6.92 3.34 9.89
4/29/2022 1:15:00 AM 9.92 49.856 0.104 6.91 3.35 9.85
4/29/2022 1:30:00 AM 9.8 49.64 0.104 6.91 3.3 9.81
4/29/2022 1:45:00 AM 9.68 49.424 0.104 6.94 3.33 9.78
4/29/2022 2:00:00 AM 9.57 49.226 0.104 6.92 3.32 9.75
4/29/2022 2:15:00 AM 9.46 49.028 0.104 6.91 3.31 9.73
4/29/2022 2:30:00 AM 9.34 48.812 0.104 6.89 3.21 9.69
4/29/2022 2:45:00 AM 9.25 48.65 0.104 6.88 3.28 9.65
4/29/2022 3:00:00 AM 9.14 48.452 0.104 6.88 3.29 9.62
4/29/2022 3:15:00 AM 9.03 48.254 0.104 6.88 3.3 9.59
4/29/2022 3:30:00 AM 8.93 48.074 0.104 6.87 3.26 9.57
4/29/2022 3:45:00 AM 8.84 47.912 0.104 6.87 3.26 9.55
4/29/2022 4:00:00 AM 8.74 47.732 0.104 6.86 3.27 9.52
4/29/2022 4:15:00 AM 8.65 47.57 0.104 6.85 3.31 9.48
4/29/2022 4:30:00 AM 8.56 47.408 0.104 6.84 3.27 9.45
4/29/2022 4:45:00 AM 8.45 47.21 0.104 6.85 3.25 9.43
4/29/2022 5:00:00 AM 8.36 47.048 0.104 6.82 3.27 9.4
4/29/2022 5:15:00 AM 8.26 46.868 0.104 6.82 3.31 9.38
4/29/2022 5:30:00 AM 8.18 46.724 0.104 6.79 3.25 9.35
4/29/2022 5:45:00 AM 8.09 46.562 0.104 6.78 3.28 9.33
4/29/2022 6:00:00 AM 8 46.4 0.104 6.77 3.27 9.29
4/29/2022 6:15:00 AM 7.9 46.22 0.104 6.78 3.23 9.27
4/29/2022 6:30:00 AM 7.81 46.058 0.104 6.76 3.27 9.24
4/29/2022 6:45:00 AM 7.72 45.896 0.104 6.75 3.27 9.23
4/29/2022 7:00:00 AM 7.63 45.734 0.104 6.75 3.22 9.2
4/29/2022 7:15:00 AM 7.55 45.59 0.104 6.74 3.2 9.17
4/29/2022 7:30:00 AM 7.47 45.446 0.104 6.74 3.34 9.15
4/29/2022 7:45:00 AM 7.39 45.302 0.104 6.73 3.28 9.11
4/29/2022 8:00:00 AM 7.32 45.176 0.104 6.73 3.2 9.1
4/29/2022 8:15:00 AM 7.26 45.068 0.104 6.72 3.28 9.06
4/29/2022 8:30:00 AM 7.19 44.942 0.104 6.72 3.27 9.06
4/29/2022 8:45:00 AM 7.15 44.87 0.104 6.72 3.21 9.03
4/29/2022 9:00:00 AM 7.12 44.816 0.104 6.75 3.21 9.01
4/29/2022 9:15:00 AM 7.09 44.762 0.104 6.73 3.19 8.98
4/29/2022 9:30:00 AM 7.07 44.726 0.104 6.73 3.2 8.97
4/29/2022 9:45:00 AM 7.06 44.708 0.104 6.74 3.26 8.95
4/29/2022 10:00:00 AM 7.07 44.726 0.104 6.75 3.18 8.93
4/29/2022 10:15:00 AM 7.11 44.798 0.104 6.76 3.23 9.02
4/29/2022 10:30:00 AM 7.18 44.924 0.104 6.85 3.74 9.81
4/29/2022 10:45:00 AM 7.29 45.122 0.104 6.87 3.93 10.6
4/29/2022 11:00:00 AM 7.42 45.356 0.103 6.91 3.86 10.88
4/29/2022 11:15:00 AM 7.56 45.608 0.103 6.94 4.15 11.18
4/29/2022 11:30:00 AM 7.71 45.878 0.103 6.97 4.16 11.34
4/29/2022 11:45:00 AM 7.91 46.238 0.103 7.03 4.32 11.57
4/29/2022 12:00:00 PM 8.08 46.544 0.103 7.02 4.18 11.58
4/29/2022 12:15:00 PM 8.29 46.922 0.103 7.02 4.06 11.62
4/29/2022 12:30:00 PM 8.5 47.3 0.103 7.07 4.08 11.65
4/29/2022 12:45:00 PM 8.73 47.714 0.102 7.06 4.07 11.72
4/29/2022 1:00:00 PM 8.97 48.146 0.102 7.08 3.98 11.81
4/29/2022 1:15:00 PM 9.21 48.578 0.102 7.08 4.03 11.75
4/29/2022 1:30:00 PM 9.46 49.028 0.102 7.09 3.89 11.78
4/29/2022 1:45:00 PM 9.73 49.514 0.103 7.1 3.78 11.79
4/29/2022 2:00:00 PM 9.98 49.964 0.103 7.11 3.97 11.77
4/29/2022 2:15:00 PM 10.19 50.342 0.103 7.12 3.89 11.79
4/29/2022 2:30:00 PM 10.47 50.846 0.103 7.17 3.93 11.78
4/29/2022 2:45:00 PM 10.74 51.332 0.103 7.14 5.04 11.76
4/29/2022 3:00:00 PM 11.01 51.818 0.103 7.22 3.9 11.84
4/29/2022 3:15:00 PM 11.22 52.196 0.103 7.21 4 11.88
4/29/2022 3:30:00 PM 11.45 52.61 0.103 7.22 4.22 11.82
4/29/2022 3:45:00 PM 11.68 53.024 0.103 7.26 3.86 11.81
4/29/2022 4:00:00 PM 11.89 53.402 0.103 7.25 4.68 11.8
4/29/2022 4:15:00 PM 12.02 53.636 0.103 7.26 5.32 11.73
4/29/2022 4:30:00 PM 12.2 53.96 0.103 7.27 5.14 11.72
4/29/2022 4:45:00 PM 12.33 54.194 0.103 7.28 5.21 11.7
4/29/2022 5:00:00 PM 12.43 54.374 0.103 7.29 5.32 11.65
4/29/2022 5:15:00 PM 12.51 54.518 0.103 7.27 3.88 11.6
4/29/2022 5:30:00 PM 12.59 54.662 0.103 7.3 5.09 11.54
4/29/2022 5:45:00 PM 12.64 54.752 0.103 7.28 5.31 11.47
4/29/2022 6:00:00 PM 12.67 54.806 0.103 7.29 4.95 11.42
4/29/2022 6:15:00 PM 12.68 54.824 0.103 7.26 4.25 11.36
4/29/2022 6:30:00 PM 12.68 54.824 0.103 7.25 4.95 11.3
4/29/2022 6:45:00 PM 12.67 54.806 0.103 7.23 3.54 11.26
4/29/2022 7:00:00 PM 12.66 54.788 0.103 7.25 3.54 11.2
4/29/2022 7:15:00 PM 12.64 54.752 0.103 7.21 3.56 11.15
4/29/2022 7:30:00 PM 12.62 54.716 0.103 7.21 3.48 11.09
4/29/2022 7:45:00 PM 12.58 54.644 0.104 7.17 5.05 11.04
4/29/2022 8:00:00 PM 12.54 54.572 0.103 7.14 3.5 11
4/29/2022 8:15:00 PM 12.48 54.464 0.104 7.14 3.39 10.96
4/29/2022 8:30:00 PM 12.42 54.356 0.104 7.13 3.57 10.9
4/29/2022 8:45:00 PM 12.35 54.23 0.104 7.11 4.69 10.82
4/29/2022 9:00:00 PM 12.28 54.104 0.104 7.08 3.38 10.75
4/29/2022 9:15:00 PM 12.19 53.942 0.104 7.09 4.66 10.69
4/29/2022 9:30:00 PM 12.11 53.798 0.104 7.06 3.47 10.63
4/29/2022 9:45:00 PM 12.01 53.618 0.104 7.07 4.79 10.56
4/29/2022 10:00:00 PM 11.93 53.474 0.104 7.06 4.84 10.52
4/29/2022 10:15:00 PM 11.83 53.294 0.104 7.04 4.64 10.48
4/29/2022 10:30:00 PM 11.72 53.096 0.104 7.04 4.53 10.44
4/29/2022 10:45:00 PM 11.61 52.898 0.104 7.01 3.44 10.39
4/29/2022 11:00:00 PM 11.51 52.718 0.104 7.02 4.98 10.33
4/29/2022 11:15:00 PM 11.4 52.52 0.104 7.01 4.74 10.28
4/29/2022 11:30:00 PM 11.28 52.304 0.104 6.99 3.27 10.25
4/29/2022 11:45:00 PM 11.18 52.124 0.104 7 4.71 10.21
4/30/2022 12:00:00 AM 11.05 51.89 0.104 7.02 3.25 10.18
4/30/2022 12:15:00 AM 10.94 51.692 0.104 6.98 4.88 10.12
4/30/2022 12:30:00 AM 10.83 51.494 0.104 6.98 4.72 10.08
4/30/2022 12:45:00 AM 10.7 51.26 0.104 6.96 3.36 10.06
4/30/2022 1:00:00 AM 10.59 51.062 0.104 6.96 3.23 10.03
4/30/2022 1:15:00 AM 10.47 50.846 0.104 6.96 3.29 9.99
4/30/2022 1:30:00 AM 10.34 50.612 0.104 6.95 3.35 9.94
4/30/2022 1:45:00 AM 10.23 50.414 0.104 6.94 3.26 9.9
4/30/2022 2:00:00 AM 10.1 50.18 0.104 6.96 3.26 9.88
4/30/2022 2:15:00 AM 10 50 0.104 6.95 3.33 9.84
4/30/2022 2:30:00 AM 9.88 49.784 0.104 6.92 3.26 9.8
4/30/2022 2:45:00 AM 9.75 49.55 0.104 6.94 3.28 9.77
4/30/2022 3:00:00 AM 9.65 49.37 0.104 6.93 3.23 9.74
4/30/2022 3:15:00 AM 9.53 49.154 0.104 6.9 3.23 9.71
4/30/2022 3:30:00 AM 9.43 48.974 0.104 6.89 3.23 9.69
4/30/2022 3:45:00 AM 9.31 48.758 0.104 6.92 3.26 9.68
4/30/2022 4:00:00 AM 9.21 48.578 0.104 6.91 3.32 9.64
4/30/2022 4:15:00 AM 9.11 48.398 0.104 6.89 3.25 9.6
4/30/2022 4:30:00 AM 9.02 48.236 0.104 6.86 3.25 9.58
4/30/2022 4:45:00 AM 8.91 48.038 0.104 6.86 3.24 9.58
4/30/2022 5:00:00 AM 8.82 47.876 0.104 6.87 3.23 9.55
4/30/2022 5:15:00 AM 8.72 47.696 0.104 6.85 3.36 9.53
4/30/2022 5:30:00 AM 8.63 47.534 0.104 6.83 3.24 9.5
4/30/2022 5:45:00 AM 8.54 47.372 0.104 6.83 3.28 9.48
4/30/2022 6:00:00 AM 8.45 47.21 0.104 6.8 3.28 9.45
4/30/2022 6:15:00 AM 8.36 47.048 0.104 6.83 3.27 9.44
4/30/2022 6:30:00 AM 8.27 46.886 0.104 6.8 3.25 9.43
4/30/2022 6:45:00 AM 8.18 46.724 0.104 6.79 3.23 9.41
4/30/2022 7:00:00 AM 8.09 46.562 0.104 6.78 3.25 9.4
4/30/2022 7:15:00 AM 8 46.4 0.104 6.78 3.24 9.36
4/30/2022 7:30:00 AM 7.93 46.274 0.104 6.78 3.3 9.34
4/30/2022 7:45:00 AM 7.85 46.13 0.104 6.77 3.21 9.32
4/30/2022 8:00:00 AM 7.78 46.004 0.104 6.76 3.25 9.3
4/30/2022 8:15:00 AM 7.71 45.878 0.104 6.76 3.2 9.29
4/30/2022 8:30:00 AM 7.66 45.788 0.104 6.77 3.26 9.26
4/30/2022 8:45:00 AM 7.61 45.698 0.104 6.79 3.23 9.23
4/30/2022 9:00:00 AM 7.58 45.644 0.104 6.78 3.19 9.22
4/30/2022 9:15:00 AM 7.55 45.59 0.104 6.76 3.3 9.19
4/30/2022 9:30:00 AM 7.54 45.572 0.104 6.78 3.18 9.16
4/30/2022 9:45:00 AM 7.54 45.572 0.104 6.76 3.22 9.14
4/30/2022 10:00:00 AM 7.56 45.608 0.104 6.77 3.31 9.13
4/30/2022 10:15:00 AM 7.61 45.698 0.104 6.79 3.21 9.12
4/30/2022 10:30:00 AM 7.74 45.932 0.104 6.83 3.49 10.01
4/30/2022 10:45:00 AM 7.86 46.148 0.104 6.89 3.62 10.58
4/30/2022 11:00:00 AM 8 46.4 0.105 6.93 3.81 10.94
4/30/2022 11:15:00 AM 8.15 46.67 0.105 6.96 3.7 11.21
4/30/2022 11:30:00 AM 8.32 46.976 0.105 6.98 3.77 11.34
4/30/2022 11:45:00 AM 8.48 47.264 0.105 7 3.9 11.46
4/30/2022 12:00:00 PM 8.71 47.678 0.105 7.01 3.73 11.57
4/30/2022 12:15:00 PM 8.89 48.002 0.106 7.03 3.79 11.58
4/30/2022 12:30:00 PM 9.05 48.29 0.106 7.04 3.74 11.44
4/30/2022 12:45:00 PM 9.33 48.794 0.106 7.06 3.71 11.54
4/30/2022 1:00:00 PM 9.57 49.226 0.106 7.1 3.74 11.63
4/30/2022 1:15:00 PM 9.77 49.586 0.106 7.09 3.6 11.56
4/30/2022 1:30:00 PM 9.99 49.982 0.106 7.1 3.74 11.57
4/30/2022 1:45:00 PM 10.28 50.504 0.107 7.11 3.59 11.69
4/30/2022 2:00:00 PM 10.57 51.026 0.107 7.15 3.62 11.78
4/30/2022 2:15:00 PM 10.9 51.62 0.107 7.18 3.68 11.9
4/30/2022 2:30:00 PM 11.12 52.016 0.108 7.22 5.25 11.92
4/30/2022 2:45:00 PM 11.42 52.556 0.107 7.26 3.9 12.03
4/30/2022 3:00:00 PM 11.69 53.042 0.108 7.26 5.34 11.97
4/30/2022 3:15:00 PM 11.89 53.402 0.108 7.28 3.79 11.96
4/30/2022 3:30:00 PM 12.19 53.942 0.108 7.31 5.1 11.94
4/30/2022 3:45:00 PM 12.43 54.374 0.108 7.31 5.27 11.93
4/30/2022 4:00:00 PM 12.59 54.662 0.109 7.32 3.63 11.89
4/30/2022 4:15:00 PM 12.82 55.076 0.109 7.38 3.62 11.84
4/30/2022 4:30:00 PM 13.02 55.436 0.109 7.36 5.14 11.8
4/30/2022 4:45:00 PM 13.16 55.688 0.109 7.35 3.59 11.74
4/30/2022 5:00:00 PM 13.3 55.94 0.109 7.34 3.62 11.68
4/30/2022 5:15:00 PM 13.4 56.12 0.109 7.35 3.57 11.64
4/30/2022 5:30:00 PM 13.47 56.246 0.11 7.38 3.67 11.59
4/30/2022 5:45:00 PM 13.57 56.426 0.11 7.37 5.05 11.51
4/30/2022 6:00:00 PM 13.62 56.516 0.11 7.38 5.06 11.45
4/30/2022 6:15:00 PM 13.64 56.552 0.11 7.36 3.68 11.38
4/30/2022 6:30:00 PM 13.66 56.588 0.11 7.35 3.57 11.31
4/30/2022 6:45:00 PM 13.68 56.624 0.11 7.34 4.74 11.26
4/30/2022 7:00:00 PM 13.68 56.624 0.11 7.33 4.94 11.2
4/30/2022 7:15:00 PM 13.67 56.606 0.11 7.3 4.9 11.14
4/30/2022 7:30:00 PM 13.66 56.588 0.11 7.28 3.48 11.1
4/30/2022 7:45:00 PM 13.64 56.552 0.11 7.29 3.39 11.03
4/30/2022 8:00:00 PM 13.61 56.498 0.11 7.23 3.43 10.98
4/30/2022 8:15:00 PM 13.58 56.444 0.11 7.23 3.27 10.92
4/30/2022 8:30:00 PM 13.53 56.354 0.11 7.23 3.4 10.9
4/30/2022 8:45:00 PM 13.47 56.246 0.11 7.22 3.41 10.85
4/30/2022 9:00:00 PM 13.41 56.138 0.11 7.17 4.72 10.73
4/30/2022 9:15:00 PM 13.33 55.994 0.11 7.15 4.72 10.63
4/30/2022 9:30:00 PM 13.25 55.85 0.11 7.13 4.85 10.56
4/30/2022 9:45:00 PM 13.17 55.706 0.11 7.12 4.59 10.51
4/30/2022 10:00:00 PM 13.08 55.544 0.11 7.11 4.77 10.46
4/30/2022 10:15:00 PM 12.97 55.346 0.11 7.09 3.39 10.41
4/30/2022 10:30:00 PM 12.88 55.184 0.11 7.13 3.24 10.37
4/30/2022 10:45:00 PM 12.77 54.986 0.11 7.11 3.33 10.32
4/30/2022 11:00:00 PM 12.66 54.788 0.11 7.07 4.58 10.26
4/30/2022 11:15:00 PM 12.56 54.608 0.11 7.06 4.55 10.23
4/30/2022 11:30:00 PM 12.46 54.428 0.11 7.05 4.63 10.17
4/30/2022 11:45:00 PM 12.34 54.212 0.11 7.04 4.54 10.14
5/1/2022 12:00:00 AM 12.23 54.014 0.11 7.04 4.64 10.11
5/1/2022 12:15:00 AM 12.12 53.816 0.11 7.02 4.62 10.04
5/1/2022 12:30:00 AM 11.98 53.564 0.11 7.01 3.18 10
5/1/2022 12:45:00 AM 11.88 53.384 0.11 7.02 4.56 9.96
5/1/2022 1:00:00 AM 11.76 53.168 0.11 7.01 4.78 9.93
5/1/2022 1:15:00 AM 11.64 52.952 0.11 6.99 3.21 9.9
5/1/2022 1:30:00 AM 11.52 52.736 0.11 6.99 4.82 9.83
5/1/2022 1:45:00 AM 11.4 52.52 0.11 6.99 4.57 9.79
5/1/2022 2:00:00 AM 11.28 52.304 0.11 6.97 3.15 9.77
5/1/2022 2:15:00 AM 11.16 52.088 0.11 6.98 4.68 9.73
5/1/2022 2:30:00 AM 11.05 51.89 0.11 6.96 3.2 9.7
5/1/2022 2:45:00 AM 10.92 51.656 0.11 6.96 3.17 9.65
5/1/2022 3:00:00 AM 10.8 51.44 0.11 7 3.1 9.62
5/1/2022 3:15:00 AM 10.69 51.242 0.11 6.98 3.16 9.58
5/1/2022 3:30:00 AM 10.57 51.026 0.11 6.94 3.22 9.57
5/1/2022 3:45:00 AM 10.46 50.828 0.11 6.93 3.14 9.54
5/1/2022 4:00:00 AM 10.35 50.63 0.11 6.95 3.25 9.5
5/1/2022 4:15:00 AM 10.23 50.414 0.11 6.93 3.12 9.45
5/1/2022 4:30:00 AM 10.12 50.216 0.11 6.92 3.13 9.43
5/1/2022 4:45:00 AM 10.01 50.018 0.11 6.96 3.12 9.41
5/1/2022 5:00:00 AM 9.91 49.838 0.11 6.92 3.15 9.4
5/1/2022 5:15:00 AM 9.81 49.658 0.11 6.92 4.7 9.38
5/1/2022 5:30:00 AM 9.7 49.46 0.11 6.94 3.13 9.35
5/1/2022 5:45:00 AM 9.6 49.28 0.11 6.91 3.26 9.31
5/1/2022 6:00:00 AM 9.51 49.118 0.11 6.89 3.12 9.29
5/1/2022 6:15:00 AM 9.41 48.938 0.11 6.91 3.12 9.26
5/1/2022 6:30:00 AM 9.31 48.758 0.11 6.9 3.2 9.23
5/1/2022 6:45:00 AM 9.21 48.578 0.11 6.88 3.27 9.24
5/1/2022 7:00:00 AM 9.14 48.452 0.11 6.92 3.17 9.19
5/1/2022 7:15:00 AM 9.06 48.308 0.11 6.88 3.15 9.17
5/1/2022 7:30:00 AM 8.99 48.182 0.11 6.84 3.18 9.15
5/1/2022 7:45:00 AM 8.92 48.056 0.11 6.86 3.22 9.14
5/1/2022 8:00:00 AM 8.85 47.93 0.11 6.84 3.11 9.1
5/1/2022 8:15:00 AM 8.79 47.822 0.11 6.87 3.18 9.11
5/1/2022 8:30:00 AM 8.74 47.732 0.11 6.82 3.14 9.09
5/1/2022 8:45:00 AM 8.71 47.678 0.11 6.82 3.12 9.07
5/1/2022 9:00:00 AM 8.68 47.624 0.111 6.82 3.16 9.05
5/1/2022 9:15:00 AM 8.67 47.606 0.111 6.82 3.15 9.03
5/1/2022 9:30:00 AM 8.66 47.588 0.111 6.82 3.22 9
5/1/2022 9:45:00 AM 8.67 47.606 0.111 6.83 3.11 8.98
5/1/2022 10:00:00 AM 8.7 47.66 0.111 6.83 3.22 9
5/1/2022 10:15:00 AM 8.76 47.768 0.111 6.89 3.93 9.78
5/1/2022 10:30:00 AM 8.87 47.966 0.111 6.92 3.66 10.45
5/1/2022 10:45:00 AM 9 48.2 0.111 6.97 3.77 10.73
5/1/2022 11:00:00 AM 9.12 48.416 0.111 7.01 3.97 10.84
5/1/2022 11:15:00 AM 9.27 48.686 0.111 7 3.91 10.97
5/1/2022 11:30:00 AM 9.44 48.992 0.111 7.01 3.78 11.05
5/1/2022 11:45:00 AM 9.6 49.28 0.111 7.02 3.69 10.87
5/1/2022 12:00:00 PM 9.79 49.622 0.111 7.03 3.63 11.04
5/1/2022 12:15:00 PM 9.96 49.928 0.111 7.08 3.61 11.14
5/1/2022 12:30:00 PM 10.17 50.306 0.111 7.09 3.7 11.26
5/1/2022 12:45:00 PM 10.39 50.702 0.112 7.13 3.86 11.35
5/1/2022 1:00:00 PM 10.61 51.098 0.112 7.15 3.81 11.42
5/1/2022 1:15:00 PM 10.82 51.476 0.112 7.16 3.83 11.58
5/1/2022 1:30:00 PM 11.1 51.98 0.112 7.2 3.78 11.74
5/1/2022 1:45:00 PM 11.37 52.466 0.112 7.27 3.68 11.88
5/1/2022 2:00:00 PM 11.66 52.988 0.112 7.27 5.25 11.86
5/1/2022 2:15:00 PM 11.9 53.42 0.113 7.32 3.83 11.93
5/1/2022 2:30:00 PM 12.11 53.798 0.113 7.31 5.64 11.9
5/1/2022 2:45:00 PM 12.28 54.104 0.113 7.32 3.88 11.93
5/1/2022 3:00:00 PM 12.52 54.536 0.113 7.37 5.23 11.93
5/1/2022 3:15:00 PM 12.65 54.77 0.113 7.37 4.96 11.88
5/1/2022 3:30:00 PM 12.8 55.04 0.113 7.39 5.24 11.87
5/1/2022 3:45:00 PM 12.97 55.346 0.113 7.4 5.06 11.86
5/1/2022 4:00:00 PM 13.11 55.598 0.113 7.41 5.32 11.82
5/1/2022 4:15:00 PM 13.29 55.922 0.113 7.42 5.4 11.78
5/1/2022 4:30:00 PM 13.4 56.12 0.113 7.42 4.96 11.75
5/1/2022 4:45:00 PM 13.52 56.336 0.113 7.46 4.14 11.71
5/1/2022 5:00:00 PM 13.63 56.534 0.113 7.46 4.99 11.67
5/1/2022 5:15:00 PM 13.72 56.696 0.113 7.46 5.07 11.62
5/1/2022 5:30:00 PM 13.81 56.858 0.113 7.47 4.87 11.55
5/1/2022 5:45:00 PM 13.87 56.966 0.114 7.45 3.5 11.5
5/1/2022 6:00:00 PM 13.92 57.056 0.114 7.47 3.58 11.47
5/1/2022 6:15:00 PM 13.96 57.128 0.114 7.43 3.49 11.38
5/1/2022 6:30:00 PM 13.98 57.164 0.114 7.44 3.49 11.33
5/1/2022 6:45:00 PM 14 57.2 0.114 7.42 3.49 11.28
5/1/2022 7:00:00 PM 14 57.2 0.114 7.39 3.5 11.22
5/1/2022 7:15:00 PM 14 57.2 0.114 7.38 3.42 11.17
5/1/2022 7:30:00 PM 14 57.2 0.114 7.35 3.43 11.12
5/1/2022 7:45:00 PM 13.99 57.182 0.114 7.34 3.35 11.05
5/1/2022 8:00:00 PM 13.97 57.146 0.114 7.32 4.77 10.98
5/1/2022 8:15:00 PM 13.96 57.128 0.114 7.29 3.36 10.92
5/1/2022 8:30:00 PM 13.94 57.092 0.114 7.27 3.32 10.88
5/1/2022 8:45:00 PM 13.91 57.038 0.114 7.28 4.52 10.8
5/1/2022 9:00:00 PM 13.88 56.984 0.114 7.26 4.73 10.75
5/1/2022 9:15:00 PM 13.86 56.948 0.114 7.23 3.24 10.72
5/1/2022 9:30:00 PM 13.82 56.876 0.114 7.29 3.26 10.65
5/1/2022 9:45:00 PM 13.78 56.804 0.114 7.21 4.7 10.56
5/1/2022 10:00:00 PM 13.75 56.75 0.114 7.21 4.64 10.49
5/1/2022 10:15:00 PM 13.71 56.678 0.114 7.19 4.57 10.43
5/1/2022 10:30:00 PM 13.67 56.606 0.114 7.18 4.69 10.36
5/1/2022 10:45:00 PM 13.63 56.534 0.114 7.14 3.14 10.3
5/1/2022 11:00:00 PM 13.58 56.444 0.115 7.12 3.18 10.23
5/1/2022 11:15:00 PM 13.54 56.372 0.115 7.12 3.21 10.18
5/1/2022 11:30:00 PM 13.49 56.282 0.115 7.12 3.16 10.14
5/1/2022 11:45:00 PM 13.44 56.192 0.115 7.14 3.13 10.07
5/2/2022 12:00:00 AM 13.39 56.102 0.115 7.13 3.11 10
5/2/2022 12:15:00 AM 13.34 56.012 0.115 7.07 3.09 9.93
5/2/2022 12:30:00 AM 13.29 55.922 0.115 7.05 3.07 9.89
5/2/2022 12:45:00 AM 13.24 55.832 0.115 7.04 3.1 9.85
5/2/2022 1:00:00 AM 13.19 55.742 0.115 7.06 4.5 9.77
5/2/2022 1:15:00 AM 13.13 55.634 0.115 7.08 3.24 9.73
5/2/2022 1:30:00 AM 13.09 55.562 0.115 7.04 4.43 9.68
5/2/2022 1:45:00 AM 13.04 55.472 0.115 7.02 4.65 9.64
5/2/2022 2:00:00 AM 12.99 55.382 0.115 6.99 3.03 9.59
5/2/2022 2:15:00 AM 12.94 55.292 0.115 7.01 3.12 9.54
5/2/2022 2:30:00 AM 12.89 55.202 0.116 7.05 3.37 9.51
5/2/2022 2:45:00 AM 12.85 55.13 0.116 7.03 3.02 9.44
5/2/2022 3:00:00 AM 12.81 55.058 0.116 7 4.43 9.4
5/2/2022 3:15:00 AM 12.77 54.986 0.116 6.97 4.47 9.35
5/2/2022 3:30:00 AM 12.73 54.914 0.116 6.98 4.4 9.3
5/2/2022 3:45:00 AM 12.69 54.842 0.116 6.97 4.54 9.26
5/2/2022 4:00:00 AM 12.65 54.77 0.116 6.97 4.54 9.23
5/2/2022 4:15:00 AM 12.61 54.698 0.116 6.97 2.96 9.2
5/2/2022 4:30:00 AM 12.58 54.644 0.116 6.96 4.38 9.16
5/2/2022 4:45:00 AM 12.54 54.572 0.116 6.93 2.91 9.14
5/2/2022 5:00:00 AM 12.51 54.518 0.116 6.96 2.96 9.1
5/2/2022 5:15:00 AM 12.47 54.446 0.116 6.95 3.02 9.06
5/2/2022 5:30:00 AM 12.44 54.392 0.116 6.93 4.34 9.01
5/2/2022 5:45:00 AM 12.42 54.356 0.116 6.93 4.47 8.97
5/2/2022 6:00:00 AM 12.39 54.302 0.116 6.93 4.28 8.93
5/2/2022 6:15:00 AM 12.36 54.248 0.116 6.92 4.36 8.89
5/2/2022 6:30:00 AM 12.33 54.194 0.116 6.92 4.36 8.85
5/2/2022 6:45:00 AM 12.31 54.158 0.116 6.91 4.24 8.81
5/2/2022 7:00:00 AM 12.28 54.104 0.116 6.89 2.92 8.78
5/2/2022 7:15:00 AM 12.25 54.05 0.116 6.9 4.3 8.73
5/2/2022 7:30:00 AM 12.23 54.014 0.116 6.94 2.9 8.71
5/2/2022 7:45:00 AM 12.21 53.978 0.116 6.89 4.38 8.65
5/2/2022 8:00:00 AM 12.19 53.942 0.116 6.89 4.38 8.61
5/2/2022 8:15:00 AM 12.18 53.924 0.116 6.88 3.14 8.58
5/2/2022 8:30:00 AM 12.16 53.888 0.116 6.87 2.96 8.55
5/2/2022 8:45:00 AM 12.15 53.87 0.116 6.88 4.33 8.5
5/2/2022 9:00:00 AM 12.15 53.87 0.116 6.88 4.39 8.46
5/2/2022 9:15:00 AM 12.14 53.852 0.116 6.87 4.32 8.42
5/2/2022 9:30:00 AM 12.15 53.87 0.116 6.85 2.93 8.44
5/2/2022 9:45:00 AM 12.16 53.888 0.116 6.92 2.91 8.48
5/2/2022 10:00:00 AM 12.18 53.924 0.117 6.87 4.5 8.51
5/2/2022 10:15:00 AM 12.2 53.96 0.117 6.88 3.1 8.78
5/2/2022 10:30:00 AM 12.23 54.014 0.117 6.97 3.33 9.16
5/2/2022 10:45:00 AM 12.29 54.122 0.117 6.99 4.92 9.53
5/2/2022 11:00:00 AM 12.36 54.248 0.117 7.04 5.15 9.91
5/2/2022 11:15:00 AM 12.45 54.41 0.117 7.04 5.07 10.02
5/2/2022 11:30:00 AM 12.55 54.59 0.116 7.06 5.18 10.15
5/2/2022 11:45:00 AM 12.63 54.734 0.116 7.08 4.49 10.27
5/2/2022 12:00:00 PM 12.71 54.878 0.116 7.08 5.2 10.26
5/2/2022 12:15:00 PM 12.79 55.022 0.116 7.11 5.22 10.44
5/2/2022 12:30:00 PM 12.81 55.058 0.116 7.1 3.91 10.43
5/2/2022 12:45:00 PM 12.87 55.166 0.116 7.13 3.95 10.7
5/2/2022 1:00:00 PM 12.94 55.292 0.116 7.15 5.21 10.64
5/2/2022 1:15:00 PM 13.01 55.418 0.116 7.18 5.34 10.77
5/2/2022 1:30:00 PM 13.08 55.544 0.116 7.19 5.12 10.75
5/2/2022 1:45:00 PM 13.23 55.814 0.116 7.22 5.13 10.83
5/2/2022 2:00:00 PM 13.36 56.048 0.116 7.23 5.17 10.78
5/2/2022 2:15:00 PM 13.5 56.3 0.116 7.22 5.24 10.74
5/2/2022 2:30:00 PM 13.62 56.516 0.116 7.24 5.16 10.8
5/2/2022 2:45:00 PM 13.68 56.624 0.116 7.25 3.64 10.94
5/2/2022 3:00:00 PM 13.76 56.768 0.116 7.29 3.93 11
5/2/2022 3:15:00 PM 13.82 56.876 0.116 7.36 5.09 11.08
5/2/2022 3:30:00 PM 13.85 56.93 0.116 7.34 5.08 11.06
5/2/2022 3:45:00 PM 13.87 56.966 0.116 7.35 4.98 11.04
5/2/2022 4:00:00 PM 13.88 56.984 0.116 7.31 4.93 10.98
5/2/2022 4:15:00 PM 13.89 57.002 0.116 7.31 4.7 10.93
5/2/2022 4:30:00 PM 13.91 57.038 0.116 7.33 4.64 10.92
5/2/2022 4:45:00 PM 13.93 57.074 0.116 7.33 4.84 10.92
5/2/2022 5:00:00 PM 13.95 57.11 0.116 7.33 4.11 10.91
5/2/2022 5:15:00 PM 13.96 57.128 0.116 7.35 4.78 10.86
5/2/2022 5:30:00 PM 13.97 57.146 0.116 7.33 5.08 10.82
5/2/2022 5:45:00 PM 13.99 57.182 0.116 7.31 4.68 10.76
5/2/2022 6:00:00 PM 14 57.2 0.116 7.3 3.43 10.76
5/2/2022 6:15:00 PM 14.02 57.236 0.116 7.28 3.44 10.68
5/2/2022 6:30:00 PM 14.03 57.254 0.116 7.29 3.47 10.66
5/2/2022 6:45:00 PM 14.04 57.272 0.116 7.36 4.62 10.57
5/2/2022 7:00:00 PM 14.04 57.272 0.116 7.27 4.85 10.51
5/2/2022 7:15:00 PM 14.04 57.272 0.116 7.27 4.72 10.44
5/2/2022 7:30:00 PM 14.04 57.272 0.116 7.22 3.33 10.4
5/2/2022 7:45:00 PM 14.03 57.254 0.116 7.24 4.48 10.3
5/2/2022 8:00:00 PM 14.02 57.236 0.116 7.19 3.24 10.26
5/2/2022 8:15:00 PM 14 57.2 0.116 7.23 3.25 10.2
5/2/2022 8:30:00 PM 13.98 57.164 0.117 7.2 3.23 10.18
5/2/2022 8:45:00 PM 13.96 57.128 0.117 7.2 3.25 10.1
5/2/2022 9:00:00 PM 13.93 57.074 0.117 7.15 4.68 10.03
5/2/2022 9:15:00 PM 13.9 57.02 0.117 7.15 4.88 9.98
5/2/2022 9:30:00 PM 13.87 56.966 0.117 7.13 3.2 9.94
5/2/2022 9:45:00 PM 13.83 56.894 0.117 7.14 3.3 9.93
5/2/2022 10:00:00 PM 13.8 56.84 0.117 7.11 3.16 9.89
5/2/2022 10:15:00 PM 13.76 56.768 0.117 7.1 3.13 9.84
5/2/2022 10:30:00 PM 13.72 56.696 0.117 7.14 3.29 9.75
5/2/2022 10:45:00 PM 13.68 56.624 0.117 7.08 4.45 9.69
5/2/2022 11:00:00 PM 13.64 56.552 0.117 7.08 4.58 9.64
5/2/2022 11:15:00 PM 13.59 56.462 0.117 7.05 4.25 9.58
5/2/2022 11:30:00 PM 13.54 56.372 0.117 7.05 4.28 9.52
5/2/2022 11:45:00 PM 13.5 56.3 0.117 7.04 4.51 9.47
5/3/2022 12:00:00 AM 13.45 56.21 0.117 7.04 4.59 9.43
5/3/2022 12:15:00 AM 13.4 56.12 0.117 7.02 4.44 9.37
5/3/2022 12:30:00 AM 13.35 56.03 0.117 7.02 4.61 9.32
5/3/2022 12:45:00 AM 13.3 55.94 0.117 7.01 4.48 9.27
5/3/2022 1:00:00 AM 13.26 55.868 0.117 7.01 4.38 9.23
5/3/2022 1:15:00 AM 13.21 55.778 0.117 7 4.39 9.2
5/3/2022 1:30:00 AM 13.16 55.688 0.117 6.97 3.15 9.16
5/3/2022 1:45:00 AM 13.11 55.598 0.117 6.99 4.44 9.12
5/3/2022 2:00:00 AM 13.07 55.526 0.117 6.97 4.21 9.07
5/3/2022 2:15:00 AM 13.02 55.436 0.117 6.97 4.42 9.02
5/3/2022 2:30:00 AM 12.97 55.346 0.118 6.97 4.37 8.97
5/3/2022 2:45:00 AM 12.93 55.274 0.118 6.96 4.34 8.93
5/3/2022 3:00:00 AM 12.89 55.202 0.118 6.95 4.31 8.89
5/3/2022 3:15:00 AM 12.84 55.112 0.118 6.95 4.41 8.84
5/3/2022 3:30:00 AM 12.8 55.04 0.118 6.94 4.35 8.81
5/3/2022 3:45:00 AM 12.75 54.95 0.118 6.94 4.46 8.77
5/3/2022 4:00:00 AM 12.72 54.896 0.118 6.94 4.37 8.73
5/3/2022 4:15:00 AM 12.67 54.806 0.118 6.91 3.04 8.7
5/3/2022 4:30:00 AM 12.63 54.734 0.118 6.92 4.29 8.67
5/3/2022 4:45:00 AM 12.59 54.662 0.118 6.92 4.28 8.64
5/3/2022 5:00:00 AM 12.55 54.59 0.118 6.91 4.42 8.61
5/3/2022 5:15:00 AM 12.5 54.5 0.118 6.89 3.12 8.59
5/3/2022 5:30:00 AM 12.46 54.428 0.118 6.94 3.03 8.55
5/3/2022 5:45:00 AM 12.41 54.338 0.118 6.9 4.2 8.5
5/3/2022 6:00:00 AM 12.36 54.248 0.118 6.89 3 8.47
5/3/2022 6:15:00 AM 12.3 54.14 0.118 6.91 2.98 8.43
5/3/2022 6:30:00 AM 12.25 54.05 0.118 6.89 4.29 8.38
5/3/2022 6:45:00 AM 12.2 53.96 0.118 6.88 2.96 8.36
5/3/2022 7:00:00 AM 12.14 53.852 0.118 6.93 2.93 8.32
5/3/2022 7:15:00 AM 12.09 53.762 0.118 6.87 3.02 8.31
5/3/2022 7:30:00 AM 12.06 53.708 0.118 6.88 4.37 8.31
5/3/2022 7:45:00 AM 12.02 53.636 0.118 6.91 3 8.3
5/3/2022 8:00:00 AM 12 53.6 0.118 6.87 4.36 8.27
5/3/2022 8:15:00 AM 11.97 53.546 0.118 6.87 4.35 8.25
5/3/2022 8:30:00 AM 11.96 53.528 0.118 6.87 4.38 8.24
5/3/2022 8:45:00 AM 11.95 53.51 0.118 6.85 3 8.22
5/3/2022 9:00:00 AM 11.94 53.492 0.118 6.9 3.12 8.19
5/3/2022 9:15:00 AM 11.95 53.51 0.119 6.85 4.31 8.19
5/3/2022 9:30:00 AM 11.97 53.546 0.118 6.87 4.41 8.21
5/3/2022 9:45:00 AM 12 53.6 0.118 6.87 3.18 8.77
5/3/2022 10:00:00 AM 12.07 53.726 0.118 6.94 4.66 9.22
5/3/2022 10:15:00 AM 12.13 53.834 0.118 6.98 3.5 9.36
5/3/2022 10:30:00 AM 12.23 54.014 0.118 7.01 3.51 9.87
5/3/2022 10:45:00 AM 12.36 54.248 0.118 7.02 5.06 9.89
5/3/2022 11:00:00 AM 12.45 54.41 0.118 7.04 3.46 9.97
5/3/2022 11:15:00 AM 12.65 54.77 0.118 7.08 4.91 10.13
5/3/2022 11:30:00 AM 12.8 55.04 0.118 7.11 4.92 10.29
5/3/2022 11:45:00 AM 12.99 55.382 0.118 7.15 5 10.56
5/3/2022 12:00:00 PM 13.15 55.67 0.118 7.19 4.88 10.67
5/3/2022 12:15:00 PM 13.36 56.048 0.118 7.22 5.11 10.89
5/3/2022 12:30:00 PM 13.6 56.48 0.118 7.27 5 11.09
5/3/2022 12:45:00 PM 13.83 56.894 0.118 7.31 4.95 11.21
5/3/2022 1:00:00 PM 14.05 57.29 0.118 7.34 4.99 11.31
5/3/2022 1:15:00 PM 14.23 57.614 0.118 7.36 4.98 11.36
5/3/2022 1:30:00 PM 14.42 57.956 0.119 7.4 4.99 11.41
5/3/2022 1:45:00 PM 14.5 58.1 0.119 7.38 3.75 11.41
5/3/2022 2:00:00 PM 14.62 58.316 0.119 7.42 4.94 11.38
5/3/2022 2:15:00 PM 14.68 58.424 0.119 7.41 3.5 11.4
5/3/2022 2:30:00 PM 14.74 58.532 0.119 7.42 3.79 11.44
5/3/2022 2:45:00 PM 14.81 58.658 0.119 7.43 3.71 11.38
5/3/2022 3:00:00 PM 14.88 58.784 0.119 7.45 3.65 11.31
5/3/2022 3:15:00 PM 14.98 58.964 0.119 7.48 4.35 11.34
5/3/2022 3:30:00 PM 15.04 59.072 0.119 7.45 3.63 11.35
5/3/2022 3:45:00 PM 15.09 59.162 0.119 7.44 3.45 11.32
5/3/2022 4:00:00 PM 15.18 59.324 0.119 7.51 4.19 11.25
5/3/2022 4:15:00 PM 15.24 59.432 0.119 7.48 3.4 11.23
5/3/2022 4:30:00 PM 15.28 59.504 0.119 7.5 3.48 11.23
5/3/2022 4:45:00 PM 15.32 59.576 0.119 7.5 3.4 11.16
5/3/2022 5:00:00 PM 15.37 59.666 0.119 7.46 3.4 11.13
5/3/2022 5:15:00 PM 15.44 59.792 0.119 7.5 4 11.07
5/3/2022 5:30:00 PM 15.47 59.846 0.119 7.44 3.4 10.99
5/3/2022 5:45:00 PM 15.53 59.954 0.12 7.5 4.76 10.93
5/3/2022 6:00:00 PM 15.57 60.026 0.119 7.45 3.44 10.89
5/3/2022 6:15:00 PM 15.61 60.098 0.119 7.47 3.47 10.79
5/3/2022 6:30:00 PM 15.68 60.224 0.12 7.49 4.78 10.69
5/3/2022 6:45:00 PM 15.7 60.26 0.12 7.45 3.27 10.63
5/3/2022 7:00:00 PM 15.73 60.314 0.12 7.44 3.36 10.55
5/3/2022 7:15:00 PM 15.74 60.332 0.12 7.42 3.53 10.47
5/3/2022 7:30:00 PM 15.75 60.35 0.12 7.41 3.33 10.43
5/3/2022 7:45:00 PM 15.75 60.35 0.12 7.4 4.63 10.37
5/3/2022 8:00:00 PM 15.74 60.332 0.12 7.35 3.26 10.33
5/3/2022 8:15:00 PM 15.73 60.314 0.12 7.41 3.28 10.3
5/3/2022 8:30:00 PM 15.71 60.278 0.12 7.33 3.31 10.24
5/3/2022 8:45:00 PM 15.69 60.242 0.12 7.32 3.28 10.16
5/3/2022 9:00:00 PM 15.66 60.188 0.121 7.29 3.06 10.14
5/3/2022 9:15:00 PM 15.63 60.134 0.12 7.31 4.44 10.08
5/3/2022 9:30:00 PM 15.59 60.062 0.12 7.28 3.22 10.09
5/3/2022 9:45:00 PM 15.55 59.99 0.121 7.32 3.14 9.97
5/3/2022 10:00:00 PM 15.51 59.918 0.121 7.27 3.21 9.88
5/3/2022 10:15:00 PM 15.46 59.828 0.121 7.21 3.13 9.82
5/3/2022 10:30:00 PM 15.42 59.756 0.121 7.18 3.22 9.76
5/3/2022 10:45:00 PM 15.38 59.684 0.121 7.18 3.11 9.69
5/3/2022 11:00:00 PM 15.34 59.612 0.121 7.25 3.01 9.61
5/3/2022 11:15:00 PM 15.29 59.522 0.121 7.16 3.09 9.59
5/3/2022 11:30:00 PM 15.25 59.45 0.121 7.19 3.07 9.49
5/3/2022 11:45:00 PM 15.19 59.342 0.121 7.14 3.04 9.46
5/4/2022 12:00:00 AM 15.15 59.27 0.121 7.13 3.06 9.44
5/4/2022 12:15:00 AM 15.1 59.18 0.121 7.14 3.16 9.36
5/4/2022 12:30:00 AM 15.04 59.072 0.121 7.12 3.09 9.31
5/4/2022 12:45:00 AM 14.98 58.964 0.122 7.09 3.04 9.23
5/4/2022 1:00:00 AM 14.93 58.874 0.121 7.09 4.31 9.16
5/4/2022 1:15:00 AM 14.86 58.748 0.121 7.06 2.96 9.14
5/4/2022 1:30:00 AM 14.8 58.64 0.122 7.09 2.96 9.09
5/4/2022 1:45:00 AM 14.74 58.532 0.122 7.13 4.3 9.01
5/4/2022 2:00:00 AM 14.68 58.424 0.122 7.03 3.02 8.97
5/4/2022 2:15:00 AM 14.62 58.316 0.122 7.1 3 8.92
5/4/2022 2:30:00 AM 14.56 58.208 0.122 7.07 2.91 8.89
5/4/2022 2:45:00 AM 14.5 58.1 0.122 7.02 3.05 8.84
5/4/2022 3:00:00 AM 14.44 57.992 0.122 7.01 2.91 8.83
5/4/2022 3:15:00 AM 14.37 57.866 0.122 7.08 2.92 8.76
5/4/2022 3:30:00 AM 14.31 57.758 0.122 7 2.95 8.73
5/4/2022 3:45:00 AM 14.27 57.686 0.122 6.99 2.95 8.67
5/4/2022 4:00:00 AM 14.2 57.56 0.122 6.98 2.88 8.62
5/4/2022 4:15:00 AM 14.16 57.488 0.122 7.01 4.4 8.57
5/4/2022 4:30:00 AM 14.1 57.38 0.122 6.96 2.96 8.53
5/4/2022 4:45:00 AM 14.05 57.29 0.122 7.04 2.88 8.48
5/4/2022 5:00:00 AM 14 57.2 0.122 7.01 2.96 8.46
5/4/2022 5:15:00 AM 13.94 57.092 0.122 6.98 3 8.43
5/4/2022 5:30:00 AM 13.9 57.02 0.122 6.99 2.9 8.39
5/4/2022 5:45:00 AM 13.85 56.93 0.122 6.96 4.32 8.34
5/4/2022 6:00:00 AM 13.8 56.84 0.122 6.95 4.29 8.3
5/4/2022 6:15:00 AM 13.75 56.75 0.122 6.93 2.88 8.27
5/4/2022 6:30:00 AM 13.71 56.678 0.122 7 2.86 8.22
5/4/2022 6:45:00 AM 13.67 56.606 0.122 6.93 2.91 8.14
5/4/2022 7:00:00 AM 13.63 56.534 0.122 6.92 2.86 8.16
5/4/2022 7:15:00 AM 13.58 56.444 0.122 6.99 2.87 8.11
5/4/2022 7:30:00 AM 13.54 56.372 0.122 6.97 2.87 8.08
5/4/2022 7:45:00 AM 13.51 56.318 0.122 6.93 4.34 8.03
5/4/2022 8:00:00 AM 13.48 56.264 0.122 6.92 4.35 8
5/4/2022 8:15:00 AM 13.44 56.192 0.122 6.89 2.85 7.99
5/4/2022 8:30:00 AM 13.41 56.138 0.122 6.94 2.83 7.96
5/4/2022 8:45:00 AM 13.37 56.066 0.122 6.93 2.85 7.96
5/4/2022 9:00:00 AM 13.34 56.012 0.122 6.88 2.8 7.92
5/4/2022 9:15:00 AM 13.31 55.958 0.122 6.9 2.9 7.87
5/4/2022 9:30:00 AM 13.28 55.904 0.122 6.89 4.28 7.84
5/4/2022 9:45:00 AM 13.26 55.868 0.122 6.91 4.26 7.81
5/4/2022 10:00:00 AM 13.23 55.814 0.122 6.9 4.25 7.78
5/4/2022 10:15:00 AM 13.21 55.778 0.122 6.87 2.85 7.76
5/4/2022 10:30:00 AM 13.19 55.742 0.122 6.89 2.83 7.72
5/4/2022 10:45:00 AM 13.17 55.706 0.122 6.9 4.47 7.68
5/4/2022 11:00:00 AM 13.16 55.688 0.122 6.88 4.27 7.66
5/4/2022 11:15:00 AM 13.15 55.67 0.122 6.85 3.37 7.67
5/4/2022 11:30:00 AM 13.16 55.688 0.123 6.89 4.28 7.63
5/4/2022 11:45:00 AM 13.17 55.706 0.123 6.88 4.42 7.67
5/4/2022 12:00:00 PM 13.2 55.76 0.122 6.91 4.54 8.16
5/4/2022 12:15:00 PM 13.26 55.868 0.122 6.99 4.99 8.9
5/4/2022 12:30:00 PM 13.32 55.976 0.122 7.04 5.01 9.33
5/4/2022 12:45:00 PM 13.36 56.048 0.122 7.07 5.04 9.43
5/4/2022 1:00:00 PM 13.39 56.102 0.122 7.06 4.99 9.38
5/4/2022 1:15:00 PM 13.44 56.192 0.122 7.09 4.93 9.6
5/4/2022 1:30:00 PM 13.49 56.282 0.122 7.1 5.07 9.8
5/4/2022 1:45:00 PM 13.54 56.372 0.122 7.17 5.18 9.74
5/4/2022 2:00:00 PM 13.59 56.462 0.122 7.13 5.06 9.98
5/4/2022 2:15:00 PM 13.61 56.498 0.122 7.13 3.63 10.1
5/4/2022 2:30:00 PM 13.64 56.552 0.122 7.17 5.02 10.12
5/4/2022 2:45:00 PM 13.67 56.606 0.122 7.19 5.34 10.19
5/4/2022 3:00:00 PM 13.69 56.642 0.122 7.21 5.32 10.27
5/4/2022 3:15:00 PM 13.71 56.678 0.122 7.22 5.22 10.32
5/4/2022 3:30:00 PM 13.73 56.714 0.121 7.22 3.77 10.35
5/4/2022 3:45:00 PM 13.77 56.786 0.122 7.25 3.86 10.47
5/4/2022 4:00:00 PM 13.79 56.822 0.122 7.26 4.08 10.4
5/4/2022 4:15:00 PM 13.81 56.858 0.122 7.27 4.43 10.56
5/4/2022 4:30:00 PM 13.83 56.894 0.122 7.28 5.49 10.43
5/4/2022 4:45:00 PM 13.84 56.912 0.122 7.24 5.49 10.29
5/4/2022 5:00:00 PM 13.86 56.948 0.122 7.24 3.92 10.37
5/4/2022 5:15:00 PM 13.89 57.002 0.122 7.27 4.07 10.47
5/4/2022 5:30:00 PM 13.9 57.02 0.122 7.29 4.26 10.51
5/4/2022 5:45:00 PM 13.91 57.038 0.122 7.29 5.72 10.34
5/4/2022 6:00:00 PM 13.91 57.038 0.122 7.24 3.99 10.35
5/4/2022 6:15:00 PM 13.91 57.038 0.122 7.25 5.64 10.24
5/4/2022 6:30:00 PM 13.91 57.038 0.122 7.26 5.48 10.14
5/4/2022 6:45:00 PM 13.91 57.038 0.122 7.21 5.89 10.08
5/4/2022 7:00:00 PM 13.9 57.02 0.122 7.2 5.44 10.01
5/4/2022 7:15:00 PM 13.89 57.002 0.122 7.18 5.33 9.93
5/4/2022 7:30:00 PM 13.88 56.984 0.122 7.16 5.25 9.86
5/4/2022 7:45:00 PM 13.86 56.948 0.122 7.15 5.11 9.81
5/4/2022 8:00:00 PM 13.85 56.93 0.122 7.14 3.76 9.82
5/4/2022 8:15:00 PM 13.83 56.894 0.122 7.12 3.75 9.78
5/4/2022 8:30:00 PM 13.81 56.858 0.122 7.13 5.51 9.69
5/4/2022 8:45:00 PM 13.79 56.822 0.122 7.11 5.49 9.66
5/4/2022 9:00:00 PM 13.76 56.768 0.122 7.1 3.75 9.62
5/4/2022 9:15:00 PM 13.74 56.732 0.122 7.09 3.66 9.59
5/4/2022 9:30:00 PM 13.71 56.678 0.122 7.11 5.45 9.51
5/4/2022 9:45:00 PM 13.68 56.624 0.122 7.08 3.67 9.49
5/4/2022 10:00:00 PM 13.65 56.57 0.122 7.15 6.03 9.4
5/4/2022 10:15:00 PM 13.62 56.516 0.122 7.07 5.24 9.35
5/4/2022 10:30:00 PM 13.59 56.462 0.122 7.05 5.14 9.3
5/4/2022 10:45:00 PM 13.56 56.408 0.123 7.05 5.11 9.23
5/4/2022 11:00:00 PM 13.53 56.354 0.123 7.15 5.81 9.18
5/4/2022 11:15:00 PM 13.49 56.282 0.123 7.12 5.41 9.14
5/4/2022 11:30:00 PM 13.46 56.228 0.123 7.02 5.14 9.1
5/4/2022 11:45:00 PM 13.43 56.174 0.123 7.02 4.95 9.04
5/5/2022 12:00:00 AM 13.39 56.102 0.123 7.02 4.94 9.01
5/5/2022 12:15:00 AM 13.36 56.048 0.123 7.01 5.07 8.97
5/5/2022 12:30:00 AM 13.32 55.976 0.123 7 5.07 8.93
5/5/2022 12:45:00 AM 13.29 55.922 0.123 6.99 5.02 8.89
5/5/2022 1:00:00 AM 13.25 55.85 0.123 7.02 3.66 8.87
5/5/2022 1:15:00 AM 13.22 55.796 0.123 6.98 4.99 8.81
5/5/2022 1:30:00 AM 13.18 55.724 0.123 7.01 3.53 8.77
5/5/2022 1:45:00 AM 13.15 55.67 0.123 6.97 5.18 8.73
5/5/2022 2:00:00 AM 13.11 55.598 0.123 6.95 3.51 8.69
5/5/2022 2:15:00 AM 13.08 55.544 0.123 6.94 3.56 8.66
5/5/2022 2:30:00 AM 13.04 55.472 0.123 6.97 4.92 8.6
5/5/2022 2:45:00 AM 13 55.4 0.123 6.95 4.77 8.56
5/5/2022 3:00:00 AM 12.96 55.328 0.123 6.94 4.83 8.51
5/5/2022 3:15:00 AM 12.93 55.274 0.123 6.94 4.7 8.47
5/5/2022 3:30:00 AM 12.89 55.202 0.123 6.94 4.81 8.43
5/5/2022 3:45:00 AM 12.85 55.13 0.123 6.91 3.41 8.41
5/5/2022 4:00:00 AM 12.8 55.04 0.123 6.94 4.93 8.35
5/5/2022 4:15:00 AM 12.75 54.95 0.123 6.92 4.81 8.31
5/5/2022 4:30:00 AM 12.7 54.86 0.123 6.9 3.37 8.3
5/5/2022 4:45:00 AM 12.65 54.77 0.123 6.91 4.88 8.24
5/5/2022 5:00:00 AM 12.6 54.68 0.123 6.9 4.75 8.21
5/5/2022 5:15:00 AM 12.54 54.572 0.123 6.9 4.99 8.18
5/5/2022 5:30:00 AM 12.48 54.464 0.123 6.88 3.36 8.15
5/5/2022 5:45:00 AM 12.42 54.356 0.123 6.94 3.33 8.12
5/5/2022 6:00:00 AM 12.36 54.248 0.123 6.88 4.74 8.09
5/5/2022 6:15:00 AM 12.31 54.158 0.123 6.88 5.02 8.08
5/5/2022 6:30:00 AM 12.25 54.05 0.123 6.89 4.85 8.07
5/5/2022 6:45:00 AM 12.2 53.96 0.123 6.85 3.62 8.04
5/5/2022 7:00:00 AM 12.15 53.87 0.123 6.84 3.43 8.01
5/5/2022 7:15:00 AM 12.11 53.798 0.123 6.85 5.03 7.98
5/5/2022 7:30:00 AM 12.07 53.726 0.123 6.84 4.83 7.96
5/5/2022 7:45:00 AM 12.03 53.654 0.123 6.83 3.37 7.95
5/5/2022 8:00:00 AM 11.99 53.582 0.123 6.83 4.75 7.91
5/5/2022 8:15:00 AM 11.96 53.528 0.123 6.81 3.28 7.9
5/5/2022 8:30:00 AM 11.94 53.492 0.123 6.83 4.79 7.86
5/5/2022 8:45:00 AM 11.92 53.456 0.123 6.84 4.79 7.84
5/5/2022 9:00:00 AM 11.91 53.438 0.123 6.82 3.22 7.82
5/5/2022 9:15:00 AM 11.91 53.438 0.124 6.82 3.24 7.8
5/5/2022 9:30:00 AM 11.92 53.456 0.124 6.85 4.78 7.79
5/5/2022 9:45:00 AM 11.94 53.492 0.123 6.93 3.73 8.91
5/5/2022 10:00:00 AM 12.03 53.654 0.123 6.99 5.35 9.53
5/5/2022 10:15:00 AM 12.1 53.78 0.122 7.01 5.39 9.56
5/5/2022 10:30:00 AM 12.15 53.87 0.122 6.99 3.73 9.49
5/5/2022 10:45:00 AM 12.29 54.122 0.122 7.02 5.1 9.31
5/5/2022 11:00:00 AM 12.44 54.392 0.122 7.02 5.56 9.53
5/5/2022 11:15:00 AM 12.6 54.68 0.122 7.07 5.27 9.71
5/5/2022 11:30:00 AM 12.78 55.004 0.121 7.14 5.42 10.2
5/5/2022 11:45:00 AM 13 55.4 0.121 7.21 5.72 10.62
5/5/2022 12:00:00 PM 13.18 55.724 0.121 7.25 5.41 10.78
5/5/2022 12:15:00 PM 13.36 56.048 0.121 7.28 5.24 10.86
5/5/2022 12:30:00 PM 13.57 56.426 0.12 7.31 5.31 10.95
5/5/2022 12:45:00 PM 13.76 56.768 0.121 7.33 5.29 11.02
5/5/2022 1:00:00 PM 13.98 57.164 0.12 7.39 5.22 11.16
5/5/2022 1:15:00 PM 14.15 57.47 0.12 7.39 3.68 11.22
5/5/2022 1:30:00 PM 14.39 57.902 0.12 7.43 4.24 11.26
5/5/2022 1:45:00 PM 14.61 58.298 0.12 7.48 5.2 11.32
5/5/2022 2:00:00 PM 14.78 58.604 0.12 7.48 3.56 11.36
5/5/2022 2:15:00 PM 14.97 58.946 0.121 7.48 3.67 11.36
5/5/2022 2:30:00 PM 15.18 59.324 0.12 7.55 3.61 11.4
5/5/2022 2:45:00 PM 15.37 59.666 0.121 7.55 3.55 11.4
5/5/2022 3:00:00 PM 15.59 60.062 0.121 7.59 3.59 11.28
5/5/2022 3:15:00 PM 15.78 60.404 0.121 7.57 3.48 11.39
5/5/2022 3:30:00 PM 15.99 60.782 0.121 7.62 3.51 11.32
5/5/2022 3:45:00 PM 16.12 61.016 0.121 7.64 3.54 11.33
5/5/2022 4:00:00 PM 16.26 61.268 0.121 7.67 3.37 11.27
5/5/2022 4:15:00 PM 16.43 61.574 0.121 7.71 4.93 11.26
5/5/2022 4:30:00 PM 16.5 61.7 0.121 7.69 3.38 11.21
5/5/2022 4:45:00 PM 16.61 61.898 0.121 7.68 3.29 11.18
5/5/2022 5:00:00 PM 16.71 62.078 0.121 7.68 3.4 11.18
5/5/2022 5:15:00 PM 16.8 62.24 0.121 7.69 3.28 11.13
5/5/2022 5:30:00 PM 16.86 62.348 0.121 7.7 3.27 11.09
5/5/2022 5:45:00 PM 16.92 62.456 0.121 7.72 3.35 11
5/5/2022 6:00:00 PM 16.96 62.528 0.121 7.69 3.61 10.92
5/5/2022 6:15:00 PM 16.99 62.582 0.121 7.7 3.37 10.86
5/5/2022 6:30:00 PM 17.01 62.618 0.121 7.66 3.85 10.81
5/5/2022 6:45:00 PM 17.02 62.636 0.121 7.75 3.58 10.76
5/5/2022 7:00:00 PM 17.02 62.636 0.121 7.68 3.29 10.7
5/5/2022 7:15:00 PM 17.02 62.636 0.121 7.59 4.64 10.63
5/5/2022 7:30:00 PM 17 62.6 0.121 7.65 3.3 10.59
5/5/2022 7:45:00 PM 16.99 62.582 0.121 7.5 3.23 10.53
5/5/2022 8:00:00 PM 16.96 62.528 0.121 7.5 3.22 10.49
5/5/2022 8:15:00 PM 16.93 62.474 0.121 7.44 3.2 10.42
5/5/2022 8:30:00 PM 16.89 62.402 0.121 7.42 3.23 10.4
5/5/2022 8:45:00 PM 16.83 62.294 0.121 7.39 3.08 10.18
5/5/2022 9:00:00 PM 16.77 62.186 0.121 7.37 3.12 10.1
5/5/2022 9:15:00 PM 16.7 62.06 0.121 7.36 3.16 9.98
5/5/2022 9:30:00 PM 16.62 61.916 0.121 7.36 2.99 9.94
5/5/2022 9:45:00 PM 16.55 61.79 0.121 7.3 3 9.85
5/5/2022 10:00:00 PM 16.47 61.646 0.121 7.29 3.04 9.83
5/5/2022 10:15:00 PM 16.4 61.52 0.121 7.28 4.39 9.79
5/5/2022 10:30:00 PM 16.31 61.358 0.121 7.24 3.02 9.76
5/5/2022 10:45:00 PM 16.22 61.196 0.121 7.24 2.99 9.7
5/5/2022 11:00:00 PM 16.14 61.052 0.121 7.26 3.07 9.68
5/5/2022 11:15:00 PM 16.06 60.908 0.121 7.21 3.05 9.61
5/5/2022 11:30:00 PM 15.97 60.746 0.121 7.26 3.05 9.56
5/5/2022 11:45:00 PM 15.88 60.584 0.121 7.19 3.01 9.46
5/6/2022 12:00:00 AM 15.79 60.422 0.121 7.19 3.07 9.44
5/6/2022 12:15:00 AM 15.71 60.278 0.122 7.18 3.02 9.44
5/6/2022 12:30:00 AM 15.6 60.08 0.122 7.16 2.96 9.34
5/6/2022 12:45:00 AM 15.51 59.918 0.122 7.15 3.07 9.32
5/6/2022 1:00:00 AM 15.42 59.756 0.122 7.14 2.98 9.23
5/6/2022 1:15:00 AM 15.34 59.612 0.121 7.25 4.47 9.22
5/6/2022 1:30:00 AM 15.25 59.45 0.121 7.12 3.04 9.17
5/6/2022 1:45:00 AM 15.16 59.288 0.121 7.15 2.97 9.13
5/6/2022 2:00:00 AM 15.05 59.09 0.121 7.16 3.08 9.11
5/6/2022 2:15:00 AM 14.97 58.946 0.121 7.11 2.96 9.03
5/6/2022 2:30:00 AM 14.88 58.784 0.121 7.09 2.99 9.01
5/6/2022 2:45:00 AM 14.79 58.622 0.121 7.19 4.47 8.95
5/6/2022 3:00:00 AM 14.69 58.442 0.121 7.07 3.05 8.93
5/6/2022 3:15:00 AM 14.61 58.298 0.121 7.08 4.3 8.88
5/6/2022 3:30:00 AM 14.52 58.136 0.121 7.11 2.99 8.83
5/6/2022 3:45:00 AM 14.43 57.974 0.121 7.09 2.98 8.82
5/6/2022 4:00:00 AM 14.36 57.848 0.121 7.05 4.62 8.75
5/6/2022 4:15:00 AM 14.27 57.686 0.121 7.12 3.03 8.72
5/6/2022 4:30:00 AM 14.18 57.524 0.121 7.03 3.06 8.67
5/6/2022 4:45:00 AM 14.12 57.416 0.121 7.04 4.64 8.66
5/6/2022 5:00:00 AM 14.04 57.272 0.121 7.03 4.55 8.62
5/6/2022 5:15:00 AM 13.97 57.146 0.121 7.03 4.68 8.6
5/6/2022 5:30:00 AM 13.89 57.002 0.121 7 3.05 8.54
5/6/2022 5:45:00 AM 13.82 56.876 0.121 7.08 3.14 8.52
5/6/2022 6:00:00 AM 13.76 56.768 0.121 7.01 4.69 8.47
5/6/2022 6:15:00 AM 13.7 56.66 0.121 7 4.54 8.44
5/6/2022 6:30:00 AM 13.64 56.552 0.121 6.97 3.1 8.42
5/6/2022 6:45:00 AM 13.57 56.426 0.121 6.97 3.08 8.37
5/6/2022 7:00:00 AM 13.52 56.336 0.121 6.98 4.57 8.35
5/6/2022 7:15:00 AM 13.47 56.246 0.121 6.97 4.64 8.32
5/6/2022 7:30:00 AM 13.41 56.138 0.121 6.96 4.64 8.3
5/6/2022 7:45:00 AM 13.36 56.048 0.121 6.95 4.64 8.25
5/6/2022 8:00:00 AM 13.32 55.976 0.121 6.95 4.57 8.24
5/6/2022 8:15:00 AM 13.26 55.868 0.121 6.93 3.09 8.21
5/6/2022 8:30:00 AM 13.23 55.814 0.121 6.94 4.51 8.18
5/6/2022 8:45:00 AM 13.19 55.742 0.121 6.92 3.14 8.18
5/6/2022 9:00:00 AM 13.17 55.706 0.121 6.96 3.12 8.13
5/6/2022 9:15:00 AM 13.14 55.652 0.121 6.91 3.11 8.11
5/6/2022 9:30:00 AM 13.12 55.616 0.121 6.91 3.09 8.08
5/6/2022 9:45:00 AM 13.11 55.598 0.121 6.93 3.14 8.06
5/6/2022 10:00:00 AM 13.11 55.598 0.121 6.94 3.1 8.02
5/6/2022 10:15:00 AM 13.1 55.58 0.121 6.9 3.12 8.01
5/6/2022 10:30:00 AM 13.1 55.58 0.121 6.9 3.08 8.01
5/6/2022 10:45:00 AM 13.11 55.598 0.122 6.92 3.32 8
5/6/2022 11:00:00 AM 13.11 55.598 0.122 6.91 3.04 8.04
5/6/2022 11:15:00 AM 13.12 55.616 0.122 6.93 4.52 8.03
5/6/2022 11:30:00 AM 13.13 55.634 0.121 6.92 3.03 8.13
5/6/2022 11:45:00 AM 13.16 55.688 0.122 6.96 4.53 8.32
5/6/2022 12:00:00 PM 13.18 55.724 0.121 7.03 4.91 8.89
5/6/2022 12:15:00 PM 13.2 55.76 0.121 7.02 3.55 9.41
5/6/2022 12:30:00 PM 13.23 55.814 0.121 7.03 3.7 9.56
5/6/2022 12:45:00 PM 13.27 55.886 0.121 7.11 5.01 9.7
5/6/2022 1:00:00 PM 13.3 55.94 0.121 7.22 5.03 9.77
5/6/2022 1:15:00 PM 13.34 56.012 0.121 7.16 5.1 9.96
5/6/2022 1:30:00 PM 13.37 56.066 0.121 7.17 5.03 9.96
5/6/2022 1:45:00 PM 13.41 56.138 0.121 7.29 5.1 10.12
5/6/2022 2:00:00 PM 13.44 56.192 0.12 7.17 5.04 10.14
5/6/2022 2:15:00 PM 13.45 56.21 0.121 7.21 3.44 10.33
5/6/2022 2:30:00 PM 13.48 56.264 0.121 7.17 5.03 9.96
5/6/2022 2:45:00 PM 13.5 56.3 0.121 7.19 4.89 10.03
5/6/2022 3:00:00 PM 13.52 56.336 0.121 7.21 4.86 10.17
5/6/2022 3:15:00 PM 13.54 56.372 0.12 7.25 3.43 10.35
5/6/2022 3:30:00 PM 13.56 56.408 0.12 7.23 4.84 10.21
5/6/2022 3:45:00 PM 13.59 56.462 0.12 7.19 4.83 10
5/6/2022 4:00:00 PM 13.62 56.516 0.12 7.25 4.81 10.12
5/6/2022 4:15:00 PM 13.65 56.57 0.12 7.33 4.95 10.04
5/6/2022 4:30:00 PM 13.67 56.606 0.12 7.29 3.38 10.46
5/6/2022 4:45:00 PM 13.7 56.66 0.12 7.27 3.62 10.59
5/6/2022 5:00:00 PM 13.73 56.714 0.12 7.26 4.92 10.32
5/6/2022 5:15:00 PM 13.75 56.75 0.12 7.22 3.43 10.43
5/6/2022 5:30:00 PM 13.77 56.786 0.12 7.27 3.32 10.48
5/6/2022 5:45:00 PM 13.78 56.804 0.121 7.29 3.27 10.45
5/6/2022 6:00:00 PM 13.79 56.822 0.121 7.24 3.38 10.45
5/6/2022 6:15:00 PM 13.8 56.84 0.121 7.27 3.27 10.47
5/6/2022 6:30:00 PM 13.81 56.858 0.121 7.3 4.73 10.3
5/6/2022 6:45:00 PM 13.81 56.858 0.121 7.31 4.58 10.33
5/6/2022 7:00:00 PM 13.81 56.858 0.121 7.3 3.34 10.38
5/6/2022 7:15:00 PM 13.81 56.858 0.121 7.23 3.14 10.26
5/6/2022 7:30:00 PM 13.8 56.84 0.121 7.25 3.3 10.18
5/6/2022 7:45:00 PM 13.79 56.822 0.121 7.2 3.21 10.07
5/6/2022 8:00:00 PM 13.78 56.804 0.121 7.21 4.79 9.88
5/6/2022 8:15:00 PM 13.76 56.768 0.121 7.2 4.61 9.85
5/6/2022 8:30:00 PM 13.75 56.75 0.121 7.2 4.66 9.8
5/6/2022 8:45:00 PM 13.73 56.714 0.121 7.19 4.57 9.77
5/6/2022 9:00:00 PM 13.71 56.678 0.121 7.25 4.64 9.74
5/6/2022 9:15:00 PM 13.69 56.642 0.121 7.17 4.56 9.76
5/6/2022 9:30:00 PM 13.67 56.606 0.121 7.31 4.63 9.63
5/6/2022 9:45:00 PM 13.65 56.57 0.121 7.18 4.56 9.61
5/6/2022 10:00:00 PM 13.62 56.516 0.121 7.15 3.17 9.71
5/6/2022 10:15:00 PM 13.59 56.462 0.121 7.16 3.2 9.63
5/6/2022 10:30:00 PM 13.56 56.408 0.121 7.13 3.12 9.55
5/6/2022 10:45:00 PM 13.53 56.354 0.121 7.11 4.55 9.41
5/6/2022 11:00:00 PM 13.5 56.3 0.121 7.13 4.56 9.38
5/6/2022 11:15:00 PM 13.47 56.246 0.121 7.12 4.45 9.32
5/6/2022 11:30:00 PM 13.44 56.192 0.121 7.07 4.55 9.3
5/6/2022 11:45:00 PM 13.41 56.138 0.121 7.1 4.49 9.27
5/7/2022 12:00:00 AM 13.37 56.066 0.121 7.06 4.57 9.22
5/7/2022 12:15:00 AM 13.33 55.994 0.121 7.08 4.49 9.22
5/7/2022 12:30:00 AM 13.3 55.94 0.121 7.05 4.52 9.17
5/7/2022 12:45:00 AM 13.27 55.886 0.121 7.07 4.34 9.12
5/7/2022 1:00:00 AM 13.23 55.814 0.121 7.07 4.45 9.06
5/7/2022 1:15:00 AM 13.19 55.742 0.121 7.06 4.41 8.99
5/7/2022 1:30:00 AM 13.14 55.652 0.121 7.1 3.04 9.04
5/7/2022 1:45:00 AM 13.1 55.58 0.122 7.1 3.05 8.92
5/7/2022 2:00:00 AM 13.06 55.508 0.122 7.06 2.97 8.95
5/7/2022 2:15:00 AM 13.02 55.436 0.122 7.02 4.46 8.85
5/7/2022 2:30:00 AM 12.98 55.364 0.122 7.04 4.48 8.85
5/7/2022 2:45:00 AM 12.94 55.292 0.122 7.02 4.49 8.81
5/7/2022 3:00:00 AM 12.9 55.22 0.122 7.01 4.5 8.79
5/7/2022 3:15:00 AM 12.86 55.148 0.122 7.01 4.58 8.75
5/7/2022 3:30:00 AM 12.81 55.058 0.122 7 4.41 8.72
5/7/2022 3:45:00 AM 12.77 54.986 0.122 7.1 4.53 8.72
5/7/2022 4:00:00 AM 12.73 54.914 0.122 7 4.45 8.64
5/7/2022 4:15:00 AM 12.69 54.842 0.122 7 4.54 8.65
5/7/2022 4:30:00 AM 12.65 54.77 0.122 7 4.42 8.61
5/7/2022 4:45:00 AM 12.6 54.68 0.122 6.96 3.02 8.58
5/7/2022 5:00:00 AM 12.56 54.608 0.122 7.03 2.96 8.54
5/7/2022 5:15:00 AM 12.51 54.518 0.122 6.98 3.01 8.53
5/7/2022 5:30:00 AM 12.46 54.428 0.122 7.01 2.96 8.5
5/7/2022 5:45:00 AM 12.41 54.338 0.122 6.96 4.48 8.43
5/7/2022 6:00:00 AM 12.35 54.23 0.122 6.93 2.97 8.4
5/7/2022 6:15:00 AM 12.31 54.158 0.122 6.95 4.43 8.38
5/7/2022 6:30:00 AM 12.27 54.086 0.122 6.93 3.02 8.39
5/7/2022 6:45:00 AM 12.21 53.978 0.122 7.06 4.55 8.34
5/7/2022 7:00:00 AM 12.16 53.888 0.122 6.92 3.01 8.29
5/7/2022 7:15:00 AM 12.12 53.816 0.122 6.99 3.06 8.28
5/7/2022 7:30:00 AM 12.07 53.726 0.122 6.95 3.01 8.25
5/7/2022 7:45:00 AM 12.04 53.672 0.122 6.94 4.37 8.23
5/7/2022 8:00:00 AM 11.99 53.582 0.122 6.9 3.05 8.21
5/7/2022 8:15:00 AM 11.96 53.528 0.122 6.99 4.39 8.19
5/7/2022 8:30:00 AM 11.92 53.456 0.122 6.9 3.02 8.18
5/7/2022 8:45:00 AM 11.9 53.42 0.122 6.94 3.05 8.18
5/7/2022 9:00:00 AM 11.88 53.384 0.122 6.96 2.97 8.13
5/7/2022 9:15:00 AM 11.86 53.348 0.122 6.95 3.14 8.13
5/7/2022 9:30:00 AM 11.85 53.33 0.122 6.91 3.01 8.11
5/7/2022 9:45:00 AM 11.85 53.33 0.123 6.91 3.13 8.09
5/7/2022 10:00:00 AM 11.86 53.348 0.122 6.92 3.97 8.09